<?xml version="1.0" encoding="UTF-8" standalone="no" ?>
<gpx xmlns="http://www.topografix.com/GPX/1/1" xmlns:xsi="http://www.w3.org/2001/XMLSchema-instance" xsi:schemaLocation="http://www.topografix.com/GPX/1/1 http://www.topografix.com/GPX/1/1/gpx.xsd" version="1.1" creator="VisuGPX - https://www.visugpx.com">
  <metadata>
    <name>Esterel ASCVTT 20/02/11</name>
    <desc><![CDATA[Esterel Ascvtt 20/02/11]]></desc>
  </metadata>
  <trk>
    <name><![CDATA[ACTIVE LOG]]></name>
    <trkseg>
      <trkpt lat="43.50761" lon="6.94169">
        <ele>6.3858642578125</ele>
        <time>2011-02-20T08:15:43Z</time>
      </trkpt>
      <trkpt lat="43.50775" lon="6.94177">
        <ele>4.94384765625</ele>
        <time>2011-02-20T08:15:53Z</time>
      </trkpt>
      <trkpt lat="43.50774" lon="6.94177">
        <ele>4.94384765625</ele>
        <time>2011-02-20T08:15:57Z</time>
      </trkpt>
      <trkpt lat="43.5078" lon="6.94167">
        <ele>5.424560546875</ele>
        <time>2011-02-20T08:16:04Z</time>
      </trkpt>
      <trkpt lat="43.50788" lon="6.94176">
        <ele>4.94384765625</ele>
        <time>2011-02-20T08:16:13Z</time>
      </trkpt>
      <trkpt lat="43.50783" lon="6.94175">
        <ele>4.94384765625</ele>
        <time>2011-02-20T08:16:16Z</time>
      </trkpt>
      <trkpt lat="43.50778" lon="6.94172">
        <ele>4.94384765625</ele>
        <time>2011-02-20T08:16:21Z</time>
      </trkpt>
      <trkpt lat="43.5078" lon="6.94168">
        <ele>5.424560546875</ele>
        <time>2011-02-20T08:16:23Z</time>
      </trkpt>
      <trkpt lat="43.5079" lon="6.94177">
        <ele>3.982666015625</ele>
        <time>2011-02-20T08:16:31Z</time>
      </trkpt>
      <trkpt lat="43.50787" lon="6.94177">
        <ele>3.982666015625</ele>
        <time>2011-02-20T08:16:32Z</time>
      </trkpt>
      <trkpt lat="43.50776" lon="6.94173">
        <ele>3.982666015625</ele>
        <time>2011-02-20T08:16:36Z</time>
      </trkpt>
      <trkpt lat="43.50764" lon="6.94162">
        <ele>5.424560546875</ele>
        <time>2011-02-20T08:16:45Z</time>
      </trkpt>
      <trkpt lat="43.50762" lon="6.9416">
        <ele>4.94384765625</ele>
        <time>2011-02-20T08:17:00Z</time>
      </trkpt>
      <trkpt lat="43.50762" lon="6.94159">
        <ele>5.424560546875</ele>
        <time>2011-02-20T08:17:22Z</time>
      </trkpt>
      <trkpt lat="43.50762" lon="6.94157">
        <ele>5.9052734375</ele>
        <time>2011-02-20T08:18:24Z</time>
      </trkpt>
      <trkpt lat="43.50762" lon="6.94157">
        <ele>5.9052734375</ele>
        <time>2011-02-20T08:18:41Z</time>
      </trkpt>
      <trkpt lat="43.50762" lon="6.94158">
        <ele>5.9052734375</ele>
        <time>2011-02-20T08:19:15Z</time>
      </trkpt>
      <trkpt lat="43.50763" lon="6.94158">
        <ele>5.424560546875</ele>
        <time>2011-02-20T08:20:05Z</time>
      </trkpt>
      <trkpt lat="43.50763" lon="6.94158">
        <ele>5.424560546875</ele>
        <time>2011-02-20T08:20:06Z</time>
      </trkpt>
      <trkpt lat="43.50762" lon="6.94162">
        <ele>5.424560546875</ele>
        <time>2011-02-20T08:20:12Z</time>
      </trkpt>
      <trkpt lat="43.50757" lon="6.94168">
        <ele>4.94384765625</ele>
        <time>2011-02-20T08:20:16Z</time>
      </trkpt>
      <trkpt lat="43.50754" lon="6.94174">
        <ele>4.94384765625</ele>
        <time>2011-02-20T08:20:18Z</time>
      </trkpt>
      <trkpt lat="43.50745" lon="6.94182">
        <ele>5.424560546875</ele>
        <time>2011-02-20T08:20:24Z</time>
      </trkpt>
      <trkpt lat="43.50743" lon="6.94178">
        <ele>5.424560546875</ele>
        <time>2011-02-20T08:20:27Z</time>
      </trkpt>
      <trkpt lat="43.50748" lon="6.94184">
        <ele>5.424560546875</ele>
        <time>2011-02-20T08:20:35Z</time>
      </trkpt>
      <trkpt lat="43.50751" lon="6.94182">
        <ele>5.9052734375</ele>
        <time>2011-02-20T08:20:37Z</time>
      </trkpt>
      <trkpt lat="43.50751" lon="6.94179">
        <ele>5.424560546875</ele>
        <time>2011-02-20T08:20:39Z</time>
      </trkpt>
      <trkpt lat="43.50742" lon="6.94175">
        <ele>4.94384765625</ele>
        <time>2011-02-20T08:20:48Z</time>
      </trkpt>
      <trkpt lat="43.50708" lon="6.94202">
        <ele>4.94384765625</ele>
        <time>2011-02-20T08:21:00Z</time>
      </trkpt>
      <trkpt lat="43.50702" lon="6.94207">
        <ele>4.94384765625</ele>
        <time>2011-02-20T08:21:02Z</time>
      </trkpt>
      <trkpt lat="43.50691" lon="6.94209">
        <ele>4.94384765625</ele>
        <time>2011-02-20T08:21:06Z</time>
      </trkpt>
      <trkpt lat="43.50668" lon="6.94181">
        <ele>5.9052734375</ele>
        <time>2011-02-20T08:21:21Z</time>
      </trkpt>
      <trkpt lat="43.50659" lon="6.94158">
        <ele>8.30859375</ele>
        <time>2011-02-20T08:21:31Z</time>
      </trkpt>
      <trkpt lat="43.50642" lon="6.94122">
        <ele>10.711791992188</ele>
        <time>2011-02-20T08:21:46Z</time>
      </trkpt>
      <trkpt lat="43.50627" lon="6.94091">
        <ele>12.15380859375</ele>
        <time>2011-02-20T08:21:59Z</time>
      </trkpt>
      <trkpt lat="43.50618" lon="6.94075">
        <ele>13.115112304688</ele>
        <time>2011-02-20T08:22:07Z</time>
      </trkpt>
      <trkpt lat="43.50588" lon="6.94038">
        <ele>14.076416015625</ele>
        <time>2011-02-20T08:22:24Z</time>
      </trkpt>
      <trkpt lat="43.50553" lon="6.94008">
        <ele>15.9990234375</ele>
        <time>2011-02-20T08:22:40Z</time>
      </trkpt>
      <trkpt lat="43.50512" lon="6.93969">
        <ele>17.921752929688</ele>
        <time>2011-02-20T08:22:59Z</time>
      </trkpt>
      <trkpt lat="43.50471" lon="6.93916">
        <ele>20.8056640625</ele>
        <time>2011-02-20T08:23:19Z</time>
      </trkpt>
      <trkpt lat="43.50449" lon="6.93886">
        <ele>22.24755859375</ele>
        <time>2011-02-20T08:23:30Z</time>
      </trkpt>
      <trkpt lat="43.50422" lon="6.93841">
        <ele>24.651000976562</ele>
        <time>2011-02-20T08:23:46Z</time>
      </trkpt>
      <trkpt lat="43.50406" lon="6.9386">
        <ele>26.092895507812</ele>
        <time>2011-02-20T08:23:57Z</time>
      </trkpt>
      <trkpt lat="43.50425" lon="6.93895">
        <ele>27.534912109375</ele>
        <time>2011-02-20T08:24:09Z</time>
      </trkpt>
      <trkpt lat="43.50437" lon="6.93904">
        <ele>27.534912109375</ele>
        <time>2011-02-20T08:24:12Z</time>
      </trkpt>
      <trkpt lat="43.5046" lon="6.93943">
        <ele>28.976928710938</ele>
        <time>2011-02-20T08:24:23Z</time>
      </trkpt>
      <trkpt lat="43.50474" lon="6.93967">
        <ele>27.534912109375</ele>
        <time>2011-02-20T08:24:32Z</time>
      </trkpt>
      <trkpt lat="43.50486" lon="6.93976">
        <ele>28.015502929688</ele>
        <time>2011-02-20T08:24:37Z</time>
      </trkpt>
      <trkpt lat="43.50511" lon="6.94008">
        <ele>29.938110351562</ele>
        <time>2011-02-20T08:24:51Z</time>
      </trkpt>
      <trkpt lat="43.50534" lon="6.94034">
        <ele>32.341552734375</ele>
        <time>2011-02-20T08:25:02Z</time>
      </trkpt>
      <trkpt lat="43.50529" lon="6.94033">
        <ele>33.783447265625</ele>
        <time>2011-02-20T08:25:09Z</time>
      </trkpt>
      <trkpt lat="43.50525" lon="6.94028">
        <ele>34.26416015625</ele>
        <time>2011-02-20T08:25:12Z</time>
      </trkpt>
      <trkpt lat="43.50505" lon="6.94008">
        <ele>38.109375</ele>
        <time>2011-02-20T08:25:25Z</time>
      </trkpt>
      <trkpt lat="43.50494" lon="6.94002">
        <ele>39.55126953125</ele>
        <time>2011-02-20T08:25:31Z</time>
      </trkpt>
      <trkpt lat="43.50481" lon="6.93999">
        <ele>41.473999023438</ele>
        <time>2011-02-20T08:25:40Z</time>
      </trkpt>
      <trkpt lat="43.50478" lon="6.93994">
        <ele>41.954711914062</ele>
        <time>2011-02-20T08:25:43Z</time>
      </trkpt>
      <trkpt lat="43.50472" lon="6.93992">
        <ele>43.396606445312</ele>
        <time>2011-02-20T08:25:47Z</time>
      </trkpt>
      <trkpt lat="43.50468" lon="6.93994">
        <ele>43.877319335938</ele>
        <time>2011-02-20T08:25:50Z</time>
      </trkpt>
      <trkpt lat="43.5046" lon="6.93982">
        <ele>45.319213867188</ele>
        <time>2011-02-20T08:25:58Z</time>
      </trkpt>
      <trkpt lat="43.50454" lon="6.93977">
        <ele>45.799926757812</ele>
        <time>2011-02-20T08:26:02Z</time>
      </trkpt>
      <trkpt lat="43.50447" lon="6.93972">
        <ele>46.76123046875</ele>
        <time>2011-02-20T08:26:07Z</time>
      </trkpt>
      <trkpt lat="43.50443" lon="6.93966">
        <ele>47.722534179688</ele>
        <time>2011-02-20T08:26:11Z</time>
      </trkpt>
      <trkpt lat="43.50425" lon="6.93953">
        <ele>50.606567382812</ele>
        <time>2011-02-20T08:26:24Z</time>
      </trkpt>
      <trkpt lat="43.5041" lon="6.93946">
        <ele>52.048583984375</ele>
        <time>2011-02-20T08:26:35Z</time>
      </trkpt>
      <trkpt lat="43.50396" lon="6.93945">
        <ele>54.451782226562</ele>
        <time>2011-02-20T08:26:44Z</time>
      </trkpt>
      <trkpt lat="43.50378" lon="6.93933">
        <ele>57.816528320312</ele>
        <time>2011-02-20T08:26:56Z</time>
      </trkpt>
      <trkpt lat="43.50376" lon="6.9393">
        <ele>58.297119140625</ele>
        <time>2011-02-20T08:26:58Z</time>
      </trkpt>
      <trkpt lat="43.50375" lon="6.93924">
        <ele>59.258422851562</ele>
        <time>2011-02-20T08:27:01Z</time>
      </trkpt>
      <trkpt lat="43.50369" lon="6.93906">
        <ele>62.622924804688</ele>
        <time>2011-02-20T08:27:10Z</time>
      </trkpt>
      <trkpt lat="43.50361" lon="6.93873">
        <ele>65.507080078125</ele>
        <time>2011-02-20T08:27:26Z</time>
      </trkpt>
      <trkpt lat="43.50345" lon="6.93841">
        <ele>66.46826171875</ele>
        <time>2011-02-20T08:27:43Z</time>
      </trkpt>
      <trkpt lat="43.50324" lon="6.93836">
        <ele>68.390869140625</ele>
        <time>2011-02-20T08:27:56Z</time>
      </trkpt>
      <trkpt lat="43.50298" lon="6.93816">
        <ele>70.3134765625</ele>
        <time>2011-02-20T08:28:14Z</time>
      </trkpt>
      <trkpt lat="43.50293" lon="6.93813">
        <ele>70.794189453125</ele>
        <time>2011-02-20T08:28:17Z</time>
      </trkpt>
      <trkpt lat="43.50269" lon="6.93811">
        <ele>73.197631835938</ele>
        <time>2011-02-20T08:28:32Z</time>
      </trkpt>
      <trkpt lat="43.5024" lon="6.93815">
        <ele>74.158813476562</ele>
        <time>2011-02-20T08:28:49Z</time>
      </trkpt>
      <trkpt lat="43.50221" lon="6.93825">
        <ele>75.600830078125</ele>
        <time>2011-02-20T08:29:01Z</time>
      </trkpt>
      <trkpt lat="43.502" lon="6.93836">
        <ele>77.5234375</ele>
        <time>2011-02-20T08:29:14Z</time>
      </trkpt>
      <trkpt lat="43.50195" lon="6.93838">
        <ele>78.004028320312</ele>
        <time>2011-02-20T08:29:17Z</time>
      </trkpt>
      <trkpt lat="43.50181" lon="6.9383">
        <ele>78.965454101562</ele>
        <time>2011-02-20T08:29:26Z</time>
      </trkpt>
      <trkpt lat="43.50169" lon="6.93832">
        <ele>80.88818359375</ele>
        <time>2011-02-20T08:29:34Z</time>
      </trkpt>
      <trkpt lat="43.50144" lon="6.93844">
        <ele>82.810791015625</ele>
        <time>2011-02-20T08:29:50Z</time>
      </trkpt>
      <trkpt lat="43.50123" lon="6.93843">
        <ele>84.252685546875</ele>
        <time>2011-02-20T08:30:03Z</time>
      </trkpt>
      <trkpt lat="43.50107" lon="6.93859">
        <ele>86.17529296875</ele>
        <time>2011-02-20T08:30:16Z</time>
      </trkpt>
      <trkpt lat="43.50095" lon="6.93885">
        <ele>89.059326171875</ele>
        <time>2011-02-20T08:30:30Z</time>
      </trkpt>
      <trkpt lat="43.50088" lon="6.93915">
        <ele>92.904541015625</ele>
        <time>2011-02-20T08:30:45Z</time>
      </trkpt>
      <trkpt lat="43.50081" lon="6.93951">
        <ele>97.23046875</ele>
        <time>2011-02-20T08:31:02Z</time>
      </trkpt>
      <trkpt lat="43.50081" lon="6.93964">
        <ele>98.19189453125</ele>
        <time>2011-02-20T08:31:08Z</time>
      </trkpt>
      <trkpt lat="43.50082" lon="6.93969">
        <ele>98.672485351562</ele>
        <time>2011-02-20T08:31:23Z</time>
      </trkpt>
      <trkpt lat="43.50082" lon="6.93969">
        <ele>98.672485351562</ele>
        <time>2011-02-20T08:31:58Z</time>
      </trkpt>
      <trkpt lat="43.50082" lon="6.93969">
        <ele>98.672485351562</ele>
        <time>2011-02-20T08:32:31Z</time>
      </trkpt>
      <trkpt lat="43.50082" lon="6.93969">
        <ele>98.19189453125</ele>
        <time>2011-02-20T08:32:36Z</time>
      </trkpt>
      <trkpt lat="43.50088" lon="6.93963">
        <ele>98.19189453125</ele>
        <time>2011-02-20T08:32:41Z</time>
      </trkpt>
      <trkpt lat="43.50093" lon="6.93962">
        <ele>98.672485351562</ele>
        <time>2011-02-20T08:32:44Z</time>
      </trkpt>
      <trkpt lat="43.50096" lon="6.93962">
        <ele>98.672485351562</ele>
        <time>2011-02-20T08:32:49Z</time>
      </trkpt>
      <trkpt lat="43.50096" lon="6.93947">
        <ele>99.153076171875</ele>
        <time>2011-02-20T08:32:58Z</time>
      </trkpt>
      <trkpt lat="43.50106" lon="6.93918">
        <ele>100.11450195312</ele>
        <time>2011-02-20T08:33:12Z</time>
      </trkpt>
      <trkpt lat="43.50114" lon="6.93912">
        <ele>100.59509277344</ele>
        <time>2011-02-20T08:33:21Z</time>
      </trkpt>
      <trkpt lat="43.50116" lon="6.93912">
        <ele>100.59509277344</ele>
        <time>2011-02-20T08:33:33Z</time>
      </trkpt>
      <trkpt lat="43.50117" lon="6.93911">
        <ele>101.07568359375</ele>
        <time>2011-02-20T08:33:35Z</time>
      </trkpt>
      <trkpt lat="43.50123" lon="6.9391">
        <ele>102.99829101562</ele>
        <time>2011-02-20T08:33:45Z</time>
      </trkpt>
      <trkpt lat="43.50128" lon="6.93912">
        <ele>102.99829101562</ele>
        <time>2011-02-20T08:33:49Z</time>
      </trkpt>
      <trkpt lat="43.50132" lon="6.93914">
        <ele>103.47900390625</ele>
        <time>2011-02-20T08:33:59Z</time>
      </trkpt>
      <trkpt lat="43.50133" lon="6.93915">
        <ele>103.47900390625</ele>
        <time>2011-02-20T08:34:03Z</time>
      </trkpt>
      <trkpt lat="43.50132" lon="6.93916">
        <ele>102.99829101562</ele>
        <time>2011-02-20T08:34:13Z</time>
      </trkpt>
      <trkpt lat="43.50132" lon="6.93916">
        <ele>102.99829101562</ele>
        <time>2011-02-20T08:34:42Z</time>
      </trkpt>
      <trkpt lat="43.50129" lon="6.93916">
        <ele>104.4404296875</ele>
        <time>2011-02-20T08:34:59Z</time>
      </trkpt>
      <trkpt lat="43.5013" lon="6.93916">
        <ele>104.4404296875</ele>
        <time>2011-02-20T08:35:01Z</time>
      </trkpt>
      <trkpt lat="43.50131" lon="6.93917">
        <ele>104.92102050781</ele>
        <time>2011-02-20T08:35:24Z</time>
      </trkpt>
      <trkpt lat="43.50132" lon="6.93917">
        <ele>104.92102050781</ele>
        <time>2011-02-20T08:35:52Z</time>
      </trkpt>
      <trkpt lat="43.50132" lon="6.93917">
        <ele>104.92102050781</ele>
        <time>2011-02-20T08:36:13Z</time>
      </trkpt>
      <trkpt lat="43.50136" lon="6.93923">
        <ele>106.36303710938</ele>
        <time>2011-02-20T08:36:17Z</time>
      </trkpt>
      <trkpt lat="43.50142" lon="6.93932">
        <ele>105.88244628906</ele>
        <time>2011-02-20T08:36:23Z</time>
      </trkpt>
      <trkpt lat="43.5016" lon="6.93937">
        <ele>108.28564453125</ele>
        <time>2011-02-20T08:36:34Z</time>
      </trkpt>
      <trkpt lat="43.50166" lon="6.93937">
        <ele>109.24694824219</ele>
        <time>2011-02-20T08:36:37Z</time>
      </trkpt>
      <trkpt lat="43.50188" lon="6.93941">
        <ele>113.57299804688</ele>
        <time>2011-02-20T08:36:49Z</time>
      </trkpt>
      <trkpt lat="43.50199" lon="6.93948">
        <ele>115.49560546875</ele>
        <time>2011-02-20T08:36:55Z</time>
      </trkpt>
      <trkpt lat="43.50201" lon="6.93955">
        <ele>115.49560546875</ele>
        <time>2011-02-20T08:36:58Z</time>
      </trkpt>
      <trkpt lat="43.50223" lon="6.93972">
        <ele>119.82141113281</ele>
        <time>2011-02-20T08:37:13Z</time>
      </trkpt>
      <trkpt lat="43.50251" lon="6.93975">
        <ele>123.66674804688</ele>
        <time>2011-02-20T08:37:29Z</time>
      </trkpt>
      <trkpt lat="43.50267" lon="6.93988">
        <ele>125.58935546875</ele>
        <time>2011-02-20T08:37:40Z</time>
      </trkpt>
      <trkpt lat="43.50287" lon="6.94013">
        <ele>127.51196289062</ele>
        <time>2011-02-20T08:37:54Z</time>
      </trkpt>
      <trkpt lat="43.50298" lon="6.94027">
        <ele>128.9541015625</ele>
        <time>2011-02-20T08:38:02Z</time>
      </trkpt>
      <trkpt lat="43.50301" lon="6.9404">
        <ele>128.9541015625</ele>
        <time>2011-02-20T08:38:08Z</time>
      </trkpt>
      <trkpt lat="43.50294" lon="6.94046">
        <ele>130.39599609375</ele>
        <time>2011-02-20T08:38:14Z</time>
      </trkpt>
      <trkpt lat="43.50276" lon="6.94056">
        <ele>132.79931640625</ele>
        <time>2011-02-20T08:38:28Z</time>
      </trkpt>
      <trkpt lat="43.50269" lon="6.94062">
        <ele>135.20251464844</ele>
        <time>2011-02-20T08:38:34Z</time>
      </trkpt>
      <trkpt lat="43.50258" lon="6.94074">
        <ele>134.72192382812</ele>
        <time>2011-02-20T08:38:43Z</time>
      </trkpt>
      <trkpt lat="43.50239" lon="6.94094">
        <ele>138.08654785156</ele>
        <time>2011-02-20T08:38:58Z</time>
      </trkpt>
      <trkpt lat="43.50231" lon="6.94101">
        <ele>138.56726074219</ele>
        <time>2011-02-20T08:39:04Z</time>
      </trkpt>
      <trkpt lat="43.50202" lon="6.94111">
        <ele>141.93176269531</ele>
        <time>2011-02-20T08:39:22Z</time>
      </trkpt>
      <trkpt lat="43.50184" lon="6.94111">
        <ele>143.85437011719</ele>
        <time>2011-02-20T08:39:33Z</time>
      </trkpt>
      <trkpt lat="43.50167" lon="6.94114">
        <ele>146.2578125</ele>
        <time>2011-02-20T08:39:46Z</time>
      </trkpt>
      <trkpt lat="43.50166" lon="6.94114">
        <ele>146.2578125</ele>
        <time>2011-02-20T08:39:47Z</time>
      </trkpt>
      <trkpt lat="43.50156" lon="6.94114">
        <ele>146.73840332031</ele>
        <time>2011-02-20T08:39:53Z</time>
      </trkpt>
      <trkpt lat="43.50148" lon="6.94113">
        <ele>147.69970703125</ele>
        <time>2011-02-20T08:39:58Z</time>
      </trkpt>
      <trkpt lat="43.50124" lon="6.94115">
        <ele>151.544921875</ele>
        <time>2011-02-20T08:40:14Z</time>
      </trkpt>
      <trkpt lat="43.501" lon="6.9413">
        <ele>153.46765136719</ele>
        <time>2011-02-20T08:40:31Z</time>
      </trkpt>
      <trkpt lat="43.50087" lon="6.94133">
        <ele>153.94836425781</ele>
        <time>2011-02-20T08:40:40Z</time>
      </trkpt>
      <trkpt lat="43.5008" lon="6.94135">
        <ele>154.90954589844</ele>
        <time>2011-02-20T08:40:54Z</time>
      </trkpt>
      <trkpt lat="43.50076" lon="6.94137">
        <ele>155.39025878906</ele>
        <time>2011-02-20T08:41:08Z</time>
      </trkpt>
      <trkpt lat="43.50074" lon="6.94139">
        <ele>154.90954589844</ele>
        <time>2011-02-20T08:42:51Z</time>
      </trkpt>
      <trkpt lat="43.50074" lon="6.94139">
        <ele>154.90954589844</ele>
        <time>2011-02-20T08:44:04Z</time>
      </trkpt>
      <trkpt lat="43.50072" lon="6.94139">
        <ele>155.39025878906</ele>
        <time>2011-02-20T08:44:11Z</time>
      </trkpt>
      <trkpt lat="43.50057" lon="6.94138">
        <ele>158.27416992188</ele>
        <time>2011-02-20T08:44:20Z</time>
      </trkpt>
      <trkpt lat="43.50045" lon="6.94137">
        <ele>160.19689941406</ele>
        <time>2011-02-20T08:44:27Z</time>
      </trkpt>
      <trkpt lat="43.50041" lon="6.94137">
        <ele>160.67749023438</ele>
        <time>2011-02-20T08:44:29Z</time>
      </trkpt>
      <trkpt lat="43.50025" lon="6.94149">
        <ele>163.5615234375</ele>
        <time>2011-02-20T08:44:42Z</time>
      </trkpt>
      <trkpt lat="43.50024" lon="6.9415">
        <ele>164.04211425781</ele>
        <time>2011-02-20T08:44:59Z</time>
      </trkpt>
      <trkpt lat="43.50023" lon="6.94148">
        <ele>164.52270507812</ele>
        <time>2011-02-20T08:45:26Z</time>
      </trkpt>
      <trkpt lat="43.50023" lon="6.94149">
        <ele>163.5615234375</ele>
        <time>2011-02-20T08:45:47Z</time>
      </trkpt>
      <trkpt lat="43.50023" lon="6.94148">
        <ele>162.60009765625</ele>
        <time>2011-02-20T08:46:20Z</time>
      </trkpt>
      <trkpt lat="43.50024" lon="6.94148">
        <ele>164.04211425781</ele>
        <time>2011-02-20T08:47:31Z</time>
      </trkpt>
      <trkpt lat="43.50024" lon="6.94147">
        <ele>163.08081054688</ele>
        <time>2011-02-20T08:48:51Z</time>
      </trkpt>
      <trkpt lat="43.50024" lon="6.94147">
        <ele>162.60009765625</ele>
        <time>2011-02-20T08:49:30Z</time>
      </trkpt>
      <trkpt lat="43.50024" lon="6.94147">
        <ele>162.60009765625</ele>
        <time>2011-02-20T08:49:35Z</time>
      </trkpt>
      <trkpt lat="43.5003" lon="6.9414">
        <ele>161.63891601562</ele>
        <time>2011-02-20T08:49:39Z</time>
      </trkpt>
      <trkpt lat="43.50047" lon="6.94138">
        <ele>158.27416992188</ele>
        <time>2011-02-20T08:49:47Z</time>
      </trkpt>
      <trkpt lat="43.50046" lon="6.94138">
        <ele>157.31286621094</ele>
        <time>2011-02-20T08:50:33Z</time>
      </trkpt>
      <trkpt lat="43.50047" lon="6.94138">
        <ele>157.31286621094</ele>
        <time>2011-02-20T08:51:16Z</time>
      </trkpt>
      <trkpt lat="43.50046" lon="6.94136">
        <ele>156.83215332031</ele>
        <time>2011-02-20T08:53:39Z</time>
      </trkpt>
      <trkpt lat="43.50045" lon="6.94136">
        <ele>156.3515625</ele>
        <time>2011-02-20T08:55:14Z</time>
      </trkpt>
      <trkpt lat="43.50041" lon="6.94137">
        <ele>155.87097167969</ele>
        <time>2011-02-20T08:55:17Z</time>
      </trkpt>
      <trkpt lat="43.5004" lon="6.94136">
        <ele>156.3515625</ele>
        <time>2011-02-20T08:55:20Z</time>
      </trkpt>
      <trkpt lat="43.50035" lon="6.94136">
        <ele>156.83215332031</ele>
        <time>2011-02-20T08:55:24Z</time>
      </trkpt>
      <trkpt lat="43.50032" lon="6.94139">
        <ele>157.79357910156</ele>
        <time>2011-02-20T08:55:27Z</time>
      </trkpt>
      <trkpt lat="43.50029" lon="6.94139">
        <ele>158.27416992188</ele>
        <time>2011-02-20T08:55:29Z</time>
      </trkpt>
      <trkpt lat="43.50023" lon="6.94146">
        <ele>159.71618652344</ele>
        <time>2011-02-20T08:55:35Z</time>
      </trkpt>
      <trkpt lat="43.50018" lon="6.9415">
        <ele>160.67749023438</ele>
        <time>2011-02-20T08:55:46Z</time>
      </trkpt>
      <trkpt lat="43.50018" lon="6.9415">
        <ele>160.67749023438</ele>
        <time>2011-02-20T08:55:50Z</time>
      </trkpt>
      <trkpt lat="43.50017" lon="6.94151">
        <ele>160.67749023438</ele>
        <time>2011-02-20T08:55:52Z</time>
      </trkpt>
      <trkpt lat="43.50004" lon="6.94152">
        <ele>162.11950683594</ele>
        <time>2011-02-20T08:56:03Z</time>
      </trkpt>
      <trkpt lat="43.50003" lon="6.94152">
        <ele>162.11950683594</ele>
        <time>2011-02-20T08:56:04Z</time>
      </trkpt>
      <trkpt lat="43.49998" lon="6.94147">
        <ele>161.63891601562</ele>
        <time>2011-02-20T08:56:10Z</time>
      </trkpt>
      <trkpt lat="43.4999" lon="6.94142">
        <ele>162.60009765625</ele>
        <time>2011-02-20T08:56:16Z</time>
      </trkpt>
      <trkpt lat="43.49982" lon="6.94139">
        <ele>163.08081054688</ele>
        <time>2011-02-20T08:56:22Z</time>
      </trkpt>
      <trkpt lat="43.49975" lon="6.94137">
        <ele>164.04211425781</ele>
        <time>2011-02-20T08:56:27Z</time>
      </trkpt>
      <trkpt lat="43.49966" lon="6.94134">
        <ele>165.48413085938</ele>
        <time>2011-02-20T08:56:34Z</time>
      </trkpt>
      <trkpt lat="43.49961" lon="6.94133">
        <ele>166.92602539062</ele>
        <time>2011-02-20T08:56:38Z</time>
      </trkpt>
      <trkpt lat="43.49957" lon="6.94131">
        <ele>167.40673828125</ele>
        <time>2011-02-20T08:56:42Z</time>
      </trkpt>
      <trkpt lat="43.49942" lon="6.94127">
        <ele>169.32946777344</ele>
        <time>2011-02-20T08:56:54Z</time>
      </trkpt>
      <trkpt lat="43.49934" lon="6.94121">
        <ele>171.25207519531</ele>
        <time>2011-02-20T08:57:01Z</time>
      </trkpt>
      <trkpt lat="43.49926" lon="6.94119">
        <ele>172.21325683594</ele>
        <time>2011-02-20T08:57:10Z</time>
      </trkpt>
      <trkpt lat="43.49921" lon="6.94121">
        <ele>173.6552734375</ele>
        <time>2011-02-20T08:57:14Z</time>
      </trkpt>
      <trkpt lat="43.49907" lon="6.94117">
        <ele>173.6552734375</ele>
        <time>2011-02-20T08:57:24Z</time>
      </trkpt>
      <trkpt lat="43.49902" lon="6.94116">
        <ele>173.6552734375</ele>
        <time>2011-02-20T08:57:27Z</time>
      </trkpt>
      <trkpt lat="43.49881" lon="6.94115">
        <ele>175.57788085938</ele>
        <time>2011-02-20T08:57:41Z</time>
      </trkpt>
      <trkpt lat="43.49874" lon="6.94118">
        <ele>176.53930664062</ele>
        <time>2011-02-20T08:57:46Z</time>
      </trkpt>
      <trkpt lat="43.49866" lon="6.9412">
        <ele>177.50061035156</ele>
        <time>2011-02-20T08:57:51Z</time>
      </trkpt>
      <trkpt lat="43.49861" lon="6.94123">
        <ele>178.4619140625</ele>
        <time>2011-02-20T08:57:55Z</time>
      </trkpt>
      <trkpt lat="43.49855" lon="6.94125">
        <ele>179.42321777344</ele>
        <time>2011-02-20T08:57:59Z</time>
      </trkpt>
      <trkpt lat="43.49845" lon="6.94127">
        <ele>180.865234375</ele>
        <time>2011-02-20T08:58:06Z</time>
      </trkpt>
      <trkpt lat="43.49841" lon="6.94134">
        <ele>182.30712890625</ele>
        <time>2011-02-20T08:58:14Z</time>
      </trkpt>
      <trkpt lat="43.49837" lon="6.94133">
        <ele>183.26843261719</ele>
        <time>2011-02-20T08:58:20Z</time>
      </trkpt>
      <trkpt lat="43.49834" lon="6.94136">
        <ele>183.7490234375</ele>
        <time>2011-02-20T08:58:24Z</time>
      </trkpt>
      <trkpt lat="43.49835" lon="6.94139">
        <ele>183.7490234375</ele>
        <time>2011-02-20T08:58:26Z</time>
      </trkpt>
      <trkpt lat="43.49835" lon="6.94145">
        <ele>184.71057128906</ele>
        <time>2011-02-20T08:58:31Z</time>
      </trkpt>
      <trkpt lat="43.49836" lon="6.94147">
        <ele>185.19116210938</ele>
        <time>2011-02-20T08:58:40Z</time>
      </trkpt>
      <trkpt lat="43.49834" lon="6.94148">
        <ele>185.19116210938</ele>
        <time>2011-02-20T08:58:46Z</time>
      </trkpt>
      <trkpt lat="43.49828" lon="6.94153">
        <ele>185.67175292969</ele>
        <time>2011-02-20T08:58:51Z</time>
      </trkpt>
      <trkpt lat="43.49827" lon="6.94155">
        <ele>186.15246582031</ele>
        <time>2011-02-20T08:58:53Z</time>
      </trkpt>
      <trkpt lat="43.49823" lon="6.9416">
        <ele>185.67175292969</ele>
        <time>2011-02-20T08:59:05Z</time>
      </trkpt>
      <trkpt lat="43.49823" lon="6.9416">
        <ele>185.67175292969</ele>
        <time>2011-02-20T08:59:33Z</time>
      </trkpt>
      <trkpt lat="43.49823" lon="6.9416">
        <ele>186.15246582031</ele>
        <time>2011-02-20T08:59:41Z</time>
      </trkpt>
      <trkpt lat="43.49821" lon="6.94163">
        <ele>187.11376953125</ele>
        <time>2011-02-20T08:59:53Z</time>
      </trkpt>
      <trkpt lat="43.49812" lon="6.94175">
        <ele>188.55578613281</ele>
        <time>2011-02-20T09:00:19Z</time>
      </trkpt>
      <trkpt lat="43.49793" lon="6.942">
        <ele>191.43957519531</ele>
        <time>2011-02-20T09:00:31Z</time>
      </trkpt>
      <trkpt lat="43.49786" lon="6.94209">
        <ele>192.88171386719</ele>
        <time>2011-02-20T09:00:36Z</time>
      </trkpt>
      <trkpt lat="43.49765" lon="6.94233">
        <ele>195.765625</ele>
        <time>2011-02-20T09:00:48Z</time>
      </trkpt>
      <trkpt lat="43.49765" lon="6.94242">
        <ele>196.24633789062</ele>
        <time>2011-02-20T09:00:51Z</time>
      </trkpt>
      <trkpt lat="43.49761" lon="6.94254">
        <ele>196.24633789062</ele>
        <time>2011-02-20T09:00:56Z</time>
      </trkpt>
      <trkpt lat="43.4976" lon="6.94277">
        <ele>195.765625</ele>
        <time>2011-02-20T09:01:04Z</time>
      </trkpt>
      <trkpt lat="43.49776" lon="6.94278">
        <ele>196.72692871094</ele>
        <time>2011-02-20T09:01:15Z</time>
      </trkpt>
      <trkpt lat="43.49779" lon="6.94279">
        <ele>197.20751953125</ele>
        <time>2011-02-20T09:01:18Z</time>
      </trkpt>
      <trkpt lat="43.49771" lon="6.94279">
        <ele>197.68823242188</ele>
        <time>2011-02-20T09:01:27Z</time>
      </trkpt>
      <trkpt lat="43.4976" lon="6.94272">
        <ele>196.24633789062</ele>
        <time>2011-02-20T09:01:34Z</time>
      </trkpt>
      <trkpt lat="43.4976" lon="6.94269">
        <ele>196.24633789062</ele>
        <time>2011-02-20T09:01:35Z</time>
      </trkpt>
      <trkpt lat="43.4976" lon="6.94265">
        <ele>196.24633789062</ele>
        <time>2011-02-20T09:01:38Z</time>
      </trkpt>
      <trkpt lat="43.49762" lon="6.94271">
        <ele>197.20751953125</ele>
        <time>2011-02-20T09:01:50Z</time>
      </trkpt>
      <trkpt lat="43.49762" lon="6.94277">
        <ele>197.68823242188</ele>
        <time>2011-02-20T09:01:56Z</time>
      </trkpt>
      <trkpt lat="43.49761" lon="6.9428">
        <ele>197.68823242188</ele>
        <time>2011-02-20T09:01:58Z</time>
      </trkpt>
      <trkpt lat="43.4976" lon="6.94291">
        <ele>197.20751953125</ele>
        <time>2011-02-20T09:02:03Z</time>
      </trkpt>
      <trkpt lat="43.49774" lon="6.94331">
        <ele>197.20751953125</ele>
        <time>2011-02-20T09:02:15Z</time>
      </trkpt>
      <trkpt lat="43.49787" lon="6.94359">
        <ele>199.13012695312</ele>
        <time>2011-02-20T09:02:27Z</time>
      </trkpt>
      <trkpt lat="43.4979" lon="6.94392">
        <ele>200.09167480469</ele>
        <time>2011-02-20T09:02:37Z</time>
      </trkpt>
      <trkpt lat="43.49795" lon="6.94444">
        <ele>200.572265625</ele>
        <time>2011-02-20T09:02:50Z</time>
      </trkpt>
      <trkpt lat="43.49802" lon="6.94483">
        <ele>200.09167480469</ele>
        <time>2011-02-20T09:02:57Z</time>
      </trkpt>
      <trkpt lat="43.49828" lon="6.94546">
        <ele>200.572265625</ele>
        <time>2011-02-20T09:03:09Z</time>
      </trkpt>
      <trkpt lat="43.49864" lon="6.94611">
        <ele>201.53356933594</ele>
        <time>2011-02-20T09:03:25Z</time>
      </trkpt>
      <trkpt lat="43.49896" lon="6.94662">
        <ele>202.01428222656</ele>
        <time>2011-02-20T09:03:39Z</time>
      </trkpt>
      <trkpt lat="43.49935" lon="6.9471">
        <ele>202.49487304688</ele>
        <time>2011-02-20T09:03:54Z</time>
      </trkpt>
      <trkpt lat="43.49975" lon="6.94743">
        <ele>202.49487304688</ele>
        <time>2011-02-20T09:04:07Z</time>
      </trkpt>
      <trkpt lat="43.50036" lon="6.94783">
        <ele>203.93688964844</ele>
        <time>2011-02-20T09:04:24Z</time>
      </trkpt>
      <trkpt lat="43.50062" lon="6.94794">
        <ele>204.89807128906</ele>
        <time>2011-02-20T09:04:35Z</time>
      </trkpt>
      <trkpt lat="43.50062" lon="6.94789">
        <ele>205.37878417969</ele>
        <time>2011-02-20T09:04:44Z</time>
      </trkpt>
      <trkpt lat="43.50062" lon="6.94791">
        <ele>204.89807128906</ele>
        <time>2011-02-20T09:04:46Z</time>
      </trkpt>
      <trkpt lat="43.50059" lon="6.94791">
        <ele>205.85949707031</ele>
        <time>2011-02-20T09:04:59Z</time>
      </trkpt>
      <trkpt lat="43.50058" lon="6.94789">
        <ele>208.74340820312</ele>
        <time>2011-02-20T09:05:10Z</time>
      </trkpt>
      <trkpt lat="43.50055" lon="6.94784">
        <ele>211.14672851562</ele>
        <time>2011-02-20T09:05:23Z</time>
      </trkpt>
      <trkpt lat="43.50051" lon="6.94774">
        <ele>212.10803222656</ele>
        <time>2011-02-20T09:05:34Z</time>
      </trkpt>
      <trkpt lat="43.50048" lon="6.94768">
        <ele>213.55004882812</ele>
        <time>2011-02-20T09:05:40Z</time>
      </trkpt>
      <trkpt lat="43.50048" lon="6.94764">
        <ele>214.51123046875</ele>
        <time>2011-02-20T09:05:52Z</time>
      </trkpt>
      <trkpt lat="43.50046" lon="6.94752">
        <ele>214.99194335938</ele>
        <time>2011-02-20T09:06:03Z</time>
      </trkpt>
      <trkpt lat="43.50043" lon="6.94741">
        <ele>217.39538574219</ele>
        <time>2011-02-20T09:06:17Z</time>
      </trkpt>
      <trkpt lat="43.50038" lon="6.94734">
        <ele>220.27917480469</ele>
        <time>2011-02-20T09:06:27Z</time>
      </trkpt>
      <trkpt lat="43.50033" lon="6.94727">
        <ele>223.16320800781</ele>
        <time>2011-02-20T09:06:40Z</time>
      </trkpt>
      <trkpt lat="43.50027" lon="6.94719">
        <ele>226.04711914062</ele>
        <time>2011-02-20T09:06:54Z</time>
      </trkpt>
      <trkpt lat="43.50027" lon="6.9471">
        <ele>229.41174316406</ele>
        <time>2011-02-20T09:07:07Z</time>
      </trkpt>
      <trkpt lat="43.50026" lon="6.94706">
        <ele>230.373046875</ele>
        <time>2011-02-20T09:07:13Z</time>
      </trkpt>
      <trkpt lat="43.50022" lon="6.94698">
        <ele>233.25708007812</ele>
        <time>2011-02-20T09:07:26Z</time>
      </trkpt>
      <trkpt lat="43.50018" lon="6.94689">
        <ele>236.62170410156</ele>
        <time>2011-02-20T09:07:40Z</time>
      </trkpt>
      <trkpt lat="43.50014" lon="6.94678">
        <ele>240.94763183594</ele>
        <time>2011-02-20T09:07:55Z</time>
      </trkpt>
      <trkpt lat="43.5001" lon="6.94667">
        <ele>244.31225585938</ele>
        <time>2011-02-20T09:08:08Z</time>
      </trkpt>
      <trkpt lat="43.50007" lon="6.94655">
        <ele>248.63818359375</ele>
        <time>2011-02-20T09:08:22Z</time>
      </trkpt>
      <trkpt lat="43.50005" lon="6.94652">
        <ele>249.11877441406</ele>
        <time>2011-02-20T09:08:29Z</time>
      </trkpt>
      <trkpt lat="43.49997" lon="6.94643">
        <ele>249.11877441406</ele>
        <time>2011-02-20T09:08:43Z</time>
      </trkpt>
      <trkpt lat="43.49995" lon="6.94633">
        <ele>251.04138183594</ele>
        <time>2011-02-20T09:08:52Z</time>
      </trkpt>
      <trkpt lat="43.49994" lon="6.94627">
        <ele>251.52209472656</ele>
        <time>2011-02-20T09:08:57Z</time>
      </trkpt>
      <trkpt lat="43.49992" lon="6.94623">
        <ele>252.00280761719</ele>
        <time>2011-02-20T09:09:02Z</time>
      </trkpt>
      <trkpt lat="43.49993" lon="6.94617">
        <ele>252.00280761719</ele>
        <time>2011-02-20T09:09:07Z</time>
      </trkpt>
      <trkpt lat="43.49989" lon="6.94608">
        <ele>251.52209472656</ele>
        <time>2011-02-20T09:09:15Z</time>
      </trkpt>
      <trkpt lat="43.49984" lon="6.94596">
        <ele>249.11877441406</ele>
        <time>2011-02-20T09:09:28Z</time>
      </trkpt>
      <trkpt lat="43.49977" lon="6.94594">
        <ele>249.11877441406</ele>
        <time>2011-02-20T09:09:37Z</time>
      </trkpt>
      <trkpt lat="43.49972" lon="6.94589">
        <ele>249.59948730469</ele>
        <time>2011-02-20T09:09:42Z</time>
      </trkpt>
      <trkpt lat="43.4997" lon="6.9458">
        <ele>249.59948730469</ele>
        <time>2011-02-20T09:09:48Z</time>
      </trkpt>
      <trkpt lat="43.49969" lon="6.94577">
        <ele>249.11877441406</ele>
        <time>2011-02-20T09:09:50Z</time>
      </trkpt>
      <trkpt lat="43.49967" lon="6.94574">
        <ele>248.63818359375</ele>
        <time>2011-02-20T09:09:53Z</time>
      </trkpt>
      <trkpt lat="43.49956" lon="6.94563">
        <ele>247.19604492188</ele>
        <time>2011-02-20T09:10:06Z</time>
      </trkpt>
      <trkpt lat="43.49953" lon="6.9456">
        <ele>248.15759277344</ele>
        <time>2011-02-20T09:10:22Z</time>
      </trkpt>
      <trkpt lat="43.49952" lon="6.94559">
        <ele>248.63818359375</ele>
        <time>2011-02-20T09:11:58Z</time>
      </trkpt>
      <trkpt lat="43.49952" lon="6.94559">
        <ele>250.08020019531</ele>
        <time>2011-02-20T09:12:21Z</time>
      </trkpt>
      <trkpt lat="43.49952" lon="6.94558">
        <ele>250.08020019531</ele>
        <time>2011-02-20T09:12:57Z</time>
      </trkpt>
      <trkpt lat="43.49951" lon="6.94558">
        <ele>250.56079101562</ele>
        <time>2011-02-20T09:15:30Z</time>
      </trkpt>
      <trkpt lat="43.4995" lon="6.94558">
        <ele>250.56079101562</ele>
        <time>2011-02-20T09:16:53Z</time>
      </trkpt>
      <trkpt lat="43.49947" lon="6.94556">
        <ele>251.04138183594</ele>
        <time>2011-02-20T09:17:29Z</time>
      </trkpt>
      <trkpt lat="43.49945" lon="6.94553">
        <ele>251.04138183594</ele>
        <time>2011-02-20T09:17:31Z</time>
      </trkpt>
      <trkpt lat="43.49945" lon="6.9453">
        <ele>246.71545410156</ele>
        <time>2011-02-20T09:17:40Z</time>
      </trkpt>
      <trkpt lat="43.49945" lon="6.94529">
        <ele>246.23486328125</ele>
        <time>2011-02-20T09:17:41Z</time>
      </trkpt>
      <trkpt lat="43.49943" lon="6.94527">
        <ele>245.75415039062</ele>
        <time>2011-02-20T09:17:43Z</time>
      </trkpt>
      <trkpt lat="43.49935" lon="6.94524">
        <ele>245.75415039062</ele>
        <time>2011-02-20T09:17:47Z</time>
      </trkpt>
      <trkpt lat="43.49926" lon="6.94519">
        <ele>245.75415039062</ele>
        <time>2011-02-20T09:17:50Z</time>
      </trkpt>
      <trkpt lat="43.49909" lon="6.94494">
        <ele>245.75415039062</ele>
        <time>2011-02-20T09:17:58Z</time>
      </trkpt>
      <trkpt lat="43.49892" lon="6.94465">
        <ele>243.35083007812</ele>
        <time>2011-02-20T09:18:06Z</time>
      </trkpt>
      <trkpt lat="43.49881" lon="6.94445">
        <ele>241.42822265625</ele>
        <time>2011-02-20T09:18:12Z</time>
      </trkpt>
      <trkpt lat="43.49879" lon="6.94439">
        <ele>240.94763183594</ele>
        <time>2011-02-20T09:18:14Z</time>
      </trkpt>
      <trkpt lat="43.49876" lon="6.94433">
        <ele>239.98620605469</ele>
        <time>2011-02-20T09:18:16Z</time>
      </trkpt>
      <trkpt lat="43.49876" lon="6.94414">
        <ele>236.14099121094</ele>
        <time>2011-02-20T09:18:22Z</time>
      </trkpt>
      <trkpt lat="43.49884" lon="6.94385">
        <ele>230.85375976562</ele>
        <time>2011-02-20T09:18:30Z</time>
      </trkpt>
      <trkpt lat="43.4988" lon="6.94362">
        <ele>227.9697265625</ele>
        <time>2011-02-20T09:18:35Z</time>
      </trkpt>
      <trkpt lat="43.49879" lon="6.9433">
        <ele>221.72119140625</ele>
        <time>2011-02-20T09:18:45Z</time>
      </trkpt>
      <trkpt lat="43.49879" lon="6.94326">
        <ele>220.27917480469</ele>
        <time>2011-02-20T09:18:47Z</time>
      </trkpt>
      <trkpt lat="43.49877" lon="6.94316">
        <ele>217.39538574219</ele>
        <time>2011-02-20T09:18:58Z</time>
      </trkpt>
      <trkpt lat="43.49877" lon="6.94316">
        <ele>217.39538574219</ele>
        <time>2011-02-20T09:19:32Z</time>
      </trkpt>
      <trkpt lat="43.49865" lon="6.94314">
        <ele>216.91467285156</ele>
        <time>2011-02-20T09:19:37Z</time>
      </trkpt>
      <trkpt lat="43.49843" lon="6.94307">
        <ele>214.51123046875</ele>
        <time>2011-02-20T09:19:45Z</time>
      </trkpt>
      <trkpt lat="43.49835" lon="6.94295">
        <ele>210.666015625</ele>
        <time>2011-02-20T09:19:52Z</time>
      </trkpt>
      <trkpt lat="43.49836" lon="6.94284">
        <ele>207.30139160156</ele>
        <time>2011-02-20T09:19:59Z</time>
      </trkpt>
      <trkpt lat="43.49835" lon="6.94283">
        <ele>206.82067871094</ele>
        <time>2011-02-20T09:20:07Z</time>
      </trkpt>
      <trkpt lat="43.49834" lon="6.94282">
        <ele>206.82067871094</ele>
        <time>2011-02-20T09:20:11Z</time>
      </trkpt>
      <trkpt lat="43.49831" lon="6.94282">
        <ele>206.34008789062</ele>
        <time>2011-02-20T09:20:16Z</time>
      </trkpt>
      <trkpt lat="43.49824" lon="6.94285">
        <ele>205.85949707031</ele>
        <time>2011-02-20T09:20:21Z</time>
      </trkpt>
      <trkpt lat="43.4982" lon="6.94283">
        <ele>204.89807128906</ele>
        <time>2011-02-20T09:20:23Z</time>
      </trkpt>
      <trkpt lat="43.49815" lon="6.94285">
        <ele>202.01428222656</ele>
        <time>2011-02-20T09:20:33Z</time>
      </trkpt>
      <trkpt lat="43.49815" lon="6.94285">
        <ele>202.01428222656</ele>
        <time>2011-02-20T09:21:08Z</time>
      </trkpt>
      <trkpt lat="43.49815" lon="6.94285">
        <ele>202.49487304688</ele>
        <time>2011-02-20T09:21:46Z</time>
      </trkpt>
      <trkpt lat="43.49815" lon="6.94285">
        <ele>202.49487304688</ele>
        <time>2011-02-20T09:22:18Z</time>
      </trkpt>
      <trkpt lat="43.49813" lon="6.94286">
        <ele>202.97546386719</ele>
        <time>2011-02-20T09:22:53Z</time>
      </trkpt>
      <trkpt lat="43.49812" lon="6.94288">
        <ele>203.45617675781</ele>
        <time>2011-02-20T09:22:57Z</time>
      </trkpt>
      <trkpt lat="43.49803" lon="6.94283">
        <ele>202.01428222656</ele>
        <time>2011-02-20T09:23:06Z</time>
      </trkpt>
      <trkpt lat="43.49803" lon="6.94283">
        <ele>202.01428222656</ele>
        <time>2011-02-20T09:23:43Z</time>
      </trkpt>
      <trkpt lat="43.49803" lon="6.94282">
        <ele>202.01428222656</ele>
        <time>2011-02-20T09:24:33Z</time>
      </trkpt>
      <trkpt lat="43.49803" lon="6.94282">
        <ele>202.01428222656</ele>
        <time>2011-02-20T09:24:37Z</time>
      </trkpt>
      <trkpt lat="43.49795" lon="6.94285">
        <ele>201.53356933594</ele>
        <time>2011-02-20T09:24:41Z</time>
      </trkpt>
      <trkpt lat="43.49765" lon="6.94276">
        <ele>195.765625</ele>
        <time>2011-02-20T09:24:49Z</time>
      </trkpt>
      <trkpt lat="43.4976" lon="6.94269">
        <ele>194.32373046875</ele>
        <time>2011-02-20T09:24:55Z</time>
      </trkpt>
      <trkpt lat="43.49759" lon="6.9427">
        <ele>193.84301757812</ele>
        <time>2011-02-20T09:25:06Z</time>
      </trkpt>
      <trkpt lat="43.49759" lon="6.94271">
        <ele>193.84301757812</ele>
        <time>2011-02-20T09:25:07Z</time>
      </trkpt>
      <trkpt lat="43.49762" lon="6.94276">
        <ele>193.84301757812</ele>
        <time>2011-02-20T09:25:18Z</time>
      </trkpt>
      <trkpt lat="43.49762" lon="6.94276">
        <ele>193.3623046875</ele>
        <time>2011-02-20T09:25:56Z</time>
      </trkpt>
      <trkpt lat="43.49764" lon="6.94272">
        <ele>193.84301757812</ele>
        <time>2011-02-20T09:26:12Z</time>
      </trkpt>
      <trkpt lat="43.49763" lon="6.94273">
        <ele>193.84301757812</ele>
        <time>2011-02-20T09:26:25Z</time>
      </trkpt>
      <trkpt lat="43.49762" lon="6.94273">
        <ele>193.84301757812</ele>
        <time>2011-02-20T09:26:29Z</time>
      </trkpt>
      <trkpt lat="43.49758" lon="6.94271">
        <ele>194.32373046875</ele>
        <time>2011-02-20T09:26:47Z</time>
      </trkpt>
      <trkpt lat="43.49755" lon="6.94272">
        <ele>194.80432128906</ele>
        <time>2011-02-20T09:27:26Z</time>
      </trkpt>
      <trkpt lat="43.49757" lon="6.94271">
        <ele>194.32373046875</ele>
        <time>2011-02-20T09:27:51Z</time>
      </trkpt>
      <trkpt lat="43.49753" lon="6.94265">
        <ele>194.80432128906</ele>
        <time>2011-02-20T09:27:59Z</time>
      </trkpt>
      <trkpt lat="43.49749" lon="6.94265">
        <ele>195.765625</ele>
        <time>2011-02-20T09:28:05Z</time>
      </trkpt>
      <trkpt lat="43.49741" lon="6.94273">
        <ele>195.765625</ele>
        <time>2011-02-20T09:28:09Z</time>
      </trkpt>
      <trkpt lat="43.49742" lon="6.94298">
        <ele>193.84301757812</ele>
        <time>2011-02-20T09:28:16Z</time>
      </trkpt>
      <trkpt lat="43.49734" lon="6.94295">
        <ele>192.40112304688</ele>
        <time>2011-02-20T09:28:19Z</time>
      </trkpt>
      <trkpt lat="43.49729" lon="6.94288">
        <ele>190.958984375</ele>
        <time>2011-02-20T09:28:21Z</time>
      </trkpt>
      <trkpt lat="43.49717" lon="6.9428">
        <ele>188.07507324219</ele>
        <time>2011-02-20T09:28:26Z</time>
      </trkpt>
      <trkpt lat="43.4971" lon="6.94277">
        <ele>187.11376953125</ele>
        <time>2011-02-20T09:28:28Z</time>
      </trkpt>
      <trkpt lat="43.49697" lon="6.94263">
        <ele>184.71057128906</ele>
        <time>2011-02-20T09:28:34Z</time>
      </trkpt>
      <trkpt lat="43.49694" lon="6.94263">
        <ele>183.7490234375</ele>
        <time>2011-02-20T09:28:47Z</time>
      </trkpt>
      <trkpt lat="43.49694" lon="6.94263">
        <ele>183.7490234375</ele>
        <time>2011-02-20T09:28:57Z</time>
      </trkpt>
      <trkpt lat="43.49686" lon="6.94254">
        <ele>182.30712890625</ele>
        <time>2011-02-20T09:29:01Z</time>
      </trkpt>
      <trkpt lat="43.49682" lon="6.94248">
        <ele>180.865234375</ele>
        <time>2011-02-20T09:29:03Z</time>
      </trkpt>
      <trkpt lat="43.49656" lon="6.94237">
        <ele>175.57788085938</ele>
        <time>2011-02-20T09:29:11Z</time>
      </trkpt>
      <trkpt lat="43.49633" lon="6.94241">
        <ele>172.21325683594</ele>
        <time>2011-02-20T09:29:15Z</time>
      </trkpt>
      <trkpt lat="43.49622" lon="6.94248">
        <ele>170.29064941406</ele>
        <time>2011-02-20T09:29:18Z</time>
      </trkpt>
      <trkpt lat="43.49599" lon="6.94272">
        <ele>166.4453125</ele>
        <time>2011-02-20T09:29:26Z</time>
      </trkpt>
      <trkpt lat="43.49581" lon="6.94272">
        <ele>163.08081054688</ele>
        <time>2011-02-20T09:29:32Z</time>
      </trkpt>
      <trkpt lat="43.49561" lon="6.94266">
        <ele>160.19689941406</ele>
        <time>2011-02-20T09:29:39Z</time>
      </trkpt>
      <trkpt lat="43.49553" lon="6.94264">
        <ele>158.75476074219</ele>
        <time>2011-02-20T09:29:46Z</time>
      </trkpt>
      <trkpt lat="43.49553" lon="6.94265">
        <ele>158.75476074219</ele>
        <time>2011-02-20T09:30:00Z</time>
      </trkpt>
      <trkpt lat="43.49553" lon="6.94265">
        <ele>158.75476074219</ele>
        <time>2011-02-20T09:30:15Z</time>
      </trkpt>
      <trkpt lat="43.49552" lon="6.94264">
        <ele>159.71618652344</ele>
        <time>2011-02-20T09:30:51Z</time>
      </trkpt>
      <trkpt lat="43.49548" lon="6.94264">
        <ele>160.19689941406</ele>
        <time>2011-02-20T09:32:36Z</time>
      </trkpt>
      <trkpt lat="43.49543" lon="6.94254">
        <ele>160.19689941406</ele>
        <time>2011-02-20T09:32:40Z</time>
      </trkpt>
      <trkpt lat="43.49533" lon="6.94243">
        <ele>160.67749023438</ele>
        <time>2011-02-20T09:32:49Z</time>
      </trkpt>
      <trkpt lat="43.49526" lon="6.94242">
        <ele>160.67749023438</ele>
        <time>2011-02-20T09:32:53Z</time>
      </trkpt>
      <trkpt lat="43.49496" lon="6.9425">
        <ele>162.60009765625</ele>
        <time>2011-02-20T09:33:07Z</time>
      </trkpt>
      <trkpt lat="43.49461" lon="6.9425">
        <ele>162.60009765625</ele>
        <time>2011-02-20T09:33:20Z</time>
      </trkpt>
      <trkpt lat="43.49449" lon="6.94252">
        <ele>162.11950683594</ele>
        <time>2011-02-20T09:33:25Z</time>
      </trkpt>
      <trkpt lat="43.49438" lon="6.94241">
        <ele>162.11950683594</ele>
        <time>2011-02-20T09:33:35Z</time>
      </trkpt>
      <trkpt lat="43.49439" lon="6.94242">
        <ele>162.60009765625</ele>
        <time>2011-02-20T09:33:56Z</time>
      </trkpt>
      <trkpt lat="43.49441" lon="6.94252">
        <ele>161.63891601562</ele>
        <time>2011-02-20T09:34:03Z</time>
      </trkpt>
      <trkpt lat="43.49418" lon="6.94252">
        <ele>160.19689941406</ele>
        <time>2011-02-20T09:34:09Z</time>
      </trkpt>
      <trkpt lat="43.494" lon="6.94254">
        <ele>158.27416992188</ele>
        <time>2011-02-20T09:34:16Z</time>
      </trkpt>
      <trkpt lat="43.49399" lon="6.94254">
        <ele>158.27416992188</ele>
        <time>2011-02-20T09:35:57Z</time>
      </trkpt>
      <trkpt lat="43.49387" lon="6.94271">
        <ele>157.31286621094</ele>
        <time>2011-02-20T09:36:05Z</time>
      </trkpt>
      <trkpt lat="43.49377" lon="6.94276">
        <ele>156.83215332031</ele>
        <time>2011-02-20T09:36:09Z</time>
      </trkpt>
      <trkpt lat="43.49361" lon="6.94298">
        <ele>154.90954589844</ele>
        <time>2011-02-20T09:36:18Z</time>
      </trkpt>
      <trkpt lat="43.4936" lon="6.943">
        <ele>154.90954589844</ele>
        <time>2011-02-20T09:36:20Z</time>
      </trkpt>
      <trkpt lat="43.4936" lon="6.94303">
        <ele>153.94836425781</ele>
        <time>2011-02-20T09:36:22Z</time>
      </trkpt>
      <trkpt lat="43.4936" lon="6.94315">
        <ele>150.58361816406</ele>
        <time>2011-02-20T09:36:28Z</time>
      </trkpt>
      <trkpt lat="43.49358" lon="6.94325">
        <ele>147.69970703125</ele>
        <time>2011-02-20T09:36:36Z</time>
      </trkpt>
      <trkpt lat="43.49353" lon="6.94342">
        <ele>143.85437011719</ele>
        <time>2011-02-20T09:36:44Z</time>
      </trkpt>
      <trkpt lat="43.4935" lon="6.94349">
        <ele>142.41247558594</ele>
        <time>2011-02-20T09:36:49Z</time>
      </trkpt>
      <trkpt lat="43.49346" lon="6.94358">
        <ele>139.52844238281</ele>
        <time>2011-02-20T09:37:00Z</time>
      </trkpt>
      <trkpt lat="43.49346" lon="6.94358">
        <ele>139.52844238281</ele>
        <time>2011-02-20T09:37:05Z</time>
      </trkpt>
      <trkpt lat="43.49337" lon="6.94376">
        <ele>136.16394042969</ele>
        <time>2011-02-20T09:37:14Z</time>
      </trkpt>
      <trkpt lat="43.49335" lon="6.94377">
        <ele>136.16394042969</ele>
        <time>2011-02-20T09:37:15Z</time>
      </trkpt>
      <trkpt lat="43.49333" lon="6.94381">
        <ele>135.68310546875</ele>
        <time>2011-02-20T09:37:27Z</time>
      </trkpt>
      <trkpt lat="43.49337" lon="6.94385">
        <ele>133.27990722656</ele>
        <time>2011-02-20T09:37:37Z</time>
      </trkpt>
      <trkpt lat="43.4933" lon="6.94394">
        <ele>130.87670898438</ele>
        <time>2011-02-20T09:37:47Z</time>
      </trkpt>
      <trkpt lat="43.49322" lon="6.94398">
        <ele>129.43469238281</ele>
        <time>2011-02-20T09:37:50Z</time>
      </trkpt>
      <trkpt lat="43.49312" lon="6.94396">
        <ele>127.51196289062</ele>
        <time>2011-02-20T09:37:54Z</time>
      </trkpt>
      <trkpt lat="43.49298" lon="6.94399">
        <ele>125.10876464844</ele>
        <time>2011-02-20T09:37:59Z</time>
      </trkpt>
      <trkpt lat="43.49289" lon="6.94399">
        <ele>122.70544433594</ele>
        <time>2011-02-20T09:38:09Z</time>
      </trkpt>
      <trkpt lat="43.49289" lon="6.94398">
        <ele>122.22473144531</ele>
        <time>2011-02-20T09:38:25Z</time>
      </trkpt>
      <trkpt lat="43.49289" lon="6.94398">
        <ele>122.22473144531</ele>
        <time>2011-02-20T09:38:42Z</time>
      </trkpt>
      <trkpt lat="43.49286" lon="6.94401">
        <ele>121.26354980469</ele>
        <time>2011-02-20T09:38:52Z</time>
      </trkpt>
      <trkpt lat="43.49276" lon="6.94403">
        <ele>116.9375</ele>
        <time>2011-02-20T09:39:02Z</time>
      </trkpt>
      <trkpt lat="43.49277" lon="6.94403">
        <ele>116.45678710938</ele>
        <time>2011-02-20T09:39:38Z</time>
      </trkpt>
      <trkpt lat="43.49276" lon="6.94403">
        <ele>116.45678710938</ele>
        <time>2011-02-20T09:40:20Z</time>
      </trkpt>
      <trkpt lat="43.49277" lon="6.94404">
        <ele>116.45678710938</ele>
        <time>2011-02-20T09:41:49Z</time>
      </trkpt>
      <trkpt lat="43.49276" lon="6.94404">
        <ele>119.3408203125</ele>
        <time>2011-02-20T09:42:33Z</time>
      </trkpt>
      <trkpt lat="43.49274" lon="6.94402">
        <ele>118.86010742188</ele>
        <time>2011-02-20T09:43:15Z</time>
      </trkpt>
      <trkpt lat="43.49274" lon="6.94402">
        <ele>118.37939453125</ele>
        <time>2011-02-20T09:44:41Z</time>
      </trkpt>
      <trkpt lat="43.49273" lon="6.94402">
        <ele>118.37939453125</ele>
        <time>2011-02-20T09:45:35Z</time>
      </trkpt>
      <trkpt lat="43.49273" lon="6.94402">
        <ele>118.37939453125</ele>
        <time>2011-02-20T09:45:46Z</time>
      </trkpt>
      <trkpt lat="43.49273" lon="6.94402">
        <ele>118.86010742188</ele>
        <time>2011-02-20T09:46:01Z</time>
      </trkpt>
      <trkpt lat="43.49273" lon="6.94403">
        <ele>118.86010742188</ele>
        <time>2011-02-20T09:46:17Z</time>
      </trkpt>
      <trkpt lat="43.49273" lon="6.94403">
        <ele>118.86010742188</ele>
        <time>2011-02-20T09:46:19Z</time>
      </trkpt>
      <trkpt lat="43.49271" lon="6.94401">
        <ele>118.37939453125</ele>
        <time>2011-02-20T09:46:21Z</time>
      </trkpt>
      <trkpt lat="43.49267" lon="6.94391">
        <ele>117.41821289062</ele>
        <time>2011-02-20T09:46:25Z</time>
      </trkpt>
      <trkpt lat="43.49258" lon="6.94382">
        <ele>115.49560546875</ele>
        <time>2011-02-20T09:46:30Z</time>
      </trkpt>
      <trkpt lat="43.49241" lon="6.9438">
        <ele>106.84362792969</ele>
        <time>2011-02-20T09:46:42Z</time>
      </trkpt>
      <trkpt lat="43.49239" lon="6.94379">
        <ele>106.36303710938</ele>
        <time>2011-02-20T09:46:43Z</time>
      </trkpt>
      <trkpt lat="43.49231" lon="6.94374">
        <ele>103.95971679688</ele>
        <time>2011-02-20T09:46:52Z</time>
      </trkpt>
      <trkpt lat="43.49231" lon="6.94374">
        <ele>103.95971679688</ele>
        <time>2011-02-20T09:46:59Z</time>
      </trkpt>
      <trkpt lat="43.4923" lon="6.9437">
        <ele>103.95971679688</ele>
        <time>2011-02-20T09:47:16Z</time>
      </trkpt>
      <trkpt lat="43.49231" lon="6.9437">
        <ele>103.47900390625</ele>
        <time>2011-02-20T09:49:25Z</time>
      </trkpt>
      <trkpt lat="43.49231" lon="6.94364">
        <ele>103.47900390625</ele>
        <time>2011-02-20T09:49:29Z</time>
      </trkpt>
      <trkpt lat="43.49228" lon="6.94335">
        <ele>103.47900390625</ele>
        <time>2011-02-20T09:49:42Z</time>
      </trkpt>
      <trkpt lat="43.49227" lon="6.94333">
        <ele>103.47900390625</ele>
        <time>2011-02-20T09:49:43Z</time>
      </trkpt>
      <trkpt lat="43.49201" lon="6.94313">
        <ele>103.95971679688</ele>
        <time>2011-02-20T09:49:55Z</time>
      </trkpt>
      <trkpt lat="43.49181" lon="6.9429">
        <ele>102.51770019531</ele>
        <time>2011-02-20T09:50:03Z</time>
      </trkpt>
      <trkpt lat="43.49173" lon="6.94271">
        <ele>101.55639648438</ele>
        <time>2011-02-20T09:50:10Z</time>
      </trkpt>
      <trkpt lat="43.49163" lon="6.94258">
        <ele>100.59509277344</ele>
        <time>2011-02-20T09:50:17Z</time>
      </trkpt>
      <trkpt lat="43.4913" lon="6.94251">
        <ele>102.51770019531</ele>
        <time>2011-02-20T09:50:28Z</time>
      </trkpt>
      <trkpt lat="43.4909" lon="6.94228">
        <ele>104.92102050781</ele>
        <time>2011-02-20T09:50:42Z</time>
      </trkpt>
      <trkpt lat="43.49073" lon="6.9419">
        <ele>103.47900390625</ele>
        <time>2011-02-20T09:50:54Z</time>
      </trkpt>
      <trkpt lat="43.49059" lon="6.9417">
        <ele>102.99829101562</ele>
        <time>2011-02-20T09:51:01Z</time>
      </trkpt>
      <trkpt lat="43.4905" lon="6.94154">
        <ele>104.4404296875</ele>
        <time>2011-02-20T09:51:12Z</time>
      </trkpt>
      <trkpt lat="43.4905" lon="6.94153">
        <ele>104.92102050781</ele>
        <time>2011-02-20T09:51:25Z</time>
      </trkpt>
      <trkpt lat="43.4905" lon="6.94153">
        <ele>104.92102050781</ele>
        <time>2011-02-20T09:51:54Z</time>
      </trkpt>
      <trkpt lat="43.49049" lon="6.94152">
        <ele>104.92102050781</ele>
        <time>2011-02-20T09:51:56Z</time>
      </trkpt>
      <trkpt lat="43.49047" lon="6.94149">
        <ele>105.40173339844</ele>
        <time>2011-02-20T09:52:02Z</time>
      </trkpt>
      <trkpt lat="43.49045" lon="6.94142">
        <ele>105.88244628906</ele>
        <time>2011-02-20T09:52:11Z</time>
      </trkpt>
      <trkpt lat="43.4905" lon="6.94153">
        <ele>105.88244628906</ele>
        <time>2011-02-20T09:52:19Z</time>
      </trkpt>
      <trkpt lat="43.49051" lon="6.94152">
        <ele>105.88244628906</ele>
        <time>2011-02-20T09:52:20Z</time>
      </trkpt>
      <trkpt lat="43.49045" lon="6.9415">
        <ele>105.88244628906</ele>
        <time>2011-02-20T09:52:25Z</time>
      </trkpt>
      <trkpt lat="43.49037" lon="6.94152">
        <ele>105.88244628906</ele>
        <time>2011-02-20T09:52:28Z</time>
      </trkpt>
      <trkpt lat="43.49035" lon="6.94149">
        <ele>105.88244628906</ele>
        <time>2011-02-20T09:52:35Z</time>
      </trkpt>
      <trkpt lat="43.49047" lon="6.94152">
        <ele>105.88244628906</ele>
        <time>2011-02-20T09:52:42Z</time>
      </trkpt>
      <trkpt lat="43.49047" lon="6.94151">
        <ele>105.88244628906</ele>
        <time>2011-02-20T09:52:43Z</time>
      </trkpt>
      <trkpt lat="43.49047" lon="6.94146">
        <ele>105.88244628906</ele>
        <time>2011-02-20T09:52:47Z</time>
      </trkpt>
      <trkpt lat="43.4904" lon="6.94145">
        <ele>105.40173339844</ele>
        <time>2011-02-20T09:52:54Z</time>
      </trkpt>
      <trkpt lat="43.49047" lon="6.94151">
        <ele>104.92102050781</ele>
        <time>2011-02-20T09:53:04Z</time>
      </trkpt>
      <trkpt lat="43.49048" lon="6.94152">
        <ele>104.4404296875</ele>
        <time>2011-02-20T09:53:07Z</time>
      </trkpt>
      <trkpt lat="43.49052" lon="6.9416">
        <ele>104.4404296875</ele>
        <time>2011-02-20T09:53:12Z</time>
      </trkpt>
      <trkpt lat="43.49053" lon="6.94162">
        <ele>104.4404296875</ele>
        <time>2011-02-20T09:53:14Z</time>
      </trkpt>
      <trkpt lat="43.49054" lon="6.94164">
        <ele>104.4404296875</ele>
        <time>2011-02-20T09:53:21Z</time>
      </trkpt>
      <trkpt lat="43.49057" lon="6.94159">
        <ele>104.92102050781</ele>
        <time>2011-02-20T09:53:28Z</time>
      </trkpt>
      <trkpt lat="43.4906" lon="6.94149">
        <ele>106.84362792969</ele>
        <time>2011-02-20T09:53:37Z</time>
      </trkpt>
      <trkpt lat="43.49068" lon="6.94155">
        <ele>106.84362792969</ele>
        <time>2011-02-20T09:53:47Z</time>
      </trkpt>
      <trkpt lat="43.49077" lon="6.94161">
        <ele>104.92102050781</ele>
        <time>2011-02-20T09:54:00Z</time>
      </trkpt>
      <trkpt lat="43.49083" lon="6.94165">
        <ele>103.47900390625</ele>
        <time>2011-02-20T09:54:14Z</time>
      </trkpt>
      <trkpt lat="43.49085" lon="6.94169">
        <ele>103.95971679688</ele>
        <time>2011-02-20T09:54:25Z</time>
      </trkpt>
      <trkpt lat="43.49092" lon="6.94169">
        <ele>104.4404296875</ele>
        <time>2011-02-20T09:54:35Z</time>
      </trkpt>
      <trkpt lat="43.49097" lon="6.94172">
        <ele>106.84362792969</ele>
        <time>2011-02-20T09:54:43Z</time>
      </trkpt>
      <trkpt lat="43.49103" lon="6.94173">
        <ele>108.28564453125</ele>
        <time>2011-02-20T09:54:52Z</time>
      </trkpt>
      <trkpt lat="43.49108" lon="6.94176">
        <ele>108.28564453125</ele>
        <time>2011-02-20T09:55:11Z</time>
      </trkpt>
      <trkpt lat="43.49114" lon="6.94176">
        <ele>108.76623535156</ele>
        <time>2011-02-20T09:55:25Z</time>
      </trkpt>
      <trkpt lat="43.49124" lon="6.94178">
        <ele>110.68884277344</ele>
        <time>2011-02-20T09:55:47Z</time>
      </trkpt>
      <trkpt lat="43.49133" lon="6.94182">
        <ele>115.49560546875</ele>
        <time>2011-02-20T09:55:58Z</time>
      </trkpt>
      <trkpt lat="43.49138" lon="6.94184">
        <ele>117.89880371094</ele>
        <time>2011-02-20T09:56:08Z</time>
      </trkpt>
      <trkpt lat="43.49146" lon="6.94183">
        <ele>119.3408203125</ele>
        <time>2011-02-20T09:56:19Z</time>
      </trkpt>
      <trkpt lat="43.49155" lon="6.94178">
        <ele>121.744140625</ele>
        <time>2011-02-20T09:56:31Z</time>
      </trkpt>
      <trkpt lat="43.4916" lon="6.94176">
        <ele>123.18615722656</ele>
        <time>2011-02-20T09:56:42Z</time>
      </trkpt>
      <trkpt lat="43.49163" lon="6.94176">
        <ele>123.66674804688</ele>
        <time>2011-02-20T09:56:44Z</time>
      </trkpt>
      <trkpt lat="43.4917" lon="6.94175">
        <ele>126.06994628906</ele>
        <time>2011-02-20T09:56:57Z</time>
      </trkpt>
      <trkpt lat="43.49177" lon="6.94172">
        <ele>127.99255371094</ele>
        <time>2011-02-20T09:57:11Z</time>
      </trkpt>
      <trkpt lat="43.49182" lon="6.94173">
        <ele>129.43469238281</ele>
        <time>2011-02-20T09:57:22Z</time>
      </trkpt>
      <trkpt lat="43.49189" lon="6.94173">
        <ele>130.87670898438</ele>
        <time>2011-02-20T09:57:35Z</time>
      </trkpt>
      <trkpt lat="43.49197" lon="6.94176">
        <ele>132.79931640625</ele>
        <time>2011-02-20T09:57:48Z</time>
      </trkpt>
      <trkpt lat="43.49203" lon="6.94177">
        <ele>135.20251464844</ele>
        <time>2011-02-20T09:58:00Z</time>
      </trkpt>
      <trkpt lat="43.4921" lon="6.94183">
        <ele>136.64465332031</ele>
        <time>2011-02-20T09:58:14Z</time>
      </trkpt>
      <trkpt lat="43.49223" lon="6.94184">
        <ele>139.0478515625</ele>
        <time>2011-02-20T09:58:31Z</time>
      </trkpt>
      <trkpt lat="43.49228" lon="6.94187">
        <ele>140.97045898438</ele>
        <time>2011-02-20T09:58:44Z</time>
      </trkpt>
      <trkpt lat="43.4924" lon="6.94191">
        <ele>143.37365722656</ele>
        <time>2011-02-20T09:59:08Z</time>
      </trkpt>
      <trkpt lat="43.49248" lon="6.94193">
        <ele>146.2578125</ele>
        <time>2011-02-20T09:59:17Z</time>
      </trkpt>
      <trkpt lat="43.49255" lon="6.94196">
        <ele>149.1416015625</ele>
        <time>2011-02-20T09:59:28Z</time>
      </trkpt>
      <trkpt lat="43.49264" lon="6.94196">
        <ele>151.06420898438</ele>
        <time>2011-02-20T09:59:43Z</time>
      </trkpt>
      <trkpt lat="43.49273" lon="6.942">
        <ele>152.50634765625</ele>
        <time>2011-02-20T09:59:56Z</time>
      </trkpt>
      <trkpt lat="43.49276" lon="6.94201">
        <ele>153.46765136719</ele>
        <time>2011-02-20T10:00:00Z</time>
      </trkpt>
      <trkpt lat="43.49283" lon="6.94204">
        <ele>154.90954589844</ele>
        <time>2011-02-20T10:00:12Z</time>
      </trkpt>
      <trkpt lat="43.49292" lon="6.9421">
        <ele>156.3515625</ele>
        <time>2011-02-20T10:00:23Z</time>
      </trkpt>
      <trkpt lat="43.49299" lon="6.94216">
        <ele>156.3515625</ele>
        <time>2011-02-20T10:00:28Z</time>
      </trkpt>
      <trkpt lat="43.49306" lon="6.94221">
        <ele>156.83215332031</ele>
        <time>2011-02-20T10:00:32Z</time>
      </trkpt>
      <trkpt lat="43.49323" lon="6.94233">
        <ele>158.75476074219</ele>
        <time>2011-02-20T10:00:43Z</time>
      </trkpt>
      <trkpt lat="43.49329" lon="6.94237">
        <ele>158.75476074219</ele>
        <time>2011-02-20T10:00:47Z</time>
      </trkpt>
      <trkpt lat="43.4934" lon="6.94238">
        <ele>160.19689941406</ele>
        <time>2011-02-20T10:00:56Z</time>
      </trkpt>
      <trkpt lat="43.49345" lon="6.94235">
        <ele>161.63891601562</ele>
        <time>2011-02-20T10:01:07Z</time>
      </trkpt>
      <trkpt lat="43.49345" lon="6.94234">
        <ele>162.11950683594</ele>
        <time>2011-02-20T10:01:25Z</time>
      </trkpt>
      <trkpt lat="43.49345" lon="6.94234">
        <ele>162.11950683594</ele>
        <time>2011-02-20T10:03:47Z</time>
      </trkpt>
      <trkpt lat="43.49347" lon="6.94205">
        <ele>165.48413085938</ele>
        <time>2011-02-20T10:04:00Z</time>
      </trkpt>
      <trkpt lat="43.49344" lon="6.94172">
        <ele>168.36804199219</ele>
        <time>2011-02-20T10:04:15Z</time>
      </trkpt>
      <trkpt lat="43.4934" lon="6.94138">
        <ele>171.73266601562</ele>
        <time>2011-02-20T10:04:30Z</time>
      </trkpt>
      <trkpt lat="43.49338" lon="6.94105">
        <ele>174.13586425781</ele>
        <time>2011-02-20T10:04:44Z</time>
      </trkpt>
      <trkpt lat="43.49336" lon="6.94063">
        <ele>176.05859375</ele>
        <time>2011-02-20T10:05:00Z</time>
      </trkpt>
      <trkpt lat="43.49333" lon="6.94022">
        <ele>178.94262695312</ele>
        <time>2011-02-20T10:05:16Z</time>
      </trkpt>
      <trkpt lat="43.49328" lon="6.93993">
        <ele>180.38452148438</ele>
        <time>2011-02-20T10:05:29Z</time>
      </trkpt>
      <trkpt lat="43.49322" lon="6.93953">
        <ele>182.78784179688</ele>
        <time>2011-02-20T10:05:45Z</time>
      </trkpt>
      <trkpt lat="43.49316" lon="6.93916">
        <ele>186.15246582031</ele>
        <time>2011-02-20T10:06:00Z</time>
      </trkpt>
      <trkpt lat="43.49309" lon="6.93888">
        <ele>186.63317871094</ele>
        <time>2011-02-20T10:06:11Z</time>
      </trkpt>
      <trkpt lat="43.49302" lon="6.93859">
        <ele>187.11376953125</ele>
        <time>2011-02-20T10:06:24Z</time>
      </trkpt>
      <trkpt lat="43.49304" lon="6.93825">
        <ele>186.63317871094</ele>
        <time>2011-02-20T10:06:37Z</time>
      </trkpt>
      <trkpt lat="43.49309" lon="6.93788">
        <ele>186.15246582031</ele>
        <time>2011-02-20T10:06:49Z</time>
      </trkpt>
      <trkpt lat="43.4931" lon="6.93758">
        <ele>186.63317871094</ele>
        <time>2011-02-20T10:07:00Z</time>
      </trkpt>
      <trkpt lat="43.49309" lon="6.9375">
        <ele>186.63317871094</ele>
        <time>2011-02-20T10:07:13Z</time>
      </trkpt>
      <trkpt lat="43.49309" lon="6.93745">
        <ele>186.63317871094</ele>
        <time>2011-02-20T10:07:25Z</time>
      </trkpt>
      <trkpt lat="43.49308" lon="6.9374">
        <ele>186.63317871094</ele>
        <time>2011-02-20T10:07:37Z</time>
      </trkpt>
      <trkpt lat="43.49308" lon="6.9374">
        <ele>186.63317871094</ele>
        <time>2011-02-20T10:08:03Z</time>
      </trkpt>
      <trkpt lat="43.49308" lon="6.93737">
        <ele>186.15246582031</ele>
        <time>2011-02-20T10:08:05Z</time>
      </trkpt>
      <trkpt lat="43.49307" lon="6.93735">
        <ele>186.15246582031</ele>
        <time>2011-02-20T10:08:07Z</time>
      </trkpt>
      <trkpt lat="43.49308" lon="6.93738">
        <ele>186.63317871094</ele>
        <time>2011-02-20T10:08:21Z</time>
      </trkpt>
      <trkpt lat="43.49308" lon="6.93737">
        <ele>186.15246582031</ele>
        <time>2011-02-20T10:10:04Z</time>
      </trkpt>
      <trkpt lat="43.49308" lon="6.93741">
        <ele>185.67175292969</ele>
        <time>2011-02-20T10:10:16Z</time>
      </trkpt>
      <trkpt lat="43.49305" lon="6.93742">
        <ele>185.67175292969</ele>
        <time>2011-02-20T10:12:46Z</time>
      </trkpt>
      <trkpt lat="43.493" lon="6.93732">
        <ele>185.19116210938</ele>
        <time>2011-02-20T10:12:51Z</time>
      </trkpt>
      <trkpt lat="43.49297" lon="6.93711">
        <ele>185.19116210938</ele>
        <time>2011-02-20T10:12:55Z</time>
      </trkpt>
      <trkpt lat="43.49297" lon="6.93691">
        <ele>184.22985839844</ele>
        <time>2011-02-20T10:12:59Z</time>
      </trkpt>
      <trkpt lat="43.49302" lon="6.9366">
        <ele>179.90380859375</ele>
        <time>2011-02-20T10:13:07Z</time>
      </trkpt>
      <trkpt lat="43.49294" lon="6.93657">
        <ele>177.02001953125</ele>
        <time>2011-02-20T10:13:13Z</time>
      </trkpt>
      <trkpt lat="43.49294" lon="6.9365">
        <ele>175.09729003906</ele>
        <time>2011-02-20T10:13:18Z</time>
      </trkpt>
      <trkpt lat="43.49272" lon="6.93659">
        <ele>169.32946777344</ele>
        <time>2011-02-20T10:13:27Z</time>
      </trkpt>
      <trkpt lat="43.49267" lon="6.93654">
        <ele>166.4453125</ele>
        <time>2011-02-20T10:13:32Z</time>
      </trkpt>
      <trkpt lat="43.49261" lon="6.93652">
        <ele>164.04211425781</ele>
        <time>2011-02-20T10:13:35Z</time>
      </trkpt>
      <trkpt lat="43.49255" lon="6.93652">
        <ele>159.23547363281</ele>
        <time>2011-02-20T10:13:44Z</time>
      </trkpt>
      <trkpt lat="43.49252" lon="6.93654">
        <ele>159.71618652344</ele>
        <time>2011-02-20T10:14:11Z</time>
      </trkpt>
      <trkpt lat="43.49248" lon="6.93639">
        <ele>157.79357910156</ele>
        <time>2011-02-20T10:14:22Z</time>
      </trkpt>
      <trkpt lat="43.49247" lon="6.93639">
        <ele>156.83215332031</ele>
        <time>2011-02-20T10:14:26Z</time>
      </trkpt>
      <trkpt lat="43.49242" lon="6.93639">
        <ele>155.87097167969</ele>
        <time>2011-02-20T10:14:29Z</time>
      </trkpt>
      <trkpt lat="43.49231" lon="6.93653">
        <ele>149.62231445312</ele>
        <time>2011-02-20T10:14:39Z</time>
      </trkpt>
      <trkpt lat="43.49231" lon="6.93654">
        <ele>149.1416015625</ele>
        <time>2011-02-20T10:14:43Z</time>
      </trkpt>
      <trkpt lat="43.49229" lon="6.93654">
        <ele>148.18041992188</ele>
        <time>2011-02-20T10:14:59Z</time>
      </trkpt>
      <trkpt lat="43.49228" lon="6.93653">
        <ele>148.66101074219</ele>
        <time>2011-02-20T10:15:11Z</time>
      </trkpt>
      <trkpt lat="43.49227" lon="6.9365">
        <ele>148.66101074219</ele>
        <time>2011-02-20T10:15:23Z</time>
      </trkpt>
      <trkpt lat="43.49227" lon="6.93647">
        <ele>147.21899414062</ele>
        <time>2011-02-20T10:15:28Z</time>
      </trkpt>
      <trkpt lat="43.49227" lon="6.93644">
        <ele>146.2578125</ele>
        <time>2011-02-20T10:15:30Z</time>
      </trkpt>
      <trkpt lat="43.49224" lon="6.93642">
        <ele>144.33520507812</ele>
        <time>2011-02-20T10:15:36Z</time>
      </trkpt>
      <trkpt lat="43.49218" lon="6.93644">
        <ele>142.41247558594</ele>
        <time>2011-02-20T10:15:42Z</time>
      </trkpt>
      <trkpt lat="43.49204" lon="6.93648">
        <ele>136.64465332031</ele>
        <time>2011-02-20T10:15:51Z</time>
      </trkpt>
      <trkpt lat="43.49204" lon="6.93648">
        <ele>136.16394042969</ele>
        <time>2011-02-20T10:15:52Z</time>
      </trkpt>
      <trkpt lat="43.49202" lon="6.93651">
        <ele>132.31860351562</ele>
        <time>2011-02-20T10:15:59Z</time>
      </trkpt>
      <trkpt lat="43.49187" lon="6.9366">
        <ele>126.06994628906</ele>
        <time>2011-02-20T10:16:10Z</time>
      </trkpt>
      <trkpt lat="43.49185" lon="6.93661">
        <ele>125.58935546875</ele>
        <time>2011-02-20T10:16:11Z</time>
      </trkpt>
      <trkpt lat="43.49179" lon="6.93663">
        <ele>124.62805175781</ele>
        <time>2011-02-20T10:16:15Z</time>
      </trkpt>
      <trkpt lat="43.4918" lon="6.93647">
        <ele>122.70544433594</ele>
        <time>2011-02-20T10:16:22Z</time>
      </trkpt>
      <trkpt lat="43.49188" lon="6.93622">
        <ele>117.41821289062</ele>
        <time>2011-02-20T10:16:31Z</time>
      </trkpt>
      <trkpt lat="43.49188" lon="6.93606">
        <ele>112.13098144531</ele>
        <time>2011-02-20T10:16:38Z</time>
      </trkpt>
      <trkpt lat="43.49191" lon="6.93606">
        <ele>111.65026855469</ele>
        <time>2011-02-20T10:16:53Z</time>
      </trkpt>
      <trkpt lat="43.4919" lon="6.93606">
        <ele>112.13098144531</ele>
        <time>2011-02-20T10:18:26Z</time>
      </trkpt>
      <trkpt lat="43.4919" lon="6.93605">
        <ele>112.61157226562</ele>
        <time>2011-02-20T10:18:45Z</time>
      </trkpt>
      <trkpt lat="43.49189" lon="6.93605">
        <ele>112.13098144531</ele>
        <time>2011-02-20T10:20:48Z</time>
      </trkpt>
      <trkpt lat="43.4919" lon="6.93603">
        <ele>112.13098144531</ele>
        <time>2011-02-20T10:20:50Z</time>
      </trkpt>
      <trkpt lat="43.49193" lon="6.93598">
        <ele>113.57299804688</ele>
        <time>2011-02-20T10:20:54Z</time>
      </trkpt>
      <trkpt lat="43.49207" lon="6.93585">
        <ele>116.9375</ele>
        <time>2011-02-20T10:21:02Z</time>
      </trkpt>
      <trkpt lat="43.49211" lon="6.93558">
        <ele>120.78283691406</ele>
        <time>2011-02-20T10:21:12Z</time>
      </trkpt>
      <trkpt lat="43.49211" lon="6.93551">
        <ele>121.26354980469</ele>
        <time>2011-02-20T10:21:14Z</time>
      </trkpt>
      <trkpt lat="43.49209" lon="6.93538">
        <ele>123.18615722656</ele>
        <time>2011-02-20T10:21:18Z</time>
      </trkpt>
      <trkpt lat="43.49204" lon="6.9353">
        <ele>124.62805175781</ele>
        <time>2011-02-20T10:21:21Z</time>
      </trkpt>
      <trkpt lat="43.49199" lon="6.9352">
        <ele>125.10876464844</ele>
        <time>2011-02-20T10:21:25Z</time>
      </trkpt>
      <trkpt lat="43.49195" lon="6.93481">
        <ele>125.10876464844</ele>
        <time>2011-02-20T10:21:37Z</time>
      </trkpt>
      <trkpt lat="43.49198" lon="6.93468">
        <ele>125.58935546875</ele>
        <time>2011-02-20T10:21:41Z</time>
      </trkpt>
      <trkpt lat="43.492" lon="6.93449">
        <ele>127.03137207031</ele>
        <time>2011-02-20T10:21:49Z</time>
      </trkpt>
      <trkpt lat="43.49204" lon="6.93443">
        <ele>126.06994628906</ele>
        <time>2011-02-20T10:21:57Z</time>
      </trkpt>
      <trkpt lat="43.49206" lon="6.93432">
        <ele>126.55065917969</ele>
        <time>2011-02-20T10:22:02Z</time>
      </trkpt>
      <trkpt lat="43.49208" lon="6.93428">
        <ele>126.06994628906</ele>
        <time>2011-02-20T10:22:05Z</time>
      </trkpt>
      <trkpt lat="43.49217" lon="6.93397">
        <ele>126.55065917969</ele>
        <time>2011-02-20T10:22:17Z</time>
      </trkpt>
      <trkpt lat="43.49225" lon="6.93362">
        <ele>126.55065917969</ele>
        <time>2011-02-20T10:22:26Z</time>
      </trkpt>
      <trkpt lat="43.49231" lon="6.93323">
        <ele>129.91528320312</ele>
        <time>2011-02-20T10:22:36Z</time>
      </trkpt>
      <trkpt lat="43.49234" lon="6.93291">
        <ele>130.87670898438</ele>
        <time>2011-02-20T10:22:43Z</time>
      </trkpt>
      <trkpt lat="43.49232" lon="6.93269">
        <ele>130.87670898438</ele>
        <time>2011-02-20T10:22:51Z</time>
      </trkpt>
      <trkpt lat="43.49232" lon="6.93269">
        <ele>130.87670898438</ele>
        <time>2011-02-20T10:23:27Z</time>
      </trkpt>
      <trkpt lat="43.49232" lon="6.93264">
        <ele>129.43469238281</ele>
        <time>2011-02-20T10:24:12Z</time>
      </trkpt>
      <trkpt lat="43.49228" lon="6.93257">
        <ele>126.55065917969</ele>
        <time>2011-02-20T10:24:19Z</time>
      </trkpt>
      <trkpt lat="43.49223" lon="6.93257">
        <ele>125.10876464844</ele>
        <time>2011-02-20T10:24:33Z</time>
      </trkpt>
      <trkpt lat="43.49219" lon="6.9326">
        <ele>123.18615722656</ele>
        <time>2011-02-20T10:24:43Z</time>
      </trkpt>
      <trkpt lat="43.49216" lon="6.93265">
        <ele>121.26354980469</ele>
        <time>2011-02-20T10:24:55Z</time>
      </trkpt>
      <trkpt lat="43.49214" lon="6.93266">
        <ele>120.30212402344</ele>
        <time>2011-02-20T10:25:07Z</time>
      </trkpt>
      <trkpt lat="43.49213" lon="6.93265">
        <ele>118.86010742188</ele>
        <time>2011-02-20T10:25:17Z</time>
      </trkpt>
      <trkpt lat="43.49206" lon="6.93268">
        <ele>116.45678710938</ele>
        <time>2011-02-20T10:25:27Z</time>
      </trkpt>
      <trkpt lat="43.49205" lon="6.93271">
        <ele>114.5341796875</ele>
        <time>2011-02-20T10:25:39Z</time>
      </trkpt>
      <trkpt lat="43.49205" lon="6.93272">
        <ele>114.05358886719</ele>
        <time>2011-02-20T10:25:57Z</time>
      </trkpt>
      <trkpt lat="43.49205" lon="6.93272">
        <ele>114.05358886719</ele>
        <time>2011-02-20T10:26:27Z</time>
      </trkpt>
      <trkpt lat="43.49206" lon="6.93271">
        <ele>114.5341796875</ele>
        <time>2011-02-20T10:26:56Z</time>
      </trkpt>
      <trkpt lat="43.49208" lon="6.93266">
        <ele>114.5341796875</ele>
        <time>2011-02-20T10:26:59Z</time>
      </trkpt>
      <trkpt lat="43.49207" lon="6.9326">
        <ele>115.97619628906</ele>
        <time>2011-02-20T10:27:08Z</time>
      </trkpt>
      <trkpt lat="43.49207" lon="6.9326">
        <ele>115.97619628906</ele>
        <time>2011-02-20T10:27:38Z</time>
      </trkpt>
      <trkpt lat="43.49204" lon="6.93257">
        <ele>116.9375</ele>
        <time>2011-02-20T10:27:48Z</time>
      </trkpt>
      <trkpt lat="43.49205" lon="6.93257">
        <ele>116.9375</ele>
        <time>2011-02-20T10:28:21Z</time>
      </trkpt>
      <trkpt lat="43.49204" lon="6.93256">
        <ele>115.97619628906</ele>
        <time>2011-02-20T10:29:38Z</time>
      </trkpt>
      <trkpt lat="43.49208" lon="6.9326">
        <ele>115.49560546875</ele>
        <time>2011-02-20T10:29:50Z</time>
      </trkpt>
      <trkpt lat="43.49208" lon="6.9326">
        <ele>115.49560546875</ele>
        <time>2011-02-20T10:30:16Z</time>
      </trkpt>
      <trkpt lat="43.49206" lon="6.93266">
        <ele>114.05358886719</ele>
        <time>2011-02-20T10:30:29Z</time>
      </trkpt>
      <trkpt lat="43.49205" lon="6.93268">
        <ele>112.13098144531</ele>
        <time>2011-02-20T10:30:43Z</time>
      </trkpt>
      <trkpt lat="43.49203" lon="6.93268">
        <ele>110.68884277344</ele>
        <time>2011-02-20T10:30:49Z</time>
      </trkpt>
      <trkpt lat="43.49203" lon="6.93264">
        <ele>109.24694824219</ele>
        <time>2011-02-20T10:31:02Z</time>
      </trkpt>
      <trkpt lat="43.49203" lon="6.93264">
        <ele>109.24694824219</ele>
        <time>2011-02-20T10:31:10Z</time>
      </trkpt>
      <trkpt lat="43.49197" lon="6.9326">
        <ele>108.28564453125</ele>
        <time>2011-02-20T10:31:15Z</time>
      </trkpt>
      <trkpt lat="43.49191" lon="6.93247">
        <ele>106.84362792969</ele>
        <time>2011-02-20T10:31:20Z</time>
      </trkpt>
      <trkpt lat="43.49181" lon="6.93237">
        <ele>104.4404296875</ele>
        <time>2011-02-20T10:31:25Z</time>
      </trkpt>
      <trkpt lat="43.49177" lon="6.93218">
        <ele>102.51770019531</ele>
        <time>2011-02-20T10:31:31Z</time>
      </trkpt>
      <trkpt lat="43.49171" lon="6.93214">
        <ele>100.11450195312</ele>
        <time>2011-02-20T10:31:35Z</time>
      </trkpt>
      <trkpt lat="43.49165" lon="6.93205">
        <ele>96.749877929688</ele>
        <time>2011-02-20T10:31:41Z</time>
      </trkpt>
      <trkpt lat="43.49154" lon="6.93197">
        <ele>92.423950195312</ele>
        <time>2011-02-20T10:31:50Z</time>
      </trkpt>
      <trkpt lat="43.49146" lon="6.932">
        <ele>88.578735351562</ele>
        <time>2011-02-20T10:31:57Z</time>
      </trkpt>
      <trkpt lat="43.49142" lon="6.93201">
        <ele>88.578735351562</ele>
        <time>2011-02-20T10:32:03Z</time>
      </trkpt>
      <trkpt lat="43.49137" lon="6.93193">
        <ele>86.656005859375</ele>
        <time>2011-02-20T10:32:07Z</time>
      </trkpt>
      <trkpt lat="43.49132" lon="6.93185">
        <ele>86.656005859375</ele>
        <time>2011-02-20T10:32:09Z</time>
      </trkpt>
      <trkpt lat="43.49121" lon="6.93175">
        <ele>85.694580078125</ele>
        <time>2011-02-20T10:32:13Z</time>
      </trkpt>
      <trkpt lat="43.4909" lon="6.93167">
        <ele>85.694580078125</ele>
        <time>2011-02-20T10:32:23Z</time>
      </trkpt>
      <trkpt lat="43.49069" lon="6.93162">
        <ele>82.810791015625</ele>
        <time>2011-02-20T10:32:30Z</time>
      </trkpt>
      <trkpt lat="43.49053" lon="6.93173">
        <ele>77.5234375</ele>
        <time>2011-02-20T10:32:39Z</time>
      </trkpt>
      <trkpt lat="43.49047" lon="6.93184">
        <ele>73.67822265625</ele>
        <time>2011-02-20T10:32:43Z</time>
      </trkpt>
      <trkpt lat="43.49043" lon="6.93188">
        <ele>71.755493164062</ele>
        <time>2011-02-20T10:32:45Z</time>
      </trkpt>
      <trkpt lat="43.49049" lon="6.93211">
        <ele>69.352294921875</ele>
        <time>2011-02-20T10:32:52Z</time>
      </trkpt>
      <trkpt lat="43.49053" lon="6.93227">
        <ele>67.910278320312</ele>
        <time>2011-02-20T10:32:56Z</time>
      </trkpt>
      <trkpt lat="43.49044" lon="6.93223">
        <ele>65.507080078125</ele>
        <time>2011-02-20T10:33:04Z</time>
      </trkpt>
      <trkpt lat="43.49038" lon="6.93214">
        <ele>65.0263671875</ele>
        <time>2011-02-20T10:33:07Z</time>
      </trkpt>
      <trkpt lat="43.49018" lon="6.93213">
        <ele>62.142333984375</ele>
        <time>2011-02-20T10:33:14Z</time>
      </trkpt>
      <trkpt lat="43.49005" lon="6.93215">
        <ele>61.661743164062</ele>
        <time>2011-02-20T10:33:22Z</time>
      </trkpt>
      <trkpt lat="43.48996" lon="6.93223">
        <ele>59.258422851562</ele>
        <time>2011-02-20T10:33:33Z</time>
      </trkpt>
      <trkpt lat="43.48996" lon="6.93224">
        <ele>58.777709960938</ele>
        <time>2011-02-20T10:33:36Z</time>
      </trkpt>
      <trkpt lat="43.49003" lon="6.93234">
        <ele>53.490478515625</ele>
        <time>2011-02-20T10:33:45Z</time>
      </trkpt>
      <trkpt lat="43.49003" lon="6.93234">
        <ele>53.009765625</ele>
        <time>2011-02-20T10:33:57Z</time>
      </trkpt>
      <trkpt lat="43.48989" lon="6.93239">
        <ele>50.606567382812</ele>
        <time>2011-02-20T10:34:06Z</time>
      </trkpt>
      <trkpt lat="43.48989" lon="6.93239">
        <ele>50.1259765625</ele>
        <time>2011-02-20T10:35:23Z</time>
      </trkpt>
      <trkpt lat="43.48989" lon="6.93239">
        <ele>50.1259765625</ele>
        <time>2011-02-20T10:35:24Z</time>
      </trkpt>
      <trkpt lat="43.48987" lon="6.93238">
        <ele>50.1259765625</ele>
        <time>2011-02-20T10:35:27Z</time>
      </trkpt>
      <trkpt lat="43.48971" lon="6.93221">
        <ele>50.1259765625</ele>
        <time>2011-02-20T10:35:38Z</time>
      </trkpt>
      <trkpt lat="43.48962" lon="6.93191">
        <ele>54.451782226562</ele>
        <time>2011-02-20T10:35:48Z</time>
      </trkpt>
      <trkpt lat="43.48961" lon="6.93189">
        <ele>54.932373046875</ele>
        <time>2011-02-20T10:35:49Z</time>
      </trkpt>
      <trkpt lat="43.48962" lon="6.93182">
        <ele>55.4130859375</ele>
        <time>2011-02-20T10:35:52Z</time>
      </trkpt>
      <trkpt lat="43.48965" lon="6.93176">
        <ele>55.4130859375</ele>
        <time>2011-02-20T10:36:02Z</time>
      </trkpt>
      <trkpt lat="43.48969" lon="6.93172">
        <ele>55.893798828125</ele>
        <time>2011-02-20T10:36:27Z</time>
      </trkpt>
      <trkpt lat="43.48985" lon="6.93153">
        <ele>56.855102539062</ele>
        <time>2011-02-20T10:36:38Z</time>
      </trkpt>
      <trkpt lat="43.49004" lon="6.93117">
        <ele>59.258422851562</ele>
        <time>2011-02-20T10:36:52Z</time>
      </trkpt>
      <trkpt lat="43.49031" lon="6.93102">
        <ele>59.258422851562</ele>
        <time>2011-02-20T10:37:05Z</time>
      </trkpt>
      <trkpt lat="43.49055" lon="6.93095">
        <ele>60.700317382812</ele>
        <time>2011-02-20T10:37:19Z</time>
      </trkpt>
      <trkpt lat="43.49077" lon="6.93083">
        <ele>62.622924804688</ele>
        <time>2011-02-20T10:37:32Z</time>
      </trkpt>
      <trkpt lat="43.49101" lon="6.93091">
        <ele>63.103637695312</ele>
        <time>2011-02-20T10:37:47Z</time>
      </trkpt>
      <trkpt lat="43.49109" lon="6.93099">
        <ele>64.545654296875</ele>
        <time>2011-02-20T10:37:53Z</time>
      </trkpt>
      <trkpt lat="43.49138" lon="6.93116">
        <ele>66.948974609375</ele>
        <time>2011-02-20T10:38:10Z</time>
      </trkpt>
      <trkpt lat="43.49159" lon="6.93128">
        <ele>66.46826171875</ele>
        <time>2011-02-20T10:38:23Z</time>
      </trkpt>
      <trkpt lat="43.49182" lon="6.93131">
        <ele>68.390869140625</ele>
        <time>2011-02-20T10:38:37Z</time>
      </trkpt>
      <trkpt lat="43.49197" lon="6.93137">
        <ele>68.87158203125</ele>
        <time>2011-02-20T10:38:45Z</time>
      </trkpt>
      <trkpt lat="43.49222" lon="6.93121">
        <ele>70.794189453125</ele>
        <time>2011-02-20T10:39:02Z</time>
      </trkpt>
      <trkpt lat="43.49222" lon="6.93075">
        <ele>75.120239257812</ele>
        <time>2011-02-20T10:39:19Z</time>
      </trkpt>
      <trkpt lat="43.49242" lon="6.93046">
        <ele>78.965454101562</ele>
        <time>2011-02-20T10:39:33Z</time>
      </trkpt>
      <trkpt lat="43.4927" lon="6.93032">
        <ele>82.810791015625</ele>
        <time>2011-02-20T10:39:48Z</time>
      </trkpt>
      <trkpt lat="43.4928" lon="6.93007">
        <ele>84.252685546875</ele>
        <time>2011-02-20T10:40:00Z</time>
      </trkpt>
      <trkpt lat="43.49283" lon="6.92967">
        <ele>86.17529296875</ele>
        <time>2011-02-20T10:40:14Z</time>
      </trkpt>
      <trkpt lat="43.49295" lon="6.92946">
        <ele>87.6171875</ele>
        <time>2011-02-20T10:40:24Z</time>
      </trkpt>
      <trkpt lat="43.49305" lon="6.92935">
        <ele>89.539916992188</ele>
        <time>2011-02-20T10:40:33Z</time>
      </trkpt>
      <trkpt lat="43.49321" lon="6.92921">
        <ele>92.423950195312</ele>
        <time>2011-02-20T10:40:47Z</time>
      </trkpt>
      <trkpt lat="43.49324" lon="6.92919">
        <ele>92.904541015625</ele>
        <time>2011-02-20T10:40:50Z</time>
      </trkpt>
      <trkpt lat="43.49333" lon="6.92911">
        <ele>95.307739257812</ele>
        <time>2011-02-20T10:40:59Z</time>
      </trkpt>
      <trkpt lat="43.49336" lon="6.92908">
        <ele>96.269287109375</ele>
        <time>2011-02-20T10:41:01Z</time>
      </trkpt>
      <trkpt lat="43.49341" lon="6.92882">
        <ele>96.269287109375</ele>
        <time>2011-02-20T10:41:15Z</time>
      </trkpt>
      <trkpt lat="43.49347" lon="6.92854">
        <ele>98.672485351562</ele>
        <time>2011-02-20T10:41:31Z</time>
      </trkpt>
      <trkpt lat="43.49356" lon="6.92826">
        <ele>102.037109375</ele>
        <time>2011-02-20T10:41:47Z</time>
      </trkpt>
      <trkpt lat="43.49367" lon="6.92808">
        <ele>103.95971679688</ele>
        <time>2011-02-20T10:41:59Z</time>
      </trkpt>
      <trkpt lat="43.49373" lon="6.92801">
        <ele>104.4404296875</ele>
        <time>2011-02-20T10:42:05Z</time>
      </trkpt>
      <trkpt lat="43.49379" lon="6.92796">
        <ele>105.40173339844</ele>
        <time>2011-02-20T10:42:11Z</time>
      </trkpt>
      <trkpt lat="43.49385" lon="6.92795">
        <ele>104.92102050781</ele>
        <time>2011-02-20T10:42:15Z</time>
      </trkpt>
      <trkpt lat="43.49404" lon="6.92789">
        <ele>106.36303710938</ele>
        <time>2011-02-20T10:42:29Z</time>
      </trkpt>
      <trkpt lat="43.49426" lon="6.9279">
        <ele>110.20825195312</ele>
        <time>2011-02-20T10:42:44Z</time>
      </trkpt>
      <trkpt lat="43.49444" lon="6.92805">
        <ele>113.09228515625</ele>
        <time>2011-02-20T10:42:58Z</time>
      </trkpt>
      <trkpt lat="43.49464" lon="6.92786">
        <ele>114.5341796875</ele>
        <time>2011-02-20T10:43:13Z</time>
      </trkpt>
      <trkpt lat="43.49484" lon="6.92777">
        <ele>115.49560546875</ele>
        <time>2011-02-20T10:43:25Z</time>
      </trkpt>
      <trkpt lat="43.49488" lon="6.92776">
        <ele>116.9375</ele>
        <time>2011-02-20T10:43:39Z</time>
      </trkpt>
      <trkpt lat="43.49488" lon="6.92775">
        <ele>117.41821289062</ele>
        <time>2011-02-20T10:44:26Z</time>
      </trkpt>
      <trkpt lat="43.49488" lon="6.92775">
        <ele>117.41821289062</ele>
        <time>2011-02-20T10:45:54Z</time>
      </trkpt>
      <trkpt lat="43.49489" lon="6.92774">
        <ele>117.89880371094</ele>
        <time>2011-02-20T10:47:12Z</time>
      </trkpt>
      <trkpt lat="43.49483" lon="6.92753">
        <ele>120.30212402344</ele>
        <time>2011-02-20T10:47:23Z</time>
      </trkpt>
      <trkpt lat="43.49473" lon="6.92723">
        <ele>121.744140625</ele>
        <time>2011-02-20T10:47:38Z</time>
      </trkpt>
      <trkpt lat="43.49472" lon="6.92686">
        <ele>124.14733886719</ele>
        <time>2011-02-20T10:47:52Z</time>
      </trkpt>
      <trkpt lat="43.49477" lon="6.92663">
        <ele>125.58935546875</ele>
        <time>2011-02-20T10:48:01Z</time>
      </trkpt>
      <trkpt lat="43.49477" lon="6.92636">
        <ele>127.51196289062</ele>
        <time>2011-02-20T10:48:11Z</time>
      </trkpt>
      <trkpt lat="43.49468" lon="6.92603">
        <ele>129.91528320312</ele>
        <time>2011-02-20T10:48:25Z</time>
      </trkpt>
      <trkpt lat="43.4946" lon="6.92586">
        <ele>132.31860351562</ele>
        <time>2011-02-20T10:48:34Z</time>
      </trkpt>
      <trkpt lat="43.49444" lon="6.92556">
        <ele>134.2412109375</ele>
        <time>2011-02-20T10:48:48Z</time>
      </trkpt>
      <trkpt lat="43.49442" lon="6.9255">
        <ele>135.20251464844</ele>
        <time>2011-02-20T10:48:51Z</time>
      </trkpt>
      <trkpt lat="43.49437" lon="6.92519">
        <ele>135.68310546875</ele>
        <time>2011-02-20T10:49:05Z</time>
      </trkpt>
      <trkpt lat="43.49433" lon="6.92485">
        <ele>137.60583496094</ele>
        <time>2011-02-20T10:49:20Z</time>
      </trkpt>
      <trkpt lat="43.49429" lon="6.92448">
        <ele>140.00915527344</ele>
        <time>2011-02-20T10:49:36Z</time>
      </trkpt>
      <trkpt lat="43.49433" lon="6.92447">
        <ele>139.52844238281</ele>
        <time>2011-02-20T10:49:44Z</time>
      </trkpt>
      <trkpt lat="43.49433" lon="6.92454">
        <ele>139.0478515625</ele>
        <time>2011-02-20T10:49:47Z</time>
      </trkpt>
      <trkpt lat="43.49441" lon="6.92496">
        <ele>139.0478515625</ele>
        <time>2011-02-20T10:50:03Z</time>
      </trkpt>
      <trkpt lat="43.49458" lon="6.92537">
        <ele>140.48986816406</ele>
        <time>2011-02-20T10:50:17Z</time>
      </trkpt>
      <trkpt lat="43.49486" lon="6.92565">
        <ele>143.37365722656</ele>
        <time>2011-02-20T10:50:31Z</time>
      </trkpt>
      <trkpt lat="43.495" lon="6.92574">
        <ele>144.33520507812</ele>
        <time>2011-02-20T10:50:37Z</time>
      </trkpt>
      <trkpt lat="43.49508" lon="6.92577">
        <ele>145.29638671875</ele>
        <time>2011-02-20T10:50:41Z</time>
      </trkpt>
      <trkpt lat="43.49521" lon="6.9257">
        <ele>147.21899414062</ele>
        <time>2011-02-20T10:50:48Z</time>
      </trkpt>
      <trkpt lat="43.49523" lon="6.9256">
        <ele>147.69970703125</ele>
        <time>2011-02-20T10:50:52Z</time>
      </trkpt>
      <trkpt lat="43.49528" lon="6.92527">
        <ele>148.66101074219</ele>
        <time>2011-02-20T10:51:07Z</time>
      </trkpt>
      <trkpt lat="43.49527" lon="6.92516">
        <ele>149.1416015625</ele>
        <time>2011-02-20T10:51:12Z</time>
      </trkpt>
      <trkpt lat="43.49524" lon="6.92481">
        <ele>151.544921875</ele>
        <time>2011-02-20T10:51:28Z</time>
      </trkpt>
      <trkpt lat="43.49523" lon="6.9245">
        <ele>152.98693847656</ele>
        <time>2011-02-20T10:51:42Z</time>
      </trkpt>
      <trkpt lat="43.49517" lon="6.9242">
        <ele>154.90954589844</ele>
        <time>2011-02-20T10:51:56Z</time>
      </trkpt>
      <trkpt lat="43.49529" lon="6.92388">
        <ele>155.87097167969</ele>
        <time>2011-02-20T10:52:12Z</time>
      </trkpt>
      <trkpt lat="43.4955" lon="6.92356">
        <ele>156.83215332031</ele>
        <time>2011-02-20T10:52:27Z</time>
      </trkpt>
      <trkpt lat="43.49551" lon="6.92314">
        <ele>158.27416992188</ele>
        <time>2011-02-20T10:52:42Z</time>
      </trkpt>
      <trkpt lat="43.49553" lon="6.92268">
        <ele>161.63891601562</ele>
        <time>2011-02-20T10:53:00Z</time>
      </trkpt>
      <trkpt lat="43.49553" lon="6.92235">
        <ele>163.08081054688</ele>
        <time>2011-02-20T10:53:15Z</time>
      </trkpt>
      <trkpt lat="43.49554" lon="6.92228">
        <ele>163.5615234375</ele>
        <time>2011-02-20T10:53:19Z</time>
      </trkpt>
      <trkpt lat="43.49549" lon="6.92208">
        <ele>165.96472167969</ele>
        <time>2011-02-20T10:53:30Z</time>
      </trkpt>
      <trkpt lat="43.49542" lon="6.92195">
        <ele>167.40673828125</ele>
        <time>2011-02-20T10:53:38Z</time>
      </trkpt>
      <trkpt lat="43.49537" lon="6.92184">
        <ele>167.88732910156</ele>
        <time>2011-02-20T10:53:44Z</time>
      </trkpt>
      <trkpt lat="43.4952" lon="6.92164">
        <ele>169.32946777344</ele>
        <time>2011-02-20T10:53:59Z</time>
      </trkpt>
      <trkpt lat="43.49502" lon="6.92182">
        <ele>173.17468261719</ele>
        <time>2011-02-20T10:54:14Z</time>
      </trkpt>
      <trkpt lat="43.49494" lon="6.92189">
        <ele>174.61657714844</ele>
        <time>2011-02-20T10:54:20Z</time>
      </trkpt>
      <trkpt lat="43.49491" lon="6.92185">
        <ele>175.09729003906</ele>
        <time>2011-02-20T10:54:23Z</time>
      </trkpt>
      <trkpt lat="43.49488" lon="6.92174">
        <ele>176.53930664062</ele>
        <time>2011-02-20T10:54:28Z</time>
      </trkpt>
      <trkpt lat="43.49487" lon="6.92146">
        <ele>176.53930664062</ele>
        <time>2011-02-20T10:54:43Z</time>
      </trkpt>
      <trkpt lat="43.49479" lon="6.92123">
        <ele>178.94262695312</ele>
        <time>2011-02-20T10:54:56Z</time>
      </trkpt>
      <trkpt lat="43.49456" lon="6.9211">
        <ele>181.34582519531</ele>
        <time>2011-02-20T10:55:11Z</time>
      </trkpt>
      <trkpt lat="43.4944" lon="6.92101">
        <ele>182.78784179688</ele>
        <time>2011-02-20T10:55:21Z</time>
      </trkpt>
      <trkpt lat="43.49433" lon="6.92088">
        <ele>183.7490234375</ele>
        <time>2011-02-20T10:55:28Z</time>
      </trkpt>
      <trkpt lat="43.49421" lon="6.92053">
        <ele>185.67175292969</ele>
        <time>2011-02-20T10:55:44Z</time>
      </trkpt>
      <trkpt lat="43.49432" lon="6.9202">
        <ele>186.15246582031</ele>
        <time>2011-02-20T10:55:59Z</time>
      </trkpt>
      <trkpt lat="43.49452" lon="6.92">
        <ele>188.07507324219</ele>
        <time>2011-02-20T10:56:14Z</time>
      </trkpt>
      <trkpt lat="43.49477" lon="6.91972">
        <ele>189.51696777344</ele>
        <time>2011-02-20T10:56:31Z</time>
      </trkpt>
      <trkpt lat="43.49493" lon="6.91948">
        <ele>190.47839355469</ele>
        <time>2011-02-20T10:56:43Z</time>
      </trkpt>
      <trkpt lat="43.4951" lon="6.91952">
        <ele>192.88171386719</ele>
        <time>2011-02-20T10:56:53Z</time>
      </trkpt>
      <trkpt lat="43.49531" lon="6.91951">
        <ele>195.28491210938</ele>
        <time>2011-02-20T10:57:08Z</time>
      </trkpt>
      <trkpt lat="43.4954" lon="6.91932">
        <ele>194.80432128906</ele>
        <time>2011-02-20T10:57:19Z</time>
      </trkpt>
      <trkpt lat="43.4955" lon="6.91911">
        <ele>196.24633789062</ele>
        <time>2011-02-20T10:57:33Z</time>
      </trkpt>
      <trkpt lat="43.49563" lon="6.91887">
        <ele>197.68823242188</ele>
        <time>2011-02-20T10:57:48Z</time>
      </trkpt>
      <trkpt lat="43.49575" lon="6.91873">
        <ele>199.61083984375</ele>
        <time>2011-02-20T10:57:59Z</time>
      </trkpt>
      <trkpt lat="43.49594" lon="6.91886">
        <ele>201.05285644531</ele>
        <time>2011-02-20T10:58:14Z</time>
      </trkpt>
      <trkpt lat="43.49609" lon="6.91894">
        <ele>201.53356933594</ele>
        <time>2011-02-20T10:58:25Z</time>
      </trkpt>
      <trkpt lat="43.49612" lon="6.91897">
        <ele>202.49487304688</ele>
        <time>2011-02-20T10:58:29Z</time>
      </trkpt>
      <trkpt lat="43.49626" lon="6.91911">
        <ele>203.93688964844</ele>
        <time>2011-02-20T10:58:42Z</time>
      </trkpt>
      <trkpt lat="43.4964" lon="6.91933">
        <ele>205.37878417969</ele>
        <time>2011-02-20T10:58:56Z</time>
      </trkpt>
      <trkpt lat="43.49664" lon="6.91971">
        <ele>207.78210449219</ele>
        <time>2011-02-20T10:59:14Z</time>
      </trkpt>
      <trkpt lat="43.49677" lon="6.91989">
        <ele>209.70483398438</ele>
        <time>2011-02-20T10:59:24Z</time>
      </trkpt>
      <trkpt lat="43.49685" lon="6.92001">
        <ele>210.18542480469</ele>
        <time>2011-02-20T10:59:34Z</time>
      </trkpt>
      <trkpt lat="43.497" lon="6.92022">
        <ele>213.0693359375</ele>
        <time>2011-02-20T10:59:48Z</time>
      </trkpt>
      <trkpt lat="43.49701" lon="6.92023">
        <ele>213.0693359375</ele>
        <time>2011-02-20T10:59:49Z</time>
      </trkpt>
      <trkpt lat="43.49713" lon="6.92051">
        <ele>215.47265625</ele>
        <time>2011-02-20T11:00:04Z</time>
      </trkpt>
      <trkpt lat="43.49716" lon="6.92071">
        <ele>215.95324707031</ele>
        <time>2011-02-20T11:00:14Z</time>
      </trkpt>
      <trkpt lat="43.49718" lon="6.92103">
        <ele>216.43395996094</ele>
        <time>2011-02-20T11:00:28Z</time>
      </trkpt>
      <trkpt lat="43.49725" lon="6.92143">
        <ele>217.39538574219</ele>
        <time>2011-02-20T11:00:44Z</time>
      </trkpt>
      <trkpt lat="43.49737" lon="6.92172">
        <ele>220.75988769531</ele>
        <time>2011-02-20T11:00:57Z</time>
      </trkpt>
      <trkpt lat="43.49752" lon="6.92201">
        <ele>223.64379882812</ele>
        <time>2011-02-20T11:01:10Z</time>
      </trkpt>
      <trkpt lat="43.49755" lon="6.92205">
        <ele>224.12451171875</ele>
        <time>2011-02-20T11:01:12Z</time>
      </trkpt>
      <trkpt lat="43.49761" lon="6.92212">
        <ele>224.60522460938</ele>
        <time>2011-02-20T11:01:17Z</time>
      </trkpt>
      <trkpt lat="43.49792" lon="6.92225">
        <ele>227.9697265625</ele>
        <time>2011-02-20T11:01:33Z</time>
      </trkpt>
      <trkpt lat="43.49794" lon="6.92225">
        <ele>227.9697265625</ele>
        <time>2011-02-20T11:01:34Z</time>
      </trkpt>
      <trkpt lat="43.49797" lon="6.9222">
        <ele>228.93115234375</ele>
        <time>2011-02-20T11:01:41Z</time>
      </trkpt>
      <trkpt lat="43.49794" lon="6.92217">
        <ele>230.85375976562</ele>
        <time>2011-02-20T11:01:47Z</time>
      </trkpt>
      <trkpt lat="43.49791" lon="6.92217">
        <ele>231.33435058594</ele>
        <time>2011-02-20T11:02:04Z</time>
      </trkpt>
      <trkpt lat="43.49791" lon="6.92217">
        <ele>231.81494140625</ele>
        <time>2011-02-20T11:02:45Z</time>
      </trkpt>
      <trkpt lat="43.49791" lon="6.92217">
        <ele>230.85375976562</ele>
        <time>2011-02-20T11:03:04Z</time>
      </trkpt>
      <trkpt lat="43.4979" lon="6.92217">
        <ele>229.89233398438</ele>
        <time>2011-02-20T11:03:48Z</time>
      </trkpt>
      <trkpt lat="43.4979" lon="6.92217">
        <ele>229.89233398438</ele>
        <time>2011-02-20T11:04:11Z</time>
      </trkpt>
      <trkpt lat="43.4979" lon="6.92217">
        <ele>230.373046875</ele>
        <time>2011-02-20T11:04:40Z</time>
      </trkpt>
      <trkpt lat="43.4979" lon="6.92216">
        <ele>230.85375976562</ele>
        <time>2011-02-20T11:05:16Z</time>
      </trkpt>
      <trkpt lat="43.49791" lon="6.92216">
        <ele>231.33435058594</ele>
        <time>2011-02-20T11:05:51Z</time>
      </trkpt>
      <trkpt lat="43.4979" lon="6.92216">
        <ele>231.81494140625</ele>
        <time>2011-02-20T11:06:17Z</time>
      </trkpt>
      <trkpt lat="43.4979" lon="6.92216">
        <ele>231.81494140625</ele>
        <time>2011-02-20T11:06:44Z</time>
      </trkpt>
      <trkpt lat="43.4979" lon="6.92216">
        <ele>232.77648925781</ele>
        <time>2011-02-20T11:07:13Z</time>
      </trkpt>
      <trkpt lat="43.4979" lon="6.92216">
        <ele>233.25708007812</ele>
        <time>2011-02-20T11:07:42Z</time>
      </trkpt>
      <trkpt lat="43.4979" lon="6.92216">
        <ele>233.25708007812</ele>
        <time>2011-02-20T11:08:09Z</time>
      </trkpt>
      <trkpt lat="43.4979" lon="6.92216">
        <ele>233.73767089844</ele>
        <time>2011-02-20T11:08:37Z</time>
      </trkpt>
      <trkpt lat="43.4979" lon="6.92217">
        <ele>234.21838378906</ele>
        <time>2011-02-20T11:08:59Z</time>
      </trkpt>
      <trkpt lat="43.4979" lon="6.92217">
        <ele>234.21838378906</ele>
        <time>2011-02-20T11:09:30Z</time>
      </trkpt>
      <trkpt lat="43.4979" lon="6.92217">
        <ele>234.69909667969</ele>
        <time>2011-02-20T11:10:02Z</time>
      </trkpt>
      <trkpt lat="43.4979" lon="6.92217">
        <ele>235.1796875</ele>
        <time>2011-02-20T11:10:45Z</time>
      </trkpt>
      <trkpt lat="43.4979" lon="6.92217">
        <ele>236.14099121094</ele>
        <time>2011-02-20T11:11:15Z</time>
      </trkpt>
      <trkpt lat="43.4979" lon="6.92217">
        <ele>236.62170410156</ele>
        <time>2011-02-20T11:11:52Z</time>
      </trkpt>
      <trkpt lat="43.4979" lon="6.92217">
        <ele>236.62170410156</ele>
        <time>2011-02-20T11:12:23Z</time>
      </trkpt>
      <trkpt lat="43.49792" lon="6.92215">
        <ele>240.46704101562</ele>
        <time>2011-02-20T11:25:34Z</time>
      </trkpt>
      <trkpt lat="43.49793" lon="6.92216">
        <ele>239.02490234375</ele>
        <time>2011-02-20T11:25:46Z</time>
      </trkpt>
      <trkpt lat="43.49799" lon="6.92221">
        <ele>236.14099121094</ele>
        <time>2011-02-20T11:25:50Z</time>
      </trkpt>
      <trkpt lat="43.49807" lon="6.92223">
        <ele>235.1796875</ele>
        <time>2011-02-20T11:25:54Z</time>
      </trkpt>
      <trkpt lat="43.49832" lon="6.9222">
        <ele>235.66027832031</ele>
        <time>2011-02-20T11:26:08Z</time>
      </trkpt>
      <trkpt lat="43.49854" lon="6.92239">
        <ele>238.06359863281</ele>
        <time>2011-02-20T11:26:22Z</time>
      </trkpt>
      <trkpt lat="43.49861" lon="6.92247">
        <ele>239.98620605469</ele>
        <time>2011-02-20T11:26:28Z</time>
      </trkpt>
      <trkpt lat="43.49872" lon="6.92244">
        <ele>242.3896484375</ele>
        <time>2011-02-20T11:26:37Z</time>
      </trkpt>
      <trkpt lat="43.49872" lon="6.9224">
        <ele>242.3896484375</ele>
        <time>2011-02-20T11:26:40Z</time>
      </trkpt>
      <trkpt lat="43.49875" lon="6.92236">
        <ele>242.3896484375</ele>
        <time>2011-02-20T11:26:44Z</time>
      </trkpt>
      <trkpt lat="43.49877" lon="6.9223">
        <ele>242.3896484375</ele>
        <time>2011-02-20T11:26:48Z</time>
      </trkpt>
      <trkpt lat="43.49891" lon="6.92218">
        <ele>244.31225585938</ele>
        <time>2011-02-20T11:27:02Z</time>
      </trkpt>
      <trkpt lat="43.4991" lon="6.92209">
        <ele>247.19604492188</ele>
        <time>2011-02-20T11:27:16Z</time>
      </trkpt>
      <trkpt lat="43.49931" lon="6.92195">
        <ele>250.56079101562</ele>
        <time>2011-02-20T11:27:34Z</time>
      </trkpt>
      <trkpt lat="43.4995" lon="6.92183">
        <ele>252.96398925781</ele>
        <time>2011-02-20T11:27:48Z</time>
      </trkpt>
      <trkpt lat="43.49953" lon="6.92179">
        <ele>252.96398925781</ele>
        <time>2011-02-20T11:27:51Z</time>
      </trkpt>
      <trkpt lat="43.49959" lon="6.92175">
        <ele>253.44470214844</ele>
        <time>2011-02-20T11:27:55Z</time>
      </trkpt>
      <trkpt lat="43.49965" lon="6.92176">
        <ele>254.88659667969</ele>
        <time>2011-02-20T11:28:01Z</time>
      </trkpt>
      <trkpt lat="43.49967" lon="6.92182">
        <ele>254.88659667969</ele>
        <time>2011-02-20T11:28:07Z</time>
      </trkpt>
      <trkpt lat="43.49959" lon="6.92201">
        <ele>255.84802246094</ele>
        <time>2011-02-20T11:28:19Z</time>
      </trkpt>
      <trkpt lat="43.49957" lon="6.92205">
        <ele>256.32873535156</ele>
        <time>2011-02-20T11:28:21Z</time>
      </trkpt>
      <trkpt lat="43.49954" lon="6.92212">
        <ele>258.25134277344</ele>
        <time>2011-02-20T11:28:32Z</time>
      </trkpt>
      <trkpt lat="43.49955" lon="6.92227">
        <ele>263.05786132812</ele>
        <time>2011-02-20T11:28:46Z</time>
      </trkpt>
      <trkpt lat="43.49955" lon="6.92231">
        <ele>263.05786132812</ele>
        <time>2011-02-20T11:28:58Z</time>
      </trkpt>
      <trkpt lat="43.49956" lon="6.92237">
        <ele>262.09655761719</ele>
        <time>2011-02-20T11:29:09Z</time>
      </trkpt>
      <trkpt lat="43.49956" lon="6.92243">
        <ele>264.98059082031</ele>
        <time>2011-02-20T11:29:20Z</time>
      </trkpt>
      <trkpt lat="43.49956" lon="6.92251">
        <ele>268.34509277344</ele>
        <time>2011-02-20T11:29:31Z</time>
      </trkpt>
      <trkpt lat="43.49955" lon="6.92256">
        <ele>269.787109375</ele>
        <time>2011-02-20T11:29:37Z</time>
      </trkpt>
      <trkpt lat="43.49954" lon="6.92265">
        <ele>272.1904296875</ele>
        <time>2011-02-20T11:29:48Z</time>
      </trkpt>
      <trkpt lat="43.49952" lon="6.92267">
        <ele>273.63244628906</ele>
        <time>2011-02-20T11:29:59Z</time>
      </trkpt>
      <trkpt lat="43.49952" lon="6.92277">
        <ele>275.07446289062</ele>
        <time>2011-02-20T11:30:10Z</time>
      </trkpt>
      <trkpt lat="43.49956" lon="6.92291">
        <ele>275.55505371094</ele>
        <time>2011-02-20T11:30:24Z</time>
      </trkpt>
      <trkpt lat="43.4996" lon="6.92306">
        <ele>277.95825195312</ele>
        <time>2011-02-20T11:30:37Z</time>
      </trkpt>
      <trkpt lat="43.49959" lon="6.92313">
        <ele>279.880859375</ele>
        <time>2011-02-20T11:30:47Z</time>
      </trkpt>
      <trkpt lat="43.49959" lon="6.92315">
        <ele>280.36169433594</ele>
        <time>2011-02-20T11:30:50Z</time>
      </trkpt>
      <trkpt lat="43.49961" lon="6.92331">
        <ele>282.28430175781</ele>
        <time>2011-02-20T11:31:05Z</time>
      </trkpt>
      <trkpt lat="43.49961" lon="6.92332">
        <ele>282.76501464844</ele>
        <time>2011-02-20T11:31:06Z</time>
      </trkpt>
      <trkpt lat="43.49961" lon="6.92339">
        <ele>282.76501464844</ele>
        <time>2011-02-20T11:31:12Z</time>
      </trkpt>
      <trkpt lat="43.49961" lon="6.9235">
        <ele>284.68762207031</ele>
        <time>2011-02-20T11:31:24Z</time>
      </trkpt>
      <trkpt lat="43.49962" lon="6.92363">
        <ele>287.0908203125</ele>
        <time>2011-02-20T11:31:35Z</time>
      </trkpt>
      <trkpt lat="43.49961" lon="6.92367">
        <ele>287.0908203125</ele>
        <time>2011-02-20T11:31:45Z</time>
      </trkpt>
      <trkpt lat="43.49961" lon="6.92369">
        <ele>287.57141113281</ele>
        <time>2011-02-20T11:31:57Z</time>
      </trkpt>
      <trkpt lat="43.49961" lon="6.92369">
        <ele>287.57141113281</ele>
        <time>2011-02-20T11:32:35Z</time>
      </trkpt>
      <trkpt lat="43.49962" lon="6.9237">
        <ele>287.57141113281</ele>
        <time>2011-02-20T11:32:56Z</time>
      </trkpt>
      <trkpt lat="43.49961" lon="6.92372">
        <ele>286.61022949219</ele>
        <time>2011-02-20T11:33:58Z</time>
      </trkpt>
      <trkpt lat="43.49961" lon="6.92372">
        <ele>286.61022949219</ele>
        <time>2011-02-20T11:34:23Z</time>
      </trkpt>
      <trkpt lat="43.49961" lon="6.92373">
        <ele>285.64880371094</ele>
        <time>2011-02-20T11:35:00Z</time>
      </trkpt>
      <trkpt lat="43.49962" lon="6.92374">
        <ele>285.16821289062</ele>
        <time>2011-02-20T11:35:58Z</time>
      </trkpt>
      <trkpt lat="43.49962" lon="6.92374">
        <ele>284.68762207031</ele>
        <time>2011-02-20T11:37:29Z</time>
      </trkpt>
      <trkpt lat="43.49962" lon="6.92374">
        <ele>284.20690917969</ele>
        <time>2011-02-20T11:37:53Z</time>
      </trkpt>
      <trkpt lat="43.49961" lon="6.92375">
        <ele>283.72619628906</ele>
        <time>2011-02-20T11:38:39Z</time>
      </trkpt>
      <trkpt lat="43.49961" lon="6.92374">
        <ele>283.24560546875</ele>
        <time>2011-02-20T11:39:35Z</time>
      </trkpt>
      <trkpt lat="43.49961" lon="6.92375">
        <ele>283.24560546875</ele>
        <time>2011-02-20T11:42:05Z</time>
      </trkpt>
      <trkpt lat="43.49962" lon="6.92375">
        <ele>283.72619628906</ele>
        <time>2011-02-20T11:42:36Z</time>
      </trkpt>
      <trkpt lat="43.49962" lon="6.92374">
        <ele>283.72619628906</ele>
        <time>2011-02-20T11:43:11Z</time>
      </trkpt>
      <trkpt lat="43.49962" lon="6.92376">
        <ele>284.20690917969</ele>
        <time>2011-02-20T11:44:00Z</time>
      </trkpt>
      <trkpt lat="43.49966" lon="6.92384">
        <ele>285.16821289062</ele>
        <time>2011-02-20T11:44:04Z</time>
      </trkpt>
      <trkpt lat="43.49972" lon="6.92401">
        <ele>285.16821289062</ele>
        <time>2011-02-20T11:44:10Z</time>
      </trkpt>
      <trkpt lat="43.49974" lon="6.92402">
        <ele>284.68762207031</ele>
        <time>2011-02-20T11:44:12Z</time>
      </trkpt>
      <trkpt lat="43.49977" lon="6.92405">
        <ele>285.16821289062</ele>
        <time>2011-02-20T11:44:15Z</time>
      </trkpt>
      <trkpt lat="43.49982" lon="6.92413">
        <ele>286.61022949219</ele>
        <time>2011-02-20T11:44:28Z</time>
      </trkpt>
      <trkpt lat="43.49982" lon="6.92414">
        <ele>286.61022949219</ele>
        <time>2011-02-20T11:44:39Z</time>
      </trkpt>
      <trkpt lat="43.49984" lon="6.92415">
        <ele>286.61022949219</ele>
        <time>2011-02-20T11:44:41Z</time>
      </trkpt>
      <trkpt lat="43.49986" lon="6.92425">
        <ele>289.494140625</ele>
        <time>2011-02-20T11:44:53Z</time>
      </trkpt>
      <trkpt lat="43.49987" lon="6.92429">
        <ele>289.494140625</ele>
        <time>2011-02-20T11:45:06Z</time>
      </trkpt>
      <trkpt lat="43.49992" lon="6.92429">
        <ele>288.53295898438</ele>
        <time>2011-02-20T11:45:10Z</time>
      </trkpt>
      <trkpt lat="43.50003" lon="6.92444">
        <ele>287.0908203125</ele>
        <time>2011-02-20T11:45:20Z</time>
      </trkpt>
      <trkpt lat="43.50004" lon="6.92444">
        <ele>287.57141113281</ele>
        <time>2011-02-20T11:45:40Z</time>
      </trkpt>
      <trkpt lat="43.50006" lon="6.92446">
        <ele>288.05224609375</ele>
        <time>2011-02-20T11:45:42Z</time>
      </trkpt>
      <trkpt lat="43.50009" lon="6.92449">
        <ele>288.53295898438</ele>
        <time>2011-02-20T11:45:47Z</time>
      </trkpt>
      <trkpt lat="43.50011" lon="6.92453">
        <ele>288.53295898438</ele>
        <time>2011-02-20T11:45:52Z</time>
      </trkpt>
      <trkpt lat="43.50014" lon="6.92462">
        <ele>290.45556640625</ele>
        <time>2011-02-20T11:46:02Z</time>
      </trkpt>
      <trkpt lat="43.50014" lon="6.92466">
        <ele>290.93615722656</ele>
        <time>2011-02-20T11:46:12Z</time>
      </trkpt>
      <trkpt lat="43.50014" lon="6.92477">
        <ele>292.37817382812</ele>
        <time>2011-02-20T11:46:22Z</time>
      </trkpt>
      <trkpt lat="43.50013" lon="6.92486">
        <ele>293.82006835938</ele>
        <time>2011-02-20T11:46:32Z</time>
      </trkpt>
      <trkpt lat="43.5001" lon="6.92488">
        <ele>294.30078125</ele>
        <time>2011-02-20T11:46:45Z</time>
      </trkpt>
      <trkpt lat="43.50009" lon="6.92488">
        <ele>294.78137207031</ele>
        <time>2011-02-20T11:46:47Z</time>
      </trkpt>
      <trkpt lat="43.50004" lon="6.92492">
        <ele>296.7041015625</ele>
        <time>2011-02-20T11:46:56Z</time>
      </trkpt>
      <trkpt lat="43.50003" lon="6.92491">
        <ele>296.22351074219</ele>
        <time>2011-02-20T11:47:20Z</time>
      </trkpt>
      <trkpt lat="43.50003" lon="6.92491">
        <ele>296.22351074219</ele>
        <time>2011-02-20T11:47:54Z</time>
      </trkpt>
      <trkpt lat="43.50002" lon="6.92492">
        <ele>296.22351074219</ele>
        <time>2011-02-20T11:48:38Z</time>
      </trkpt>
      <trkpt lat="43.50003" lon="6.92492">
        <ele>295.74267578125</ele>
        <time>2011-02-20T11:49:24Z</time>
      </trkpt>
      <trkpt lat="43.50003" lon="6.92493">
        <ele>295.26196289062</ele>
        <time>2011-02-20T11:49:54Z</time>
      </trkpt>
      <trkpt lat="43.50003" lon="6.92493">
        <ele>295.26196289062</ele>
        <time>2011-02-20T11:50:14Z</time>
      </trkpt>
      <trkpt lat="43.50003" lon="6.92493">
        <ele>295.26196289062</ele>
        <time>2011-02-20T11:50:43Z</time>
      </trkpt>
      <trkpt lat="43.50003" lon="6.92493">
        <ele>295.26196289062</ele>
        <time>2011-02-20T11:51:34Z</time>
      </trkpt>
      <trkpt lat="43.50002" lon="6.925">
        <ele>295.26196289062</ele>
        <time>2011-02-20T11:51:38Z</time>
      </trkpt>
      <trkpt lat="43.50008" lon="6.92527">
        <ele>292.37817382812</ele>
        <time>2011-02-20T11:51:47Z</time>
      </trkpt>
      <trkpt lat="43.50013" lon="6.92552">
        <ele>288.05224609375</ele>
        <time>2011-02-20T11:51:57Z</time>
      </trkpt>
      <trkpt lat="43.50013" lon="6.92562">
        <ele>285.64880371094</ele>
        <time>2011-02-20T11:52:00Z</time>
      </trkpt>
      <trkpt lat="43.50028" lon="6.92588">
        <ele>282.76501464844</ele>
        <time>2011-02-20T11:52:07Z</time>
      </trkpt>
      <trkpt lat="43.50032" lon="6.92599">
        <ele>281.80358886719</ele>
        <time>2011-02-20T11:52:10Z</time>
      </trkpt>
      <trkpt lat="43.50033" lon="6.92608">
        <ele>280.84240722656</ele>
        <time>2011-02-20T11:52:15Z</time>
      </trkpt>
      <trkpt lat="43.50039" lon="6.92632">
        <ele>276.9970703125</ele>
        <time>2011-02-20T11:52:24Z</time>
      </trkpt>
      <trkpt lat="43.50047" lon="6.92649">
        <ele>273.15185546875</ele>
        <time>2011-02-20T11:52:29Z</time>
      </trkpt>
      <trkpt lat="43.50057" lon="6.92673">
        <ele>269.787109375</ele>
        <time>2011-02-20T11:52:35Z</time>
      </trkpt>
      <trkpt lat="43.5006" lon="6.92683">
        <ele>270.26770019531</ele>
        <time>2011-02-20T11:52:38Z</time>
      </trkpt>
      <trkpt lat="43.50071" lon="6.92703">
        <ele>267.86450195312</ele>
        <time>2011-02-20T11:52:45Z</time>
      </trkpt>
      <trkpt lat="43.50073" lon="6.92722">
        <ele>264.98059082031</ele>
        <time>2011-02-20T11:52:53Z</time>
      </trkpt>
      <trkpt lat="43.50086" lon="6.92744">
        <ele>261.61596679688</ele>
        <time>2011-02-20T11:53:01Z</time>
      </trkpt>
      <trkpt lat="43.50087" lon="6.92748">
        <ele>260.65454101562</ele>
        <time>2011-02-20T11:53:03Z</time>
      </trkpt>
      <trkpt lat="43.50096" lon="6.92769">
        <ele>256.80932617188</ele>
        <time>2011-02-20T11:53:09Z</time>
      </trkpt>
      <trkpt lat="43.50103" lon="6.92779">
        <ele>255.84802246094</ele>
        <time>2011-02-20T11:53:11Z</time>
      </trkpt>
      <trkpt lat="43.50107" lon="6.92788">
        <ele>254.88659667969</ele>
        <time>2011-02-20T11:53:13Z</time>
      </trkpt>
      <trkpt lat="43.50111" lon="6.92829">
        <ele>252.4833984375</ele>
        <time>2011-02-20T11:53:21Z</time>
      </trkpt>
      <trkpt lat="43.50112" lon="6.92843">
        <ele>252.96398925781</ele>
        <time>2011-02-20T11:53:26Z</time>
      </trkpt>
      <trkpt lat="43.50115" lon="6.92863">
        <ele>255.84802246094</ele>
        <time>2011-02-20T11:53:34Z</time>
      </trkpt>
      <trkpt lat="43.50113" lon="6.9287">
        <ele>257.2900390625</ele>
        <time>2011-02-20T11:53:43Z</time>
      </trkpt>
      <trkpt lat="43.50111" lon="6.92888">
        <ele>257.2900390625</ele>
        <time>2011-02-20T11:53:49Z</time>
      </trkpt>
      <trkpt lat="43.50115" lon="6.92905">
        <ele>256.32873535156</ele>
        <time>2011-02-20T11:53:53Z</time>
      </trkpt>
      <trkpt lat="43.5012" lon="6.92938">
        <ele>255.84802246094</ele>
        <time>2011-02-20T11:54:02Z</time>
      </trkpt>
      <trkpt lat="43.50122" lon="6.92946">
        <ele>255.36730957031</ele>
        <time>2011-02-20T11:54:04Z</time>
      </trkpt>
      <trkpt lat="43.50126" lon="6.92977">
        <ele>253.92541503906</ele>
        <time>2011-02-20T11:54:12Z</time>
      </trkpt>
      <trkpt lat="43.50129" lon="6.92985">
        <ele>252.4833984375</ele>
        <time>2011-02-20T11:54:19Z</time>
      </trkpt>
      <trkpt lat="43.50129" lon="6.92985">
        <ele>252.4833984375</ele>
        <time>2011-02-20T11:54:35Z</time>
      </trkpt>
      <trkpt lat="43.5013" lon="6.93">
        <ele>250.08020019531</ele>
        <time>2011-02-20T11:54:45Z</time>
      </trkpt>
      <trkpt lat="43.50129" lon="6.93001">
        <ele>250.08020019531</ele>
        <time>2011-02-20T11:54:57Z</time>
      </trkpt>
      <trkpt lat="43.50129" lon="6.93002">
        <ele>250.56079101562</ele>
        <time>2011-02-20T11:55:30Z</time>
      </trkpt>
      <trkpt lat="43.50129" lon="6.93003">
        <ele>251.04138183594</ele>
        <time>2011-02-20T11:55:47Z</time>
      </trkpt>
      <trkpt lat="43.50124" lon="6.93007">
        <ele>250.08020019531</ele>
        <time>2011-02-20T11:55:54Z</time>
      </trkpt>
      <trkpt lat="43.50121" lon="6.93009">
        <ele>247.6767578125</ele>
        <time>2011-02-20T11:56:00Z</time>
      </trkpt>
      <trkpt lat="43.5012" lon="6.93006">
        <ele>246.23486328125</ele>
        <time>2011-02-20T11:56:15Z</time>
      </trkpt>
      <trkpt lat="43.50119" lon="6.93008">
        <ele>246.23486328125</ele>
        <time>2011-02-20T11:56:27Z</time>
      </trkpt>
      <trkpt lat="43.50118" lon="6.9301">
        <ele>247.19604492188</ele>
        <time>2011-02-20T11:56:39Z</time>
      </trkpt>
      <trkpt lat="43.50113" lon="6.93015">
        <ele>245.2734375</ele>
        <time>2011-02-20T11:56:51Z</time>
      </trkpt>
      <trkpt lat="43.50111" lon="6.93017">
        <ele>244.79284667969</ele>
        <time>2011-02-20T11:57:03Z</time>
      </trkpt>
      <trkpt lat="43.50111" lon="6.93017">
        <ele>244.79284667969</ele>
        <time>2011-02-20T11:57:04Z</time>
      </trkpt>
      <trkpt lat="43.5011" lon="6.93017">
        <ele>244.31225585938</ele>
        <time>2011-02-20T11:57:06Z</time>
      </trkpt>
      <trkpt lat="43.50107" lon="6.93021">
        <ele>243.83154296875</ele>
        <time>2011-02-20T11:57:21Z</time>
      </trkpt>
      <trkpt lat="43.50107" lon="6.93022">
        <ele>243.35083007812</ele>
        <time>2011-02-20T11:57:36Z</time>
      </trkpt>
      <trkpt lat="43.50108" lon="6.93025">
        <ele>242.87023925781</ele>
        <time>2011-02-20T11:57:54Z</time>
      </trkpt>
      <trkpt lat="43.50108" lon="6.93025">
        <ele>242.87023925781</ele>
        <time>2011-02-20T11:58:24Z</time>
      </trkpt>
      <trkpt lat="43.50108" lon="6.93025">
        <ele>242.3896484375</ele>
        <time>2011-02-20T11:58:37Z</time>
      </trkpt>
      <trkpt lat="43.50109" lon="6.93028">
        <ele>241.90893554688</ele>
        <time>2011-02-20T11:58:39Z</time>
      </trkpt>
      <trkpt lat="43.50107" lon="6.93031">
        <ele>240.94763183594</ele>
        <time>2011-02-20T11:58:41Z</time>
      </trkpt>
      <trkpt lat="43.50106" lon="6.93032">
        <ele>240.46704101562</ele>
        <time>2011-02-20T11:58:53Z</time>
      </trkpt>
      <trkpt lat="43.50106" lon="6.93031">
        <ele>239.02490234375</ele>
        <time>2011-02-20T12:00:26Z</time>
      </trkpt>
      <trkpt lat="43.50106" lon="6.93049">
        <ele>235.66027832031</ele>
        <time>2011-02-20T12:00:33Z</time>
      </trkpt>
      <trkpt lat="43.50104" lon="6.93071">
        <ele>231.81494140625</ele>
        <time>2011-02-20T12:00:39Z</time>
      </trkpt>
      <trkpt lat="43.50095" lon="6.93088">
        <ele>226.04711914062</ele>
        <time>2011-02-20T12:00:47Z</time>
      </trkpt>
      <trkpt lat="43.50103" lon="6.93111">
        <ele>222.20178222656</ele>
        <time>2011-02-20T12:00:56Z</time>
      </trkpt>
      <trkpt lat="43.50108" lon="6.9311">
        <ele>221.72119140625</ele>
        <time>2011-02-20T12:01:00Z</time>
      </trkpt>
      <trkpt lat="43.50112" lon="6.93117">
        <ele>219.31799316406</ele>
        <time>2011-02-20T12:01:09Z</time>
      </trkpt>
      <trkpt lat="43.50112" lon="6.93117">
        <ele>219.31799316406</ele>
        <time>2011-02-20T12:01:19Z</time>
      </trkpt>
      <trkpt lat="43.50124" lon="6.93123">
        <ele>214.03063964844</ele>
        <time>2011-02-20T12:01:27Z</time>
      </trkpt>
      <trkpt lat="43.50125" lon="6.93134">
        <ele>208.74340820312</ele>
        <time>2011-02-20T12:01:32Z</time>
      </trkpt>
      <trkpt lat="43.5013" lon="6.93151">
        <ele>201.05285644531</ele>
        <time>2011-02-20T12:01:40Z</time>
      </trkpt>
      <trkpt lat="43.50131" lon="6.93167">
        <ele>196.72692871094</ele>
        <time>2011-02-20T12:01:49Z</time>
      </trkpt>
      <trkpt lat="43.50131" lon="6.93168">
        <ele>197.20751953125</ele>
        <time>2011-02-20T12:02:07Z</time>
      </trkpt>
      <trkpt lat="43.50131" lon="6.93168">
        <ele>197.20751953125</ele>
        <time>2011-02-20T12:02:44Z</time>
      </trkpt>
      <trkpt lat="43.5013" lon="6.93169">
        <ele>198.1689453125</ele>
        <time>2011-02-20T12:03:52Z</time>
      </trkpt>
      <trkpt lat="43.50129" lon="6.93168">
        <ele>197.68823242188</ele>
        <time>2011-02-20T12:04:04Z</time>
      </trkpt>
      <trkpt lat="43.50128" lon="6.93167">
        <ele>198.64953613281</ele>
        <time>2011-02-20T12:04:29Z</time>
      </trkpt>
      <trkpt lat="43.50129" lon="6.93167">
        <ele>198.64953613281</ele>
        <time>2011-02-20T12:05:10Z</time>
      </trkpt>
      <trkpt lat="43.50129" lon="6.93168">
        <ele>198.1689453125</ele>
        <time>2011-02-20T12:05:57Z</time>
      </trkpt>
      <trkpt lat="43.50138" lon="6.93171">
        <ele>196.72692871094</ele>
        <time>2011-02-20T12:06:02Z</time>
      </trkpt>
      <trkpt lat="43.50139" lon="6.93179">
        <ele>195.28491210938</ele>
        <time>2011-02-20T12:06:04Z</time>
      </trkpt>
      <trkpt lat="43.50143" lon="6.93191">
        <ele>192.40112304688</ele>
        <time>2011-02-20T12:06:08Z</time>
      </trkpt>
      <trkpt lat="43.50153" lon="6.93202">
        <ele>189.03637695312</ele>
        <time>2011-02-20T12:06:15Z</time>
      </trkpt>
      <trkpt lat="43.50153" lon="6.93208">
        <ele>187.59436035156</ele>
        <time>2011-02-20T12:06:17Z</time>
      </trkpt>
      <trkpt lat="43.50164" lon="6.93232">
        <ele>183.26843261719</ele>
        <time>2011-02-20T12:06:24Z</time>
      </trkpt>
      <trkpt lat="43.50177" lon="6.93251">
        <ele>180.865234375</ele>
        <time>2011-02-20T12:06:29Z</time>
      </trkpt>
      <trkpt lat="43.50195" lon="6.93272">
        <ele>174.13586425781</ele>
        <time>2011-02-20T12:06:39Z</time>
      </trkpt>
      <trkpt lat="43.50207" lon="6.93291">
        <ele>170.29064941406</ele>
        <time>2011-02-20T12:06:47Z</time>
      </trkpt>
      <trkpt lat="43.50217" lon="6.93295">
        <ele>167.88732910156</ele>
        <time>2011-02-20T12:06:54Z</time>
      </trkpt>
      <trkpt lat="43.5022" lon="6.93299">
        <ele>166.4453125</ele>
        <time>2011-02-20T12:06:59Z</time>
      </trkpt>
      <trkpt lat="43.50223" lon="6.9331">
        <ele>165.00341796875</ele>
        <time>2011-02-20T12:07:08Z</time>
      </trkpt>
      <trkpt lat="43.50223" lon="6.9331">
        <ele>165.00341796875</ele>
        <time>2011-02-20T12:07:23Z</time>
      </trkpt>
      <trkpt lat="43.50235" lon="6.93312">
        <ele>162.11950683594</ele>
        <time>2011-02-20T12:07:31Z</time>
      </trkpt>
      <trkpt lat="43.50232" lon="6.93322">
        <ele>160.67749023438</ele>
        <time>2011-02-20T12:07:34Z</time>
      </trkpt>
      <trkpt lat="43.50228" lon="6.93331">
        <ele>155.39025878906</ele>
        <time>2011-02-20T12:07:45Z</time>
      </trkpt>
      <trkpt lat="43.50227" lon="6.93332">
        <ele>155.39025878906</ele>
        <time>2011-02-20T12:08:06Z</time>
      </trkpt>
      <trkpt lat="43.50228" lon="6.93332">
        <ele>154.90954589844</ele>
        <time>2011-02-20T12:08:40Z</time>
      </trkpt>
      <trkpt lat="43.50218" lon="6.93336">
        <ele>153.94836425781</ele>
        <time>2011-02-20T12:08:47Z</time>
      </trkpt>
      <trkpt lat="43.50204" lon="6.93339">
        <ele>148.18041992188</ele>
        <time>2011-02-20T12:08:56Z</time>
      </trkpt>
      <trkpt lat="43.50201" lon="6.93335">
        <ele>147.69970703125</ele>
        <time>2011-02-20T12:09:00Z</time>
      </trkpt>
      <trkpt lat="43.5018" lon="6.93346">
        <ele>146.73840332031</ele>
        <time>2011-02-20T12:09:10Z</time>
      </trkpt>
      <trkpt lat="43.50174" lon="6.93352">
        <ele>145.77709960938</ele>
        <time>2011-02-20T12:09:13Z</time>
      </trkpt>
      <trkpt lat="43.50171" lon="6.93379">
        <ele>136.16394042969</ele>
        <time>2011-02-20T12:09:23Z</time>
      </trkpt>
      <trkpt lat="43.50171" lon="6.93379">
        <ele>135.68310546875</ele>
        <time>2011-02-20T12:09:43Z</time>
      </trkpt>
      <trkpt lat="43.50172" lon="6.93378">
        <ele>135.68310546875</ele>
        <time>2011-02-20T12:11:21Z</time>
      </trkpt>
      <trkpt lat="43.50161" lon="6.93365">
        <ele>136.64465332031</ele>
        <time>2011-02-20T12:11:32Z</time>
      </trkpt>
      <trkpt lat="43.50161" lon="6.93365">
        <ele>137.12524414062</ele>
        <time>2011-02-20T12:12:11Z</time>
      </trkpt>
      <trkpt lat="43.50161" lon="6.93365">
        <ele>137.60583496094</ele>
        <time>2011-02-20T12:13:46Z</time>
      </trkpt>
      <trkpt lat="43.50161" lon="6.93366">
        <ele>137.60583496094</ele>
        <time>2011-02-20T12:14:24Z</time>
      </trkpt>
      <trkpt lat="43.50153" lon="6.93356">
        <ele>136.64465332031</ele>
        <time>2011-02-20T12:15:07Z</time>
      </trkpt>
      <trkpt lat="43.50138" lon="6.93338">
        <ele>137.12524414062</ele>
        <time>2011-02-20T12:15:12Z</time>
      </trkpt>
      <trkpt lat="43.50115" lon="6.93307">
        <ele>137.60583496094</ele>
        <time>2011-02-20T12:15:18Z</time>
      </trkpt>
      <trkpt lat="43.50079" lon="6.93301">
        <ele>139.0478515625</ele>
        <time>2011-02-20T12:15:28Z</time>
      </trkpt>
      <trkpt lat="43.50054" lon="6.93298">
        <ele>140.00915527344</ele>
        <time>2011-02-20T12:15:34Z</time>
      </trkpt>
      <trkpt lat="43.5003" lon="6.93285">
        <ele>141.45104980469</ele>
        <time>2011-02-20T12:15:39Z</time>
      </trkpt>
      <trkpt lat="43.50011" lon="6.9328">
        <ele>143.85437011719</ele>
        <time>2011-02-20T12:15:45Z</time>
      </trkpt>
      <trkpt lat="43.49994" lon="6.93275">
        <ele>145.77709960938</ele>
        <time>2011-02-20T12:15:55Z</time>
      </trkpt>
      <trkpt lat="43.49981" lon="6.93264">
        <ele>148.18041992188</ele>
        <time>2011-02-20T12:16:06Z</time>
      </trkpt>
      <trkpt lat="43.49977" lon="6.93256">
        <ele>149.1416015625</ele>
        <time>2011-02-20T12:16:11Z</time>
      </trkpt>
      <trkpt lat="43.49973" lon="6.93251">
        <ele>149.62231445312</ele>
        <time>2011-02-20T12:16:15Z</time>
      </trkpt>
      <trkpt lat="43.49973" lon="6.93247">
        <ele>150.58361816406</ele>
        <time>2011-02-20T12:16:17Z</time>
      </trkpt>
      <trkpt lat="43.49975" lon="6.93238">
        <ele>150.58361816406</ele>
        <time>2011-02-20T12:16:29Z</time>
      </trkpt>
      <trkpt lat="43.49977" lon="6.93236">
        <ele>150.10302734375</ele>
        <time>2011-02-20T12:16:40Z</time>
      </trkpt>
      <trkpt lat="43.49977" lon="6.93236">
        <ele>150.10302734375</ele>
        <time>2011-02-20T12:16:56Z</time>
      </trkpt>
      <trkpt lat="43.49979" lon="6.93217">
        <ele>150.10302734375</ele>
        <time>2011-02-20T12:17:05Z</time>
      </trkpt>
      <trkpt lat="43.49975" lon="6.93185">
        <ele>147.69970703125</ele>
        <time>2011-02-20T12:17:13Z</time>
      </trkpt>
      <trkpt lat="43.49974" lon="6.93179">
        <ele>147.21899414062</ele>
        <time>2011-02-20T12:17:16Z</time>
      </trkpt>
      <trkpt lat="43.49971" lon="6.93176">
        <ele>146.73840332031</ele>
        <time>2011-02-20T12:17:19Z</time>
      </trkpt>
      <trkpt lat="43.49956" lon="6.93136">
        <ele>143.85437011719</ele>
        <time>2011-02-20T12:17:29Z</time>
      </trkpt>
      <trkpt lat="43.49935" lon="6.93106">
        <ele>141.93176269531</ele>
        <time>2011-02-20T12:17:37Z</time>
      </trkpt>
      <trkpt lat="43.49921" lon="6.93064">
        <ele>138.08654785156</ele>
        <time>2011-02-20T12:17:45Z</time>
      </trkpt>
      <trkpt lat="43.49919" lon="6.93059">
        <ele>138.08654785156</ele>
        <time>2011-02-20T12:17:46Z</time>
      </trkpt>
      <trkpt lat="43.49916" lon="6.93046">
        <ele>137.12524414062</ele>
        <time>2011-02-20T12:17:48Z</time>
      </trkpt>
      <trkpt lat="43.49909" lon="6.93016">
        <ele>136.16394042969</ele>
        <time>2011-02-20T12:17:53Z</time>
      </trkpt>
      <trkpt lat="43.49901" lon="6.92969">
        <ele>134.72192382812</ele>
        <time>2011-02-20T12:17:59Z</time>
      </trkpt>
      <trkpt lat="43.49897" lon="6.92951">
        <ele>134.2412109375</ele>
        <time>2011-02-20T12:18:02Z</time>
      </trkpt>
      <trkpt lat="43.49891" lon="6.92939">
        <ele>134.2412109375</ele>
        <time>2011-02-20T12:18:06Z</time>
      </trkpt>
      <trkpt lat="43.49863" lon="6.92903">
        <ele>135.68310546875</ele>
        <time>2011-02-20T12:18:16Z</time>
      </trkpt>
      <trkpt lat="43.49844" lon="6.92862">
        <ele>137.12524414062</ele>
        <time>2011-02-20T12:18:27Z</time>
      </trkpt>
      <trkpt lat="43.49835" lon="6.92826">
        <ele>137.12524414062</ele>
        <time>2011-02-20T12:18:36Z</time>
      </trkpt>
      <trkpt lat="43.49816" lon="6.9279">
        <ele>137.12524414062</ele>
        <time>2011-02-20T12:18:45Z</time>
      </trkpt>
      <trkpt lat="43.49807" lon="6.92773">
        <ele>135.68310546875</ele>
        <time>2011-02-20T12:18:49Z</time>
      </trkpt>
      <trkpt lat="43.49786" lon="6.92745">
        <ele>137.12524414062</ele>
        <time>2011-02-20T12:18:59Z</time>
      </trkpt>
      <trkpt lat="43.49776" lon="6.92731">
        <ele>138.08654785156</ele>
        <time>2011-02-20T12:19:07Z</time>
      </trkpt>
      <trkpt lat="43.49774" lon="6.92724">
        <ele>138.56726074219</ele>
        <time>2011-02-20T12:19:10Z</time>
      </trkpt>
      <trkpt lat="43.49772" lon="6.92715">
        <ele>139.0478515625</ele>
        <time>2011-02-20T12:19:20Z</time>
      </trkpt>
      <trkpt lat="43.49771" lon="6.92706">
        <ele>140.97045898438</ele>
        <time>2011-02-20T12:19:26Z</time>
      </trkpt>
      <trkpt lat="43.49771" lon="6.92685">
        <ele>140.97045898438</ele>
        <time>2011-02-20T12:19:34Z</time>
      </trkpt>
      <trkpt lat="43.49756" lon="6.92651">
        <ele>141.93176269531</ele>
        <time>2011-02-20T12:19:46Z</time>
      </trkpt>
      <trkpt lat="43.49753" lon="6.92636">
        <ele>141.93176269531</ele>
        <time>2011-02-20T12:19:49Z</time>
      </trkpt>
      <trkpt lat="43.49743" lon="6.92623">
        <ele>140.48986816406</ele>
        <time>2011-02-20T12:19:54Z</time>
      </trkpt>
      <trkpt lat="43.4973" lon="6.92633">
        <ele>140.00915527344</ele>
        <time>2011-02-20T12:19:58Z</time>
      </trkpt>
      <trkpt lat="43.49702" lon="6.92615">
        <ele>138.56726074219</ele>
        <time>2011-02-20T12:20:06Z</time>
      </trkpt>
      <trkpt lat="43.49684" lon="6.92598">
        <ele>137.60583496094</ele>
        <time>2011-02-20T12:20:12Z</time>
      </trkpt>
      <trkpt lat="43.49676" lon="6.92594">
        <ele>137.12524414062</ele>
        <time>2011-02-20T12:20:14Z</time>
      </trkpt>
      <trkpt lat="43.49665" lon="6.92578">
        <ele>136.64465332031</ele>
        <time>2011-02-20T12:20:18Z</time>
      </trkpt>
      <trkpt lat="43.49643" lon="6.92535">
        <ele>134.72192382812</ele>
        <time>2011-02-20T12:20:26Z</time>
      </trkpt>
      <trkpt lat="43.49633" lon="6.92505">
        <ele>130.87670898438</ele>
        <time>2011-02-20T12:20:31Z</time>
      </trkpt>
      <trkpt lat="43.49623" lon="6.92467">
        <ele>127.03137207031</ele>
        <time>2011-02-20T12:20:37Z</time>
      </trkpt>
      <trkpt lat="43.49623" lon="6.92449">
        <ele>125.10876464844</ele>
        <time>2011-02-20T12:20:45Z</time>
      </trkpt>
      <trkpt lat="43.49618" lon="6.92442">
        <ele>123.66674804688</ele>
        <time>2011-02-20T12:20:52Z</time>
      </trkpt>
      <trkpt lat="43.49604" lon="6.9244">
        <ele>124.62805175781</ele>
        <time>2011-02-20T12:21:01Z</time>
      </trkpt>
      <trkpt lat="43.49595" lon="6.92443">
        <ele>126.06994628906</ele>
        <time>2011-02-20T12:21:12Z</time>
      </trkpt>
      <trkpt lat="43.49592" lon="6.92444">
        <ele>126.06994628906</ele>
        <time>2011-02-20T12:21:15Z</time>
      </trkpt>
      <trkpt lat="43.49588" lon="6.92452">
        <ele>125.58935546875</ele>
        <time>2011-02-20T12:21:29Z</time>
      </trkpt>
      <trkpt lat="43.49588" lon="6.92452">
        <ele>125.58935546875</ele>
        <time>2011-02-20T12:22:05Z</time>
      </trkpt>
      <trkpt lat="43.49587" lon="6.92453">
        <ele>125.58935546875</ele>
        <time>2011-02-20T12:22:50Z</time>
      </trkpt>
      <trkpt lat="43.49586" lon="6.92463">
        <ele>125.58935546875</ele>
        <time>2011-02-20T12:22:54Z</time>
      </trkpt>
      <trkpt lat="43.49576" lon="6.92509">
        <ele>128.47338867188</ele>
        <time>2011-02-20T12:23:05Z</time>
      </trkpt>
      <trkpt lat="43.49572" lon="6.92531">
        <ele>130.39599609375</ele>
        <time>2011-02-20T12:23:11Z</time>
      </trkpt>
      <trkpt lat="43.49567" lon="6.92541">
        <ele>132.31860351562</ele>
        <time>2011-02-20T12:23:15Z</time>
      </trkpt>
      <trkpt lat="43.49556" lon="6.92576">
        <ele>136.16394042969</ele>
        <time>2011-02-20T12:23:28Z</time>
      </trkpt>
      <trkpt lat="43.49545" lon="6.92597">
        <ele>136.64465332031</ele>
        <time>2011-02-20T12:23:36Z</time>
      </trkpt>
      <trkpt lat="43.49518" lon="6.92629">
        <ele>133.76049804688</ele>
        <time>2011-02-20T12:23:48Z</time>
      </trkpt>
      <trkpt lat="43.49502" lon="6.92663">
        <ele>132.79931640625</ele>
        <time>2011-02-20T12:23:57Z</time>
      </trkpt>
      <trkpt lat="43.49497" lon="6.92689">
        <ele>129.43469238281</ele>
        <time>2011-02-20T12:24:02Z</time>
      </trkpt>
      <trkpt lat="43.49497" lon="6.92724">
        <ele>126.55065917969</ele>
        <time>2011-02-20T12:24:07Z</time>
      </trkpt>
      <trkpt lat="43.49489" lon="6.92759">
        <ele>122.70544433594</ele>
        <time>2011-02-20T12:24:16Z</time>
      </trkpt>
      <trkpt lat="43.49489" lon="6.92759">
        <ele>123.18615722656</ele>
        <time>2011-02-20T12:25:02Z</time>
      </trkpt>
      <trkpt lat="43.49489" lon="6.9276">
        <ele>123.18615722656</ele>
        <time>2011-02-20T12:27:05Z</time>
      </trkpt>
      <trkpt lat="43.49489" lon="6.92772">
        <ele>123.18615722656</ele>
        <time>2011-02-20T12:27:10Z</time>
      </trkpt>
      <trkpt lat="43.49475" lon="6.92807">
        <ele>125.58935546875</ele>
        <time>2011-02-20T12:27:25Z</time>
      </trkpt>
      <trkpt lat="43.49457" lon="6.92836">
        <ele>128.9541015625</ele>
        <time>2011-02-20T12:27:41Z</time>
      </trkpt>
      <trkpt lat="43.49437" lon="6.92838">
        <ele>129.91528320312</ele>
        <time>2011-02-20T12:27:54Z</time>
      </trkpt>
      <trkpt lat="43.49419" lon="6.92842">
        <ele>131.35729980469</ele>
        <time>2011-02-20T12:28:07Z</time>
      </trkpt>
      <trkpt lat="43.49401" lon="6.9287">
        <ele>134.72192382812</ele>
        <time>2011-02-20T12:28:24Z</time>
      </trkpt>
      <trkpt lat="43.49402" lon="6.92899">
        <ele>136.16394042969</ele>
        <time>2011-02-20T12:28:38Z</time>
      </trkpt>
      <trkpt lat="43.49413" lon="6.92936">
        <ele>139.52844238281</ele>
        <time>2011-02-20T12:28:56Z</time>
      </trkpt>
      <trkpt lat="43.49405" lon="6.92963">
        <ele>142.41247558594</ele>
        <time>2011-02-20T12:29:10Z</time>
      </trkpt>
      <trkpt lat="43.49404" lon="6.92991">
        <ele>144.33520507812</ele>
        <time>2011-02-20T12:29:24Z</time>
      </trkpt>
      <trkpt lat="43.49406" lon="6.92999">
        <ele>144.81579589844</ele>
        <time>2011-02-20T12:29:28Z</time>
      </trkpt>
      <trkpt lat="43.49402" lon="6.93041">
        <ele>147.69970703125</ele>
        <time>2011-02-20T12:29:48Z</time>
      </trkpt>
      <trkpt lat="43.49389" lon="6.93071">
        <ele>151.06420898438</ele>
        <time>2011-02-20T12:30:05Z</time>
      </trkpt>
      <trkpt lat="43.49385" lon="6.9308">
        <ele>151.544921875</ele>
        <time>2011-02-20T12:30:10Z</time>
      </trkpt>
      <trkpt lat="43.49378" lon="6.9309">
        <ele>152.98693847656</ele>
        <time>2011-02-20T12:30:16Z</time>
      </trkpt>
      <trkpt lat="43.49361" lon="6.93122">
        <ele>155.39025878906</ele>
        <time>2011-02-20T12:30:34Z</time>
      </trkpt>
      <trkpt lat="43.49354" lon="6.93159">
        <ele>157.79357910156</ele>
        <time>2011-02-20T12:30:51Z</time>
      </trkpt>
      <trkpt lat="43.49364" lon="6.93192">
        <ele>160.67749023438</ele>
        <time>2011-02-20T12:31:07Z</time>
      </trkpt>
      <trkpt lat="43.49366" lon="6.93197">
        <ele>161.158203125</ele>
        <time>2011-02-20T12:31:10Z</time>
      </trkpt>
      <trkpt lat="43.49368" lon="6.932">
        <ele>161.63891601562</ele>
        <time>2011-02-20T12:31:12Z</time>
      </trkpt>
      <trkpt lat="43.49373" lon="6.93193">
        <ele>162.11950683594</ele>
        <time>2011-02-20T12:31:20Z</time>
      </trkpt>
      <trkpt lat="43.49368" lon="6.93179">
        <ele>163.5615234375</ele>
        <time>2011-02-20T12:31:28Z</time>
      </trkpt>
      <trkpt lat="43.49377" lon="6.93148">
        <ele>164.52270507812</ele>
        <time>2011-02-20T12:31:45Z</time>
      </trkpt>
      <trkpt lat="43.49399" lon="6.93129">
        <ele>166.4453125</ele>
        <time>2011-02-20T12:32:01Z</time>
      </trkpt>
      <trkpt lat="43.49421" lon="6.93118">
        <ele>167.88732910156</ele>
        <time>2011-02-20T12:32:15Z</time>
      </trkpt>
      <trkpt lat="43.49429" lon="6.93114">
        <ele>168.36804199219</ele>
        <time>2011-02-20T12:32:20Z</time>
      </trkpt>
      <trkpt lat="43.49439" lon="6.93117">
        <ele>168.36804199219</ele>
        <time>2011-02-20T12:32:26Z</time>
      </trkpt>
      <trkpt lat="43.49442" lon="6.93149">
        <ele>167.40673828125</ele>
        <time>2011-02-20T12:32:35Z</time>
      </trkpt>
      <trkpt lat="43.49436" lon="6.93175">
        <ele>166.92602539062</ele>
        <time>2011-02-20T12:32:40Z</time>
      </trkpt>
      <trkpt lat="43.49405" lon="6.93234">
        <ele>166.4453125</ele>
        <time>2011-02-20T12:32:54Z</time>
      </trkpt>
      <trkpt lat="43.494" lon="6.93279">
        <ele>171.25207519531</ele>
        <time>2011-02-20T12:33:08Z</time>
      </trkpt>
      <trkpt lat="43.494" lon="6.93309">
        <ele>174.61657714844</ele>
        <time>2011-02-20T12:33:22Z</time>
      </trkpt>
      <trkpt lat="43.494" lon="6.93313">
        <ele>175.09729003906</ele>
        <time>2011-02-20T12:33:24Z</time>
      </trkpt>
      <trkpt lat="43.49391" lon="6.93318">
        <ele>177.02001953125</ele>
        <time>2011-02-20T12:33:34Z</time>
      </trkpt>
      <trkpt lat="43.4939" lon="6.93316">
        <ele>177.50061035156</ele>
        <time>2011-02-20T12:33:35Z</time>
      </trkpt>
      <trkpt lat="43.49381" lon="6.93306">
        <ele>178.94262695312</ele>
        <time>2011-02-20T12:33:43Z</time>
      </trkpt>
      <trkpt lat="43.49375" lon="6.93305">
        <ele>179.42321777344</ele>
        <time>2011-02-20T12:33:49Z</time>
      </trkpt>
      <trkpt lat="43.4937" lon="6.93303">
        <ele>180.38452148438</ele>
        <time>2011-02-20T12:33:53Z</time>
      </trkpt>
      <trkpt lat="43.49362" lon="6.93302">
        <ele>181.34582519531</ele>
        <time>2011-02-20T12:33:59Z</time>
      </trkpt>
      <trkpt lat="43.49342" lon="6.93316">
        <ele>183.7490234375</ele>
        <time>2011-02-20T12:34:14Z</time>
      </trkpt>
      <trkpt lat="43.49341" lon="6.93346">
        <ele>186.15246582031</ele>
        <time>2011-02-20T12:34:30Z</time>
      </trkpt>
      <trkpt lat="43.49351" lon="6.93372">
        <ele>188.55578613281</ele>
        <time>2011-02-20T12:34:44Z</time>
      </trkpt>
      <trkpt lat="43.4935" lon="6.93378">
        <ele>189.51696777344</ele>
        <time>2011-02-20T12:34:59Z</time>
      </trkpt>
      <trkpt lat="43.4935" lon="6.93378">
        <ele>189.51696777344</ele>
        <time>2011-02-20T12:36:34Z</time>
      </trkpt>
      <trkpt lat="43.49351" lon="6.93379">
        <ele>189.99768066406</ele>
        <time>2011-02-20T12:37:56Z</time>
      </trkpt>
      <trkpt lat="43.49354" lon="6.93382">
        <ele>190.47839355469</ele>
        <time>2011-02-20T12:40:40Z</time>
      </trkpt>
      <trkpt lat="43.49352" lon="6.93383">
        <ele>189.99768066406</ele>
        <time>2011-02-20T12:40:51Z</time>
      </trkpt>
      <trkpt lat="43.49353" lon="6.93382">
        <ele>189.99768066406</ele>
        <time>2011-02-20T12:41:39Z</time>
      </trkpt>
      <trkpt lat="43.49363" lon="6.9336">
        <ele>190.47839355469</ele>
        <time>2011-02-20T12:41:49Z</time>
      </trkpt>
      <trkpt lat="43.49369" lon="6.93349">
        <ele>190.47839355469</ele>
        <time>2011-02-20T12:41:52Z</time>
      </trkpt>
      <trkpt lat="43.49372" lon="6.93335">
        <ele>189.03637695312</ele>
        <time>2011-02-20T12:42:00Z</time>
      </trkpt>
      <trkpt lat="43.49371" lon="6.93336">
        <ele>189.03637695312</ele>
        <time>2011-02-20T12:42:06Z</time>
      </trkpt>
      <trkpt lat="43.49368" lon="6.93354">
        <ele>189.03637695312</ele>
        <time>2011-02-20T12:42:21Z</time>
      </trkpt>
      <trkpt lat="43.49369" lon="6.93354">
        <ele>188.07507324219</ele>
        <time>2011-02-20T12:42:51Z</time>
      </trkpt>
      <trkpt lat="43.49369" lon="6.93355">
        <ele>189.03637695312</ele>
        <time>2011-02-20T12:43:24Z</time>
      </trkpt>
      <trkpt lat="43.49367" lon="6.93357">
        <ele>189.03637695312</ele>
        <time>2011-02-20T12:43:56Z</time>
      </trkpt>
      <trkpt lat="43.49367" lon="6.93357">
        <ele>189.03637695312</ele>
        <time>2011-02-20T12:46:42Z</time>
      </trkpt>
      <trkpt lat="43.49367" lon="6.93357">
        <ele>189.51696777344</ele>
        <time>2011-02-20T12:46:44Z</time>
      </trkpt>
      <trkpt lat="43.49366" lon="6.93355">
        <ele>189.51696777344</ele>
        <time>2011-02-20T12:46:47Z</time>
      </trkpt>
      <trkpt lat="43.4937" lon="6.93355">
        <ele>189.03637695312</ele>
        <time>2011-02-20T12:46:57Z</time>
      </trkpt>
      <trkpt lat="43.49372" lon="6.93355">
        <ele>189.03637695312</ele>
        <time>2011-02-20T12:46:58Z</time>
      </trkpt>
      <trkpt lat="43.49379" lon="6.9336">
        <ele>187.59436035156</ele>
        <time>2011-02-20T12:47:01Z</time>
      </trkpt>
      <trkpt lat="43.49389" lon="6.93374">
        <ele>184.71057128906</ele>
        <time>2011-02-20T12:47:06Z</time>
      </trkpt>
      <trkpt lat="43.49395" lon="6.93377">
        <ele>180.38452148438</ele>
        <time>2011-02-20T12:47:13Z</time>
      </trkpt>
      <trkpt lat="43.49395" lon="6.93374">
        <ele>180.38452148438</ele>
        <time>2011-02-20T12:47:14Z</time>
      </trkpt>
      <trkpt lat="43.49396" lon="6.93363">
        <ele>179.90380859375</ele>
        <time>2011-02-20T12:47:17Z</time>
      </trkpt>
      <trkpt lat="43.49394" lon="6.93343">
        <ele>179.42321777344</ele>
        <time>2011-02-20T12:47:24Z</time>
      </trkpt>
      <trkpt lat="43.49395" lon="6.93329">
        <ele>177.98120117188</ele>
        <time>2011-02-20T12:47:31Z</time>
      </trkpt>
      <trkpt lat="43.49394" lon="6.93322">
        <ele>177.02001953125</ele>
        <time>2011-02-20T12:47:33Z</time>
      </trkpt>
      <trkpt lat="43.49378" lon="6.93304">
        <ele>178.94262695312</ele>
        <time>2011-02-20T12:47:45Z</time>
      </trkpt>
      <trkpt lat="43.49377" lon="6.93303">
        <ele>178.94262695312</ele>
        <time>2011-02-20T12:48:47Z</time>
      </trkpt>
      <trkpt lat="43.49386" lon="6.93276">
        <ele>175.09729003906</ele>
        <time>2011-02-20T12:48:55Z</time>
      </trkpt>
      <trkpt lat="43.49396" lon="6.93258">
        <ele>173.17468261719</ele>
        <time>2011-02-20T12:48:59Z</time>
      </trkpt>
      <trkpt lat="43.49403" lon="6.93241">
        <ele>171.25207519531</ele>
        <time>2011-02-20T12:49:02Z</time>
      </trkpt>
      <trkpt lat="43.49407" lon="6.9323">
        <ele>169.81005859375</ele>
        <time>2011-02-20T12:49:04Z</time>
      </trkpt>
      <trkpt lat="43.49407" lon="6.93215">
        <ele>168.84875488281</ele>
        <time>2011-02-20T12:49:07Z</time>
      </trkpt>
      <trkpt lat="43.49412" lon="6.93179">
        <ele>171.73266601562</ele>
        <time>2011-02-20T12:49:17Z</time>
      </trkpt>
      <trkpt lat="43.49423" lon="6.93164">
        <ele>173.17468261719</ele>
        <time>2011-02-20T12:49:26Z</time>
      </trkpt>
      <trkpt lat="43.49425" lon="6.93156">
        <ele>173.6552734375</ele>
        <time>2011-02-20T12:49:29Z</time>
      </trkpt>
      <trkpt lat="43.49429" lon="6.93144">
        <ele>173.17468261719</ele>
        <time>2011-02-20T12:49:32Z</time>
      </trkpt>
      <trkpt lat="43.4944" lon="6.93112">
        <ele>171.73266601562</ele>
        <time>2011-02-20T12:49:40Z</time>
      </trkpt>
      <trkpt lat="43.49443" lon="6.93108">
        <ele>171.25207519531</ele>
        <time>2011-02-20T12:49:51Z</time>
      </trkpt>
      <trkpt lat="43.49443" lon="6.9311">
        <ele>170.77136230469</ele>
        <time>2011-02-20T12:50:54Z</time>
      </trkpt>
      <trkpt lat="43.49444" lon="6.93109">
        <ele>170.77136230469</ele>
        <time>2011-02-20T12:50:57Z</time>
      </trkpt>
      <trkpt lat="43.49448" lon="6.93101">
        <ele>170.29064941406</ele>
        <time>2011-02-20T12:51:00Z</time>
      </trkpt>
      <trkpt lat="43.4946" lon="6.93093">
        <ele>166.4453125</ele>
        <time>2011-02-20T12:51:08Z</time>
      </trkpt>
      <trkpt lat="43.4946" lon="6.93086">
        <ele>165.96472167969</ele>
        <time>2011-02-20T12:51:10Z</time>
      </trkpt>
      <trkpt lat="43.49455" lon="6.93055">
        <ele>162.11950683594</ele>
        <time>2011-02-20T12:51:18Z</time>
      </trkpt>
      <trkpt lat="43.49459" lon="6.93051">
        <ele>160.19689941406</ele>
        <time>2011-02-20T12:51:20Z</time>
      </trkpt>
      <trkpt lat="43.49469" lon="6.9305">
        <ele>158.27416992188</ele>
        <time>2011-02-20T12:51:27Z</time>
      </trkpt>
      <trkpt lat="43.49481" lon="6.93065">
        <ele>154.90954589844</ele>
        <time>2011-02-20T12:51:35Z</time>
      </trkpt>
      <trkpt lat="43.49489" lon="6.93077">
        <ele>152.98693847656</ele>
        <time>2011-02-20T12:51:50Z</time>
      </trkpt>
      <trkpt lat="43.49495" lon="6.93082">
        <ele>151.06420898438</ele>
        <time>2011-02-20T12:51:53Z</time>
      </trkpt>
      <trkpt lat="43.49497" lon="6.93084">
        <ele>150.10302734375</ele>
        <time>2011-02-20T12:51:55Z</time>
      </trkpt>
      <trkpt lat="43.49513" lon="6.93085">
        <ele>142.89306640625</ele>
        <time>2011-02-20T12:52:03Z</time>
      </trkpt>
      <trkpt lat="43.4952" lon="6.93083">
        <ele>139.52844238281</ele>
        <time>2011-02-20T12:52:07Z</time>
      </trkpt>
      <trkpt lat="43.49535" lon="6.93081">
        <ele>134.72192382812</ele>
        <time>2011-02-20T12:52:16Z</time>
      </trkpt>
      <trkpt lat="43.49542" lon="6.93083">
        <ele>132.31860351562</ele>
        <time>2011-02-20T12:52:19Z</time>
      </trkpt>
      <trkpt lat="43.49547" lon="6.93088">
        <ele>131.35729980469</ele>
        <time>2011-02-20T12:52:21Z</time>
      </trkpt>
      <trkpt lat="43.49556" lon="6.93091">
        <ele>128.47338867188</ele>
        <time>2011-02-20T12:52:26Z</time>
      </trkpt>
      <trkpt lat="43.49574" lon="6.9308">
        <ele>123.66674804688</ele>
        <time>2011-02-20T12:52:36Z</time>
      </trkpt>
      <trkpt lat="43.49581" lon="6.93072">
        <ele>120.78283691406</ele>
        <time>2011-02-20T12:52:41Z</time>
      </trkpt>
      <trkpt lat="43.49581" lon="6.93059">
        <ele>117.89880371094</ele>
        <time>2011-02-20T12:52:46Z</time>
      </trkpt>
      <trkpt lat="43.4958" lon="6.93051">
        <ele>114.5341796875</ele>
        <time>2011-02-20T12:52:51Z</time>
      </trkpt>
      <trkpt lat="43.49583" lon="6.93047">
        <ele>111.65026855469</ele>
        <time>2011-02-20T12:52:57Z</time>
      </trkpt>
      <trkpt lat="43.4959" lon="6.93024">
        <ele>106.84362792969</ele>
        <time>2011-02-20T12:53:07Z</time>
      </trkpt>
      <trkpt lat="43.49599" lon="6.93024">
        <ele>105.88244628906</ele>
        <time>2011-02-20T12:53:12Z</time>
      </trkpt>
      <trkpt lat="43.49598" lon="6.93023">
        <ele>106.84362792969</ele>
        <time>2011-02-20T12:53:38Z</time>
      </trkpt>
      <trkpt lat="43.49614" lon="6.93034">
        <ele>107.80505371094</ele>
        <time>2011-02-20T12:54:58Z</time>
      </trkpt>
      <trkpt lat="43.49622" lon="6.93038">
        <ele>107.32434082031</ele>
        <time>2011-02-20T12:55:05Z</time>
      </trkpt>
      <trkpt lat="43.49631" lon="6.93035">
        <ele>104.92102050781</ele>
        <time>2011-02-20T12:55:10Z</time>
      </trkpt>
      <trkpt lat="43.49655" lon="6.93033">
        <ele>99.6337890625</ele>
        <time>2011-02-20T12:55:17Z</time>
      </trkpt>
      <trkpt lat="43.49669" lon="6.93032">
        <ele>95.788452148438</ele>
        <time>2011-02-20T12:55:22Z</time>
      </trkpt>
      <trkpt lat="43.49683" lon="6.93048">
        <ele>90.501342773438</ele>
        <time>2011-02-20T12:55:29Z</time>
      </trkpt>
      <trkpt lat="43.49683" lon="6.93051">
        <ele>89.539916992188</ele>
        <time>2011-02-20T12:55:31Z</time>
      </trkpt>
      <trkpt lat="43.49685" lon="6.93059">
        <ele>88.098022460938</ele>
        <time>2011-02-20T12:55:35Z</time>
      </trkpt>
      <trkpt lat="43.49688" lon="6.93065">
        <ele>85.213989257812</ele>
        <time>2011-02-20T12:55:39Z</time>
      </trkpt>
      <trkpt lat="43.49693" lon="6.9307">
        <ele>81.849365234375</ele>
        <time>2011-02-20T12:55:43Z</time>
      </trkpt>
      <trkpt lat="43.49702" lon="6.9308">
        <ele>76.562133789062</ele>
        <time>2011-02-20T12:55:49Z</time>
      </trkpt>
      <trkpt lat="43.49706" lon="6.93103">
        <ele>71.755493164062</ele>
        <time>2011-02-20T12:55:57Z</time>
      </trkpt>
      <trkpt lat="43.49706" lon="6.93103">
        <ele>71.755493164062</ele>
        <time>2011-02-20T12:56:31Z</time>
      </trkpt>
      <trkpt lat="43.49705" lon="6.93111">
        <ele>71.755493164062</ele>
        <time>2011-02-20T12:58:23Z</time>
      </trkpt>
      <trkpt lat="43.49695" lon="6.93137">
        <ele>70.794189453125</ele>
        <time>2011-02-20T12:58:27Z</time>
      </trkpt>
      <trkpt lat="43.49685" lon="6.93168">
        <ele>67.4296875</ele>
        <time>2011-02-20T12:58:31Z</time>
      </trkpt>
      <trkpt lat="43.49676" lon="6.93196">
        <ele>61.661743164062</ele>
        <time>2011-02-20T12:58:40Z</time>
      </trkpt>
      <trkpt lat="43.49679" lon="6.93203">
        <ele>60.700317382812</ele>
        <time>2011-02-20T12:58:42Z</time>
      </trkpt>
      <trkpt lat="43.4968" lon="6.93228">
        <ele>55.893798828125</ele>
        <time>2011-02-20T12:58:50Z</time>
      </trkpt>
      <trkpt lat="43.49683" lon="6.9326">
        <ele>52.529174804688</ele>
        <time>2011-02-20T12:58:58Z</time>
      </trkpt>
      <trkpt lat="43.49671" lon="6.93304">
        <ele>50.606567382812</ele>
        <time>2011-02-20T12:59:06Z</time>
      </trkpt>
      <trkpt lat="43.49668" lon="6.93323">
        <ele>49.645263671875</ele>
        <time>2011-02-20T12:59:09Z</time>
      </trkpt>
      <trkpt lat="43.49678" lon="6.93354">
        <ele>49.645263671875</ele>
        <time>2011-02-20T12:59:16Z</time>
      </trkpt>
      <trkpt lat="43.49682" lon="6.93362">
        <ele>48.683959960938</ele>
        <time>2011-02-20T12:59:20Z</time>
      </trkpt>
      <trkpt lat="43.49689" lon="6.93392">
        <ele>47.241821289062</ele>
        <time>2011-02-20T12:59:29Z</time>
      </trkpt>
      <trkpt lat="43.49701" lon="6.93418">
        <ele>48.203369140625</ele>
        <time>2011-02-20T12:59:36Z</time>
      </trkpt>
      <trkpt lat="43.49709" lon="6.93468">
        <ele>46.76123046875</ele>
        <time>2011-02-20T12:59:44Z</time>
      </trkpt>
      <trkpt lat="43.49715" lon="6.93489">
        <ele>46.280639648438</ele>
        <time>2011-02-20T12:59:47Z</time>
      </trkpt>
      <trkpt lat="43.49702" lon="6.93507">
        <ele>46.76123046875</ele>
        <time>2011-02-20T12:59:54Z</time>
      </trkpt>
      <trkpt lat="43.49696" lon="6.93514">
        <ele>46.76123046875</ele>
        <time>2011-02-20T12:59:57Z</time>
      </trkpt>
      <trkpt lat="43.49685" lon="6.93543">
        <ele>45.799926757812</ele>
        <time>2011-02-20T13:00:05Z</time>
      </trkpt>
      <trkpt lat="43.49685" lon="6.93548">
        <ele>45.319213867188</ele>
        <time>2011-02-20T13:00:07Z</time>
      </trkpt>
      <trkpt lat="43.49693" lon="6.93549">
        <ele>42.916015625</ele>
        <time>2011-02-20T13:00:12Z</time>
      </trkpt>
      <trkpt lat="43.49703" lon="6.93539">
        <ele>40.512817382812</ele>
        <time>2011-02-20T13:00:18Z</time>
      </trkpt>
      <trkpt lat="43.49708" lon="6.93535">
        <ele>40.032104492188</ele>
        <time>2011-02-20T13:00:20Z</time>
      </trkpt>
      <trkpt lat="43.49727" lon="6.9354">
        <ele>39.070678710938</ele>
        <time>2011-02-20T13:00:26Z</time>
      </trkpt>
      <trkpt lat="43.49747" lon="6.93551">
        <ele>41.473999023438</ele>
        <time>2011-02-20T13:00:34Z</time>
      </trkpt>
      <trkpt lat="43.49782" lon="6.93567">
        <ele>40.993408203125</ele>
        <time>2011-02-20T13:00:45Z</time>
      </trkpt>
      <trkpt lat="43.49797" lon="6.93576">
        <ele>40.512817382812</ele>
        <time>2011-02-20T13:00:49Z</time>
      </trkpt>
      <trkpt lat="43.49825" lon="6.93593">
        <ele>37.628662109375</ele>
        <time>2011-02-20T13:00:57Z</time>
      </trkpt>
      <trkpt lat="43.4984" lon="6.9361">
        <ele>37.148071289062</ele>
        <time>2011-02-20T13:01:03Z</time>
      </trkpt>
      <trkpt lat="43.49844" lon="6.93614">
        <ele>37.148071289062</ele>
        <time>2011-02-20T13:01:05Z</time>
      </trkpt>
      <trkpt lat="43.4986" lon="6.93629">
        <ele>37.628662109375</ele>
        <time>2011-02-20T13:01:12Z</time>
      </trkpt>
      <trkpt lat="43.49872" lon="6.93631">
        <ele>36.66748046875</ele>
        <time>2011-02-20T13:01:16Z</time>
      </trkpt>
      <trkpt lat="43.49886" lon="6.93628">
        <ele>35.7060546875</ele>
        <time>2011-02-20T13:01:20Z</time>
      </trkpt>
      <trkpt lat="43.49901" lon="6.93635">
        <ele>33.783447265625</ele>
        <time>2011-02-20T13:01:27Z</time>
      </trkpt>
      <trkpt lat="43.49919" lon="6.93637">
        <ele>32.341552734375</ele>
        <time>2011-02-20T13:01:35Z</time>
      </trkpt>
      <trkpt lat="43.4992" lon="6.93637">
        <ele>32.341552734375</ele>
        <time>2011-02-20T13:01:38Z</time>
      </trkpt>
      <trkpt lat="43.49929" lon="6.93636">
        <ele>32.341552734375</ele>
        <time>2011-02-20T13:01:42Z</time>
      </trkpt>
      <trkpt lat="43.49947" lon="6.93649">
        <ele>30.899536132812</ele>
        <time>2011-02-20T13:01:49Z</time>
      </trkpt>
      <trkpt lat="43.49968" lon="6.9366">
        <ele>29.45751953125</ele>
        <time>2011-02-20T13:01:55Z</time>
      </trkpt>
      <trkpt lat="43.49979" lon="6.93666">
        <ele>28.976928710938</ele>
        <time>2011-02-20T13:01:58Z</time>
      </trkpt>
      <trkpt lat="43.50006" lon="6.93685">
        <ele>25.131713867188</ele>
        <time>2011-02-20T13:02:05Z</time>
      </trkpt>
      <trkpt lat="43.50017" lon="6.93701">
        <ele>23.208984375</ele>
        <time>2011-02-20T13:02:14Z</time>
      </trkpt>
      <trkpt lat="43.50018" lon="6.93701">
        <ele>23.208984375</ele>
        <time>2011-02-20T13:02:30Z</time>
      </trkpt>
      <trkpt lat="43.50019" lon="6.93702">
        <ele>23.208984375</ele>
        <time>2011-02-20T13:03:13Z</time>
      </trkpt>
      <trkpt lat="43.5002" lon="6.93702">
        <ele>23.208984375</ele>
        <time>2011-02-20T13:04:07Z</time>
      </trkpt>
      <trkpt lat="43.5002" lon="6.93702">
        <ele>23.208984375</ele>
        <time>2011-02-20T13:04:53Z</time>
      </trkpt>
      <trkpt lat="43.50022" lon="6.93702">
        <ele>23.208984375</ele>
        <time>2011-02-20T13:05:13Z</time>
      </trkpt>
      <trkpt lat="43.50022" lon="6.93702">
        <ele>23.208984375</ele>
        <time>2011-02-20T13:06:00Z</time>
      </trkpt>
      <trkpt lat="43.50021" lon="6.93702">
        <ele>23.689575195312</ele>
        <time>2011-02-20T13:07:47Z</time>
      </trkpt>
      <trkpt lat="43.50028" lon="6.93704">
        <ele>23.689575195312</ele>
        <time>2011-02-20T13:07:51Z</time>
      </trkpt>
      <trkpt lat="43.50037" lon="6.93705">
        <ele>22.728271484375</ele>
        <time>2011-02-20T13:07:55Z</time>
      </trkpt>
      <trkpt lat="43.50072" lon="6.93697">
        <ele>19.36376953125</ele>
        <time>2011-02-20T13:08:02Z</time>
      </trkpt>
      <trkpt lat="43.50096" lon="6.93703">
        <ele>17.441162109375</ele>
        <time>2011-02-20T13:08:06Z</time>
      </trkpt>
      <trkpt lat="43.50107" lon="6.93708">
        <ele>16.479736328125</ele>
        <time>2011-02-20T13:08:08Z</time>
      </trkpt>
      <trkpt lat="43.50145" lon="6.93719">
        <ele>15.037719726562</ele>
        <time>2011-02-20T13:08:14Z</time>
      </trkpt>
      <trkpt lat="43.50198" lon="6.93711">
        <ele>14.557006835938</ele>
        <time>2011-02-20T13:08:21Z</time>
      </trkpt>
      <trkpt lat="43.50238" lon="6.93708">
        <ele>14.557006835938</ele>
        <time>2011-02-20T13:08:27Z</time>
      </trkpt>
      <trkpt lat="43.50247" lon="6.93705">
        <ele>14.557006835938</ele>
        <time>2011-02-20T13:08:29Z</time>
      </trkpt>
      <trkpt lat="43.5026" lon="6.93699">
        <ele>14.557006835938</ele>
        <time>2011-02-20T13:08:32Z</time>
      </trkpt>
      <trkpt lat="43.5027" lon="6.93694">
        <ele>14.076416015625</ele>
        <time>2011-02-20T13:08:34Z</time>
      </trkpt>
      <trkpt lat="43.50294" lon="6.93694">
        <ele>13.595825195312</ele>
        <time>2011-02-20T13:08:39Z</time>
      </trkpt>
      <trkpt lat="43.50319" lon="6.93718">
        <ele>8.7891845703125</ele>
        <time>2011-02-20T13:08:46Z</time>
      </trkpt>
      <trkpt lat="43.50329" lon="6.93726">
        <ele>8.7891845703125</ele>
        <time>2011-02-20T13:08:51Z</time>
      </trkpt>
      <trkpt lat="43.50355" lon="6.93744">
        <ele>11.192504882812</ele>
        <time>2011-02-20T13:09:01Z</time>
      </trkpt>
      <trkpt lat="43.50357" lon="6.93744">
        <ele>11.673217773438</ele>
        <time>2011-02-20T13:09:18Z</time>
      </trkpt>
      <trkpt lat="43.50377" lon="6.93756">
        <ele>11.673217773438</ele>
        <time>2011-02-20T13:09:37Z</time>
      </trkpt>
      <trkpt lat="43.50398" lon="6.93778">
        <ele>10.711791992188</ele>
        <time>2011-02-20T13:09:42Z</time>
      </trkpt>
      <trkpt lat="43.50407" lon="6.93789">
        <ele>10.231201171875</ele>
        <time>2011-02-20T13:09:44Z</time>
      </trkpt>
      <trkpt lat="43.50433" lon="6.93828">
        <ele>8.30859375</ele>
        <time>2011-02-20T13:09:50Z</time>
      </trkpt>
      <trkpt lat="43.50453" lon="6.93846">
        <ele>8.30859375</ele>
        <time>2011-02-20T13:09:54Z</time>
      </trkpt>
      <trkpt lat="43.50537" lon="6.93902">
        <ele>4.4632568359375</ele>
        <time>2011-02-20T13:10:08Z</time>
      </trkpt>
      <trkpt lat="43.50548" lon="6.93914">
        <ele>4.4632568359375</ele>
        <time>2011-02-20T13:10:11Z</time>
      </trkpt>
      <trkpt lat="43.50555" lon="6.93918">
        <ele>3.982666015625</ele>
        <time>2011-02-20T13:10:15Z</time>
      </trkpt>
      <trkpt lat="43.50566" lon="6.93931">
        <ele>3.982666015625</ele>
        <time>2011-02-20T13:10:19Z</time>
      </trkpt>
      <trkpt lat="43.50598" lon="6.93973">
        <ele>3.982666015625</ele>
        <time>2011-02-20T13:10:29Z</time>
      </trkpt>
      <trkpt lat="43.50608" lon="6.93993">
        <ele>3.982666015625</ele>
        <time>2011-02-20T13:10:33Z</time>
      </trkpt>
      <trkpt lat="43.50628" lon="6.94017">
        <ele>3.982666015625</ele>
        <time>2011-02-20T13:10:39Z</time>
      </trkpt>
      <trkpt lat="43.50673" lon="6.94082">
        <ele>3.982666015625</ele>
        <time>2011-02-20T13:10:55Z</time>
      </trkpt>
      <trkpt lat="43.50702" lon="6.94123">
        <ele>3.021240234375</ele>
        <time>2011-02-20T13:11:05Z</time>
      </trkpt>
      <trkpt lat="43.50716" lon="6.94142">
        <ele>3.021240234375</ele>
        <time>2011-02-20T13:11:10Z</time>
      </trkpt>
      <trkpt lat="43.5073" lon="6.94157">
        <ele>3.501953125</ele>
        <time>2011-02-20T13:11:16Z</time>
      </trkpt>
      <trkpt lat="43.50741" lon="6.94163">
        <ele>3.982666015625</ele>
        <time>2011-02-20T13:11:22Z</time>
      </trkpt>
      <trkpt lat="43.5075" lon="6.94167">
        <ele>4.94384765625</ele>
        <time>2011-02-20T13:11:27Z</time>
      </trkpt>
      <trkpt lat="43.50757" lon="6.94155">
        <ele>5.9052734375</ele>
        <time>2011-02-20T13:11:33Z</time>
      </trkpt>
      <trkpt lat="43.5076" lon="6.94151">
        <ele>5.9052734375</ele>
        <time>2011-02-20T13:11:44Z</time>
      </trkpt>
      <trkpt lat="43.50763" lon="6.94163">
        <ele>3.501953125</ele>
        <time>2011-02-20T13:11:50Z</time>
      </trkpt>
      <trkpt lat="43.50763" lon="6.94164">
        <ele>3.021240234375</ele>
        <time>2011-02-20T13:11:57Z</time>
      </trkpt>
      <trkpt lat="43.50771" lon="6.94159">
        <ele>3.021240234375</ele>
        <time>2011-02-20T13:12:12Z</time>
      </trkpt>
      <trkpt lat="43.50771" lon="6.94159">
        <ele>3.021240234375</ele>
        <time>2011-02-20T13:13:48Z</time>
      </trkpt>
    </trkseg>
  </trk>
</gpx>